Provisional Data: Nanticoke Creek near Maine, NY


Please select a monitoring station.
Please select start date.
Please select start date.

Toggle Unit: C/F Toggle Unit: C/F
Sample Time Temperature (C) Temperature (F) Specific Conductivity (mS/cm) pH   Turbidity (NTU+) DO (mg/L)
5/17/2022 12:00:00 AM 16 60.8 0.159 7.26 25.92 8.85
5/17/2022 12:15:00 AM 15.93 60.674 0.16 7.26 22.45 8.85
5/17/2022 12:30:00 AM 15.85 60.53 0.16 7.26 20.53 8.86
5/17/2022 12:45:00 AM 15.77 60.386 0.16 7.27 18.51 8.87
5/17/2022 1:00:00 AM 15.68 60.224 0.161 7.26 16.89 8.87
5/17/2022 1:15:00 AM 15.6 60.08 0.16 7.27 15.67 8.88
5/17/2022 1:30:00 AM 15.51 59.918 0.16 7.25 15.04 8.89
5/17/2022 1:45:00 AM 15.42 59.756 0.16 7.26 13.98 8.91
5/17/2022 2:00:00 AM 15.34 59.612 0.159 7.26 13.36 8.9
5/17/2022 2:15:00 AM 15.24 59.432 0.158 7.25 12.83 8.92
5/17/2022 2:30:00 AM 15.16 59.288 0.157 7.24 12.56 8.93
5/17/2022 2:45:00 AM 15.08 59.144 0.157 7.24 11.69 8.92
5/17/2022 3:00:00 AM 15.01 59.018 0.156 7.23 11.69 8.93
5/17/2022 3:15:00 AM 14.93 58.874 0.155 7.22 11.85 8.94
5/17/2022 3:30:00 AM 14.86 58.748 0.155 7.22 11.53 8.95
5/17/2022 3:45:00 AM 14.78 58.604 0.154 7.22 10.97 8.97
5/17/2022 4:00:00 AM 14.71 58.478 0.154 7.22 11.22 8.97
5/17/2022 4:15:00 AM 14.64 58.352 0.153 7.21 10.44 8.98
5/17/2022 4:30:00 AM 14.57 58.226 0.153 7.21 10.96 8.99
5/17/2022 4:45:00 AM 14.51 58.118 0.153 7.21 10.74 9
5/17/2022 5:00:00 AM 14.44 57.992 0.152 7.2 10.91 9.01
5/17/2022 5:15:00 AM 14.38 57.884 0.152 7.19 11.98 9.02
5/17/2022 5:30:00 AM 14.32 57.776 0.152 7.2 11.9 9.03
5/17/2022 5:45:00 AM 14.25 57.65 0.151 7.19 11.13 9.05
5/17/2022 6:00:00 AM 14.19 57.542 0.151 7.19 11.2 9.06
5/17/2022 6:15:00 AM 14.14 57.452 0.151 7.19 10.89 9.08
5/17/2022 6:30:00 AM 14.09 57.362 0.151 7.19 11.49 9.09
5/17/2022 6:45:00 AM 14.04 57.272 0.151 7.2 11.68 9.17
5/17/2022 7:00:00 AM 14.01 57.218 0.151 7.2 12.19 9.23
5/17/2022 7:15:00 AM 13.95 57.11 0.15 7.2 12.13 9.29
5/17/2022 7:30:00 AM 13.91 57.038 0.15 7.21 12.2 9.38
5/17/2022 7:45:00 AM 13.88 56.984 0.15 7.22 12.14 9.49
5/17/2022 8:00:00 AM 13.88 56.984 0.15 7.24 12.94 9.59
5/17/2022 8:15:00 AM 13.86 56.948 0.15 7.26 12.77 9.68
5/17/2022 8:30:00 AM 13.87 56.966 0.15 7.26 13.2 9.8
5/17/2022 8:45:00 AM 13.9 57.02 0.15 7.3 13.12 9.92
5/17/2022 9:00:00 AM 13.92 57.056 0.15 7.31 12.7 10.04
5/17/2022 9:15:00 AM 13.95 57.11 0.15 7.32 12.83 10.16
5/17/2022 9:30:00 AM 13.95 57.11 0.15 7.35 12.12 10.22
5/17/2022 9:45:00 AM 13.99 57.182 0.15 7.37 12.71 10.31
5/17/2022 10:00:00 AM 14.06 57.308 0.15 7.4 11.62 10.44
5/17/2022 10:15:00 AM 14.2 57.56 0.15 7.43 12.26 10.58
5/17/2022 10:30:00 AM 14.35 57.83 0.15 7.43 11.27 10.68
5/17/2022 10:45:00 AM 14.45 58.01 0.15 7.46 10.9 10.74
5/17/2022 11:00:00 AM 14.5 58.1 0.15 7.5 10.79 10.8
5/17/2022 11:15:00 AM 14.57 58.226 0.15 7.52 10.63 10.87
5/17/2022 11:30:00 AM 14.72 58.496 0.15 7.56 9.91 10.95
5/17/2022 11:45:00 AM 14.82 58.676 0.151 7.58 9.98 11.01
5/17/2022 12:00:00 PM 14.89 58.802 0.15 7.61 9.08 11.08
5/17/2022 12:15:00 PM 14.97 58.946 0.15 7.64 9.14 11.15
5/17/2022 12:30:00 PM 15.03 59.054 0.151 7.66 8.7 11.19
5/17/2022 12:45:00 PM 15.2 59.36 0.151 7.69 8.43 11.26
5/17/2022 1:00:00 PM 15.31 59.558 0.151 7.72 8.76 11.31
5/17/2022 1:15:00 PM 15.41 59.738 0.151 7.74 8.52 11.32
5/17/2022 1:30:00 PM 15.55 59.99 0.151 7.78 8.17 11.38
5/17/2022 1:45:00 PM 15.81 60.458 0.151 7.82 7.97 11.42
5/17/2022 2:00:00 PM 15.94 60.692 0.151 7.84 7.63 11.44
5/17/2022 2:15:00 PM 16.19 61.142 0.151 7.88 7.26 11.47
5/17/2022 2:30:00 PM 16.47 61.646 0.151 7.9 7.25 11.51
5/17/2022 2:45:00 PM 16.72 62.096 0.151 7.95 7.46 11.55
5/17/2022 3:00:00 PM 16.9 62.42 0.151 7.93 7.15 11.53
5/17/2022 3:15:00 PM 16.97 62.546 0.151 8 6.89 11.49
5/17/2022 3:30:00 PM 16.97 62.546 0.152 8.02 6.96 11.44
5/17/2022 3:45:00 PM 17.03 62.654 0.152 8.04 6.74 11.42
5/17/2022 4:00:00 PM 17.1 62.78 0.151 8.07 6.56 11.4
5/17/2022 4:15:00 PM 17.1 62.78 0.152 8.07 6.4 11.38
5/17/2022 4:30:00 PM 17.09 62.762 0.152 8.08 6.16 11.33
5/17/2022 4:45:00 PM 17.08 62.744 0.152 8.05 6.23 11.3
5/17/2022 5:00:00 PM 17.07 62.726 0.152 8.1 6.15 11.26
5/17/2022 5:15:00 PM 17.05 62.69 0.152 8.1 6.2 11.2
5/17/2022 5:30:00 PM 17.04 62.672 0.153 8.06 5.74 11.12
5/17/2022 5:45:00 PM 17.03 62.654 0.153 8.05 5.79 11.02
5/17/2022 6:00:00 PM 17.03 62.654 0.153 8.03 5.67 10.97
5/17/2022 6:15:00 PM 17.03 62.654 0.153 8 5.77 10.87
5/17/2022 6:30:00 PM 17 62.6 0.153 7.96 5.32 10.77
5/17/2022 6:45:00 PM 16.99 62.582 0.154 7.9 5.61 10.63
5/17/2022 7:00:00 PM 16.96 62.528 0.154 7.86 5.52 10.5
5/17/2022 7:15:00 PM 16.92 62.456 0.154 7.79 5.52 10.34
5/17/2022 7:30:00 PM 16.88 62.384 0.154 7.73 5.6 10.18
5/17/2022 7:45:00 PM 16.84 62.312 0.155 7.66 5.59 10.02
5/17/2022 8:00:00 PM 16.79 62.222 0.155 7.59 5.3 9.91
5/17/2022 8:15:00 PM 16.74 62.132 0.155 7.59 5.65 9.78
5/17/2022 8:30:00 PM 16.68 62.024 0.156 7.55 5.25 9.64
5/17/2022 8:45:00 PM 16.63 61.934 0.156 7.48 5.53 9.51
5/17/2022 9:00:00 PM 16.56 61.808 0.156 7.45 5.67 9.39
5/17/2022 9:15:00 PM 16.5 61.7 0.156 7.44 5.64 9.29
5/17/2022 9:30:00 PM 16.42 61.556 0.157 7.41 5.67 9.2
5/17/2022 9:45:00 PM 16.34 61.412 0.157 7.39 5.73 9.13
5/17/2022 10:00:00 PM 16.27 61.286 0.157 7.35 5.55 9.08
5/17/2022 10:15:00 PM 16.19 61.142 0.157 7.35 5.89 9.02
5/17/2022 10:30:00 PM 16.11 60.998 0.157 7.34 5.54 8.97
5/17/2022 10:45:00 PM 16.03 60.854 0.157 7.32 5.25 8.94
5/17/2022 11:00:00 PM 15.95 60.71 0.158 7.31 5.57 8.9
5/17/2022 11:15:00 PM 15.87 60.566 0.158 7.29 5.38 8.87
5/17/2022 11:30:00 PM 15.78 60.404 0.158 7.25 5.47 8.86
5/17/2022 11:45:00 PM 15.68 60.224 0.158 7.26 5.66 8.85
5/18/2022 12:00:00 AM 15.58 60.044 0.158 7.27 5.51 8.83
5/18/2022 12:15:00 AM 15.47 59.846 0.158 7.26 5.22 8.83
5/18/2022 12:30:00 AM 15.36 59.648 0.158 7.26 5.67 8.82
5/18/2022 12:45:00 AM 15.25 59.45 0.158 7.25 6.78 8.82
5/18/2022 1:00:00 AM 15.15 59.27 0.159 7.24 5.77 8.81
5/18/2022 1:15:00 AM 15.04 59.072 0.159 7.23 5.23 8.81
5/18/2022 1:30:00 AM 14.92 58.856 0.159 7.23 6.67 8.83
5/18/2022 1:45:00 AM 14.81 58.658 0.159 7.22 5.92 8.83
5/18/2022 2:00:00 AM 14.7 58.46 0.159 7.22 5.92 8.82
5/18/2022 2:15:00 AM 14.61 58.298 0.16 7.21 5.76 8.83
5/18/2022 2:30:00 AM 14.52 58.136 0.16 7.21 5.67 8.85
5/18/2022 2:45:00 AM 14.42 57.956 0.16 7.2 5.9 8.85
5/18/2022 3:00:00 AM 14.34 57.812 0.161 7.2 5.44 8.86
5/18/2022 3:15:00 AM 14.24 57.632 0.16 7.18 5.34 8.9
5/18/2022 3:30:00 AM 14.15 57.47 0.161 7.17 5.47 8.9
5/18/2022 3:45:00 AM 14.07 57.326 0.161 7.17 5.3 8.92
5/18/2022 4:00:00 AM 13.96 57.128 0.161 7.19 5.61 8.94
5/18/2022 4:15:00 AM 13.85 56.93 0.161 7.19 5.74 8.97
5/18/2022 4:30:00 AM 13.75 56.75 0.161 7.18 5.69 8.98
5/18/2022 4:45:00 AM 13.65 56.57 0.161 7.18 5.57 8.99
5/18/2022 5:00:00 AM 13.55 56.39 0.162 7.18 5.1 9.01
5/18/2022 5:15:00 AM 13.46 56.228 0.161 7.17 5.76 9.04
5/18/2022 5:30:00 AM 13.35 56.03 0.162 7.18 5.72 9.06
5/18/2022 5:45:00 AM 13.25 55.85 0.162 7.16 5.36 9.09
5/18/2022 6:00:00 AM 13.14 55.652 0.162 7.18 5.43 9.13
5/18/2022 6:15:00 AM 13.04 55.472 0.162 7.18 5.39 9.16
5/18/2022 6:30:00 AM 12.94 55.292 0.162 7.18 5.06 9.23
5/18/2022 6:45:00 AM 12.85 55.13 0.162 7.19 4.98 9.31
5/18/2022 7:00:00 AM 12.77 54.986 0.162 7.18 5.02 9.41
5/18/2022 7:15:00 AM 12.7 54.86 0.162 7.16 4.93 9.52
5/18/2022 7:30:00 AM 12.65 54.77 0.162 7.21 4.69 9.65
5/18/2022 7:45:00 AM 12.61 54.698 0.162 7.22 4.98 9.77
5/18/2022 8:00:00 AM 12.59 54.662 0.162 7.24 4.62 9.87
5/18/2022 8:15:00 AM 12.58 54.644 0.162 7.24 4.55 10.02
5/18/2022 8:30:00 AM 12.59 54.662 0.162 7.28 4.4 10.17
5/18/2022 8:45:00 AM 12.6 54.68 0.163 7.29 4.5 10.28
5/18/2022 9:00:00 AM 12.66 54.788 0.162 7.33 4.32 10.48
5/18/2022 9:15:00 AM 12.72 54.896 0.162 7.35 4.47 10.6
5/18/2022 9:30:00 AM 12.84 55.112 0.162 7.38 4.29 10.77
5/18/2022 9:45:00 AM 12.97 55.346 0.162 7.41 4.42 10.9
5/18/2022 10:00:00 AM 13.11 55.598 0.162 7.43 4.16 11.02
5/18/2022 10:15:00 AM 13.32 55.976 0.162 7.47 4.22 11.19
5/18/2022 10:30:00 AM 13.47 56.246 0.162 7.51 4.17 11.29
5/18/2022 10:45:00 AM 13.63 56.534 0.162 7.53 4.28 11.4
5/18/2022 11:00:00 AM 13.83 56.894 0.162 7.58 4.06 11.53
5/18/2022 11:15:00 AM 14.06 57.308 0.162 7.61 3.88 11.65
5/18/2022 11:30:00 AM 14.26 57.668 0.162 7.68 3.83 11.76
5/18/2022 11:45:00 AM 14.5 58.1 0.162 7.73 3.88 11.85
5/18/2022 12:00:00 PM 14.74 58.532 0.162 7.76 4.08 11.91
5/18/2022 12:15:00 PM 15.01 59.018 0.162 7.8 3.96 11.96
5/18/2022 12:30:00 PM 15.26 59.468 0.162 7.86 3.7 12.01
5/18/2022 12:45:00 PM 15.52 59.936 0.161 7.93 3.83 12.07
5/18/2022 1:00:00 PM 15.74 60.332 0.162 7.96 3.76 12.12
5/18/2022 1:15:00 PM 16.03 60.854 0.161 8.04 3.7 12.18
5/18/2022 1:30:00 PM 16.21 61.178 0.162 8.06 3.75 12.21
5/18/2022 1:45:00 PM 16.43 61.574 0.161 8.14 3.64 12.25
5/18/2022 2:00:00 PM 16.58 61.844 0.162 8.16 3.62 12.27
5/18/2022 2:15:00 PM 16.74 62.132 0.162 8.19 3.53 12.28
5/18/2022 2:30:00 PM 16.85 62.33 0.161 8.26 3.62 12.29
5/18/2022 2:45:00 PM 16.99 62.582 0.162 8.28 3.56 12.29
5/18/2022 3:00:00 PM 17.13 62.834 0.161 8.33 3.6 12.3
5/18/2022 3:15:00 PM 17.2 62.96 0.161 8.34 3.76 12.28
5/18/2022 3:30:00 PM 17.27 63.086 0.162 8.36 3.64 12.26
5/18/2022 3:45:00 PM 17.27 63.086 0.161 8.41 3.61 12.22
5/18/2022 4:00:00 PM 17.25 63.05 0.161 8.42 3.56 12.15
5/18/2022 4:15:00 PM 17.22 62.996 0.161 8.43 3.6 12.11
5/18/2022 4:30:00 PM 17.24 63.032 0.161 8.45 3.62 12.1
5/18/2022 4:45:00 PM 17.25 63.05 0.161 8.45 3.54 12.05
5/18/2022 5:00:00 PM 17.3 63.14 0.161 8.45 3.77 11.99
5/18/2022 5:15:00 PM 17.28 63.104 0.161 8.44 3.68 11.91
5/18/2022 5:30:00 PM 17.28 63.104 0.161 8.44 3.48 11.8
5/18/2022 5:45:00 PM 17.25 63.05 0.161 8.39 3.52 11.63
5/18/2022 6:00:00 PM 17.23 63.014 0.161 8.31 3.57 11.41
5/18/2022 6:15:00 PM 17.21 62.978 0.161 8.22 3.66 11.17
5/18/2022 6:30:00 PM 17.19 62.942 0.162 8.13 3.82 10.98
5/18/2022 6:45:00 PM 17.19 62.942 0.162 8.06 3.88 10.8
5/18/2022 7:00:00 PM 17.18 62.924 0.162 7.98 3.91 10.67
5/18/2022 7:15:00 PM 17.18 62.924 0.162 7.92 3.93 10.54
5/18/2022 7:30:00 PM 17.17 62.906 0.162 7.86 3.88 10.41
5/18/2022 7:45:00 PM 17.15 62.87 0.162 7.79 3.84 10.23
5/18/2022 8:00:00 PM 17.12 62.816 0.163 7.74 3.82 10.06
5/18/2022 8:15:00 PM 17.08 62.744 0.164 7.67 3.84 9.87
5/18/2022 8:30:00 PM 17.06 62.708 0.164 7.63 3.91 9.71
5/18/2022 8:45:00 PM 17.02 62.636 0.164 7.55 4.68 9.54
5/18/2022 9:00:00 PM 16.98 62.564 0.164 7.5 5.26 9.4
5/18/2022 9:15:00 PM 16.94 62.492 0.164 7.49 4.15 9.25
5/18/2022 9:30:00 PM 16.91 62.438 0.164 7.44 4.37 9.13
5/18/2022 9:45:00 PM 16.88 62.384 0.164 7.43 4.53 9.03
5/18/2022 10:00:00 PM 16.84 62.312 0.165 7.41 4.3 8.94
5/18/2022 10:15:00 PM 16.81 62.258 0.164 7.38 4.29 8.86
5/18/2022 10:30:00 PM 16.75 62.15 0.165 7.36 4.42 8.78
5/18/2022 10:45:00 PM 16.71 62.078 0.165 7.35 4.64 8.72
5/18/2022 11:00:00 PM 16.65 61.97 0.165 7.31 5.32 8.68
5/18/2022 11:15:00 PM 16.58 61.844 0.165 7.32 6.04 8.63
5/18/2022 11:30:00 PM 16.51 61.718 0.164 7.29 5.44 8.6
5/18/2022 11:45:00 PM 16.45 61.61 0.164 7.28 5.24 8.58
5/19/2022 12:00:00 AM 16.38 61.484 0.165 7.27 5.6 8.54
5/19/2022 12:15:00 AM 16.31 61.358 0.164 7.26 5.81 8.53
5/19/2022 12:30:00 AM 16.25 61.25 0.164 7.26 5.52 8.52
5/19/2022 12:45:00 AM 16.18 61.124 0.165 7.26 4.86 8.5
5/19/2022 1:00:00 AM 16.11 60.998 0.165 7.25 5.32 8.49
5/19/2022 1:15:00 AM 16.04 60.872 0.165 7.24 5.17 8.48
5/19/2022 1:30:00 AM 15.97 60.746 0.165 7.24 5.05 8.47
5/19/2022 1:45:00 AM 15.89 60.602 0.165 7.23 11.4 8.45
5/19/2022 2:00:00 AM 15.83 60.494 0.165 7.17 5.01 8.45
5/19/2022 2:15:00 AM 15.76 60.368 0.165 7.16 6.36 8.45
5/19/2022 2:30:00 AM 15.68 60.224 0.165 7.22 4.95 8.45
5/19/2022 2:45:00 AM 15.62 60.116 0.166 7.2 4.47 8.45
5/19/2022 3:00:00 AM 15.55 59.99 0.166 7.21 5.14 8.47
5/19/2022 3:15:00 AM 15.47 59.846 0.166 7.15 4.72 8.48
5/19/2022 3:30:00 AM 15.39 59.702 0.166 7.21 5.47 8.49
5/19/2022 3:45:00 AM 15.32 59.576 0.165 7.2 12.2 8.49
5/19/2022 4:00:00 AM 15.25 59.45 0.166 7.14 4450.85 8.49
5/19/2022 4:15:00 AM 15.16 59.288 0.165 7.2 6.25 8.52
5/19/2022 4:30:00 AM 15.1 59.18 0.165 7.2 6.48 8.53
5/19/2022 4:45:00 AM 15.03 59.054 0.165 7.19 7.55 8.53
5/19/2022 5:00:00 AM 14.95 58.91 0.166 7.19 9.85 8.54
5/19/2022 5:15:00 AM 14.88 58.784 0.166 7.19 115.26 8.56
5/19/2022 5:30:00 AM 14.82 58.676 0.165 7.16 6.29 8.58
5/19/2022 5:45:00 AM 14.75 58.55 0.166 7.19 6.27 8.61
5/19/2022 6:00:00 AM 14.68 58.424 0.165 7.19 5.8 8.62
5/19/2022 6:15:00 AM 14.62 58.316 0.166 7.18 7.25 8.62
5/19/2022 6:30:00 AM 14.55 58.19 0.165 7.19 5.76 8.67
5/19/2022 6:45:00 AM 14.49 58.082 0.165 7.18 5.29 8.71
5/19/2022 7:00:00 AM 14.44 57.992 0.165 7.2 7.31 8.76
5/19/2022 7:15:00 AM 14.38 57.884 0.165 7.2 4.73 8.8
5/19/2022 7:30:00 AM 14.32 57.776 0.165 7.19 4.7 8.88
5/19/2022 7:45:00 AM 14.28 57.704 0.165 7.21 6.65 8.9
5/19/2022 8:00:00 AM 14.23 57.614 0.165 7.21 6.11 8.98
5/19/2022 8:15:00 AM 14.18 57.524 0.165 7.21 7.43 9.02
5/19/2022 8:30:00 AM 14.15 57.47 0.165 7.23 239.39 9.09
5/19/2022 8:45:00 AM 14.12 57.416 0.164 7.24 4.8 9.23
5/19/2022 9:00:00 AM 14.1 57.38 0.164 7.26 4.44 9.38
5/19/2022 9:15:00 AM 14.07 57.326 0.164 7.28 5.96 9.49
5/19/2022 9:30:00 AM 14.04 57.272 0.164 7.28 5.92 9.52
5/19/2022 9:45:00 AM 14.02 57.236 0.164 7.3 4.87 9.6
5/19/2022 10:00:00 AM 14.02 57.236 0.164 7.32 6.04 9.76
5/19/2022 10:15:00 AM 14.02 57.236 0.164 7.34 5.92 9.92
5/19/2022 10:30:00 AM 14.03 57.254 0.165 7.37 5.45 10.02
5/19/2022 10:45:00 AM 14.02 57.236 0.165 7.39 5.54 10.13
5/19/2022 11:00:00 AM 14.02 57.236 0.165 7.39 5.49 10.2
5/19/2022 11:15:00 AM 14.01 57.218 0.166 7.42 5.17 10.26
5/19/2022 11:30:00 AM 14.03 57.254 0.166 7.44 5.4 10.32
5/19/2022 11:45:00 AM 14.06 57.308 0.166 7.47 5.44 10.43
5/19/2022 12:00:00 PM 14.12 57.416 0.167 7.48 5.6 10.58
5/19/2022 12:15:00 PM 14.18 57.524 0.167 7.54 5.88 10.72
5/19/2022 12:30:00 PM 14.23 57.614 0.167 7.56 6.12 10.82
5/19/2022 12:45:00 PM 14.28 57.704 0.167 7.61 6.78 10.89
5/19/2022 1:00:00 PM 14.31 57.758 0.167 7.64 7.28 10.94
5/19/2022 1:15:00 PM 14.35 57.83 0.168 7.65 7.8 10.93
5/19/2022 1:30:00 PM 14.45 58.01 0.168 7.66 7.12 10.96
5/19/2022 1:45:00 PM 14.65 58.37 0.167 7.7 14.32 11.12
5/19/2022 2:00:00 PM 14.8 58.64 0.167 7.77 8.36 11.28
5/19/2022 2:15:00 PM 15.01 59.018 0.167 7.82 9.28 11.37
5/19/2022 2:30:00 PM 15.19 59.342 0.166 7.87 8.66 11.41
5/19/2022 2:45:00 PM 15.2 59.36 0.166 7.89 8.59 11.4
5/19/2022 3:00:00 PM 15.21 59.378 0.166 7.85 8.49 11.38
5/19/2022 3:15:00 PM 15.24 59.432 0.165 7.92 8.52 11.38
5/19/2022 3:30:00 PM 15.34 59.612 0.164 7.93 7.39 11.36
5/19/2022 3:45:00 PM 15.52 59.936 0.164 7.95 7.56 11.42
5/19/2022 4:00:00 PM 15.7 60.26 0.164 7.94 5.83 9.97
5/19/2022 4:15:00 PM 15.84 60.512 0.163 8.01 7.59 11.49
5/19/2022 4:30:00 PM 15.96 60.728 0.163 8.02 6.27 11.46
5/19/2022 4:45:00 PM 16.06 60.908 0.163 8.04 7.35 11.44
5/19/2022 5:00:00 PM 16.16 61.088 0.162 8.06 6.78 11.41
5/19/2022 5:15:00 PM 16.26 61.268 0.162 8.06 5.43 11.4
5/19/2022 5:30:00 PM 16.32 61.376 0.162 8.08 7.23 11.37
5/19/2022 5:45:00 PM 16.34 61.412 0.162 8.07 5.87 11.29
5/19/2022 6:00:00 PM 16.36 61.448 0.162 8.05 6.08 11.21
5/19/2022 6:15:00 PM 16.38 61.484 0.162 8.02 5.67 11.12
5/19/2022 6:30:00 PM 16.4 61.52 0.162 8.01 5.88 11.04
5/19/2022 6:45:00 PM 16.41 61.538 0.163 7.98 5.65 10.96
5/19/2022 7:00:00 PM 16.4 61.52 0.163 7.93 5.86 10.85
5/19/2022 7:15:00 PM 16.39 61.502 0.163 7.9 5.92 10.75
5/19/2022 7:30:00 PM 16.37 61.466 0.163 7.86 5.73 10.64
5/19/2022 7:45:00 PM 16.34 61.412 0.163 7.81 5.74 10.51
5/19/2022 8:00:00 PM 16.31 61.358 0.164 7.77 5.68 10.38
5/19/2022 8:15:00 PM 16.27 61.286 0.164 7.71 5.71 10.24
5/19/2022 8:30:00 PM 16.23 61.214 0.164 7.66 6.05 10.08
5/19/2022 8:45:00 PM 16.18 61.124 0.165 7.61 8.98 9.92
5/19/2022 9:00:00 PM 16.13 61.034 0.165 7.56 4.48 9.78
5/19/2022 9:15:00 PM 16.08 60.944 0.165 7.52 4.42 9.65
5/19/2022 9:30:00 PM 16.03 60.854 0.165 7.48 4.81 9.54
5/19/2022 9:45:00 PM 15.97 60.746 0.166 7.46 5.05 9.43
5/19/2022 10:00:00 PM 15.93 60.674 0.166 7.43 4.75 9.35
5/19/2022 10:15:00 PM 15.87 60.566 0.166 7.41 4.94 9.28
5/19/2022 10:30:00 PM 15.82 60.476 0.166 7.39 4.75 9.22
5/19/2022 10:45:00 PM 15.75 60.35 0.166 7.37 4.91 9.16
5/19/2022 11:00:00 PM 15.69 60.242 0.166 7.35 4.77 9.12
5/19/2022 11:15:00 PM 15.64 60.152 0.165 7.35 8.16 9.08
5/19/2022 11:30:00 PM 15.58 60.044 0.165 7.33 4.84 9.04
5/19/2022 11:45:00 PM 15.53 59.954 0.166 7.32 5.05 9.01
5/20/2022 12:00:00 AM 15.47 59.846 0.165 7.31 4.61 8.99
5/20/2022 12:15:00 AM 15.43 59.774 0.165 7.3 5.15 8.98
5/20/2022 12:30:00 AM 15.38 59.684 0.165 7.29 5.03 8.96
5/20/2022 12:45:00 AM 15.32 59.576 0.165 7.29 5.22 8.94
5/20/2022 1:00:00 AM 15.26 59.468 0.165 7.28 5.26 8.92
5/20/2022 1:15:00 AM 15.2 59.36 0.165 7.27 5.13 8.92
5/20/2022 1:30:00 AM 15.13 59.234 0.165 7.27 5.16 8.93
5/20/2022 1:45:00 AM 15.06 59.108 0.165 7.26 5.07 8.92
5/20/2022 2:00:00 AM 14.99 58.982 0.165 7.26 5.07 8.92
5/20/2022 2:15:00 AM 14.91 58.838 0.165 7.25 5.56 8.91
5/20/2022 2:30:00 AM 14.83 58.694 0.165 7.25 5.45 8.92
5/20/2022 2:45:00 AM 14.75 58.55 0.165 7.24 13.88 8.92
5/20/2022 3:00:00 AM 14.66 58.388 0.165 7.24 5.13 8.93
5/20/2022 3:15:00 AM 14.57 58.226 0.165 7.24 4.82 8.94
5/20/2022 3:30:00 AM 14.49 58.082 0.165 7.23 5.4 8.93
5/20/2022 3:45:00 AM 14.4 57.92 0.164 7.22 5.49 8.96
5/20/2022 4:00:00 AM 14.32 57.776 0.165 7.22 6.82 8.95
5/20/2022 4:15:00 AM 14.22 57.596 0.165 7.22 5.72 9
5/20/2022 4:30:00 AM 14.14 57.452 0.165 7.21 4.92 8.99
5/20/2022 4:45:00 AM 14.05 57.29 0.164 7.21 5.06 9.02
5/20/2022 5:00:00 AM 13.97 57.146 0.164 7.2 5.04 9.02
5/20/2022 5:15:00 AM 13.88 56.984 0.164 7.21 4.85 9.04
5/20/2022 5:30:00 AM 13.79 56.822 0.164 7.21 5.34 9.07
5/20/2022 5:45:00 AM 13.71 56.678 0.164 7.2 5.05 9.08
5/20/2022 6:00:00 AM 13.62 56.516 0.164 7.2 4.67 9.11
5/20/2022 6:15:00 AM 13.54 56.372 0.164 7.2 4.64 9.16
5/20/2022 6:30:00 AM 13.49 56.282 0.164 7.2 4.4 9.23
5/20/2022 6:45:00 AM 13.44 56.192 0.164 7.21 4.49 9.33
5/20/2022 7:00:00 AM 13.39 56.102 0.164 7.23 4.37 9.44
5/20/2022 7:15:00 AM 13.36 56.048 0.163 7.24 4.29 9.56
5/20/2022 7:30:00 AM 13.35 56.03 0.163 7.25 4.54 9.69
5/20/2022 7:45:00 AM 13.35 56.03 0.163 7.27 4.47 9.86
5/20/2022 8:00:00 AM 13.36 56.048 0.163 7.3 4.46 10
5/20/2022 8:15:00 AM 13.38 56.084 0.163 7.32 4.21 10.16
5/20/2022 8:30:00 AM 13.42 56.156 0.163 7.35 3.96 10.29
5/20/2022 8:45:00 AM 13.48 56.264 0.163 7.37 4.18 10.42
5/20/2022 9:00:00 AM 13.57 56.426 0.162 7.4 4.12 10.61
5/20/2022 9:15:00 AM 13.65 56.57 0.162 7.43 3.9 10.72
5/20/2022 9:30:00 AM 13.76 56.768 0.162 7.45 4 10.84
5/20/2022 9:45:00 AM 13.92 57.056 0.162 7.48 3.91 10.96
5/20/2022 10:00:00 AM 14.04 57.272 0.162 7.53 3.87 11.12
5/20/2022 10:15:00 AM 14.13 57.434 0.162 7.56 3.68 11.22
5/20/2022 10:30:00 AM 14.18 57.524 0.162 7.6 3.67 11.28
5/20/2022 10:45:00 AM 14.21 57.578 0.162 7.62 3.66 11.29
5/20/2022 11:00:00 AM 14.21 57.578 0.162 7.61 3.67 11.18
5/20/2022 11:15:00 AM 14.26 57.668 0.162 7.6 3.61 11.1
5/20/2022 11:30:00 AM 14.34 57.812 0.162 7.6 3.56 11.16
5/20/2022 11:45:00 AM 14.47 58.046 0.161 7.66 3.4 11.34
5/20/2022 12:00:00 PM 14.62 58.316 0.161 7.72 3.44 11.52
5/20/2022 12:15:00 PM 14.7 58.46 0.161 7.77 3.44 11.6
5/20/2022 12:30:00 PM 14.8 58.64 0.161 7.82 3.31 11.66
5/20/2022 12:45:00 PM 14.88 58.784 0.161 7.86 3.3 11.7
5/20/2022 1:00:00 PM 14.98 58.964 0.161 7.89 3.28 11.71
5/20/2022 1:15:00 PM 15.2 59.36 0.161 7.93 3.34 11.77
5/20/2022 1:30:00 PM 15.4 59.72 0.161 7.98 3.22 11.86
5/20/2022 1:45:00 PM 15.74 60.332 0.161 8.04 3.48 11.95
5/20/2022 2:00:00 PM 16.06 60.908 0.161 8.08 3.14 12.01
5/20/2022 2:15:00 PM 16.43 61.574 0.161 8.15 3.23 12.05
5/20/2022 2:30:00 PM 16.7 62.06 0.161 8.2 3.2 12.07
5/20/2022 2:45:00 PM 16.91 62.438 0.16 8.24 3.02 12.06
5/20/2022 3:00:00 PM 17.01 62.618 0.16 8.28 3.27 12.04
5/20/2022 3:15:00 PM 17.07 62.726 0.161 8.27 3.16 11.93
5/20/2022 3:30:00 PM 17.32 63.176 0.16 8.3 3.15 11.95
5/20/2022 3:45:00 PM 17.57 63.626 0.16 8.34 3.17 11.99
5/20/2022 4:00:00 PM 17.83 64.094 0.161 8.38 3.05 11.99
5/20/2022 4:15:00 PM 17.95 64.31 0.161 8.39 3.15 11.9
5/20/2022 4:30:00 PM 17.96 64.328 0.161 8.38 3.05 11.7
5/20/2022 4:45:00 PM 17.9 64.22 0.161 8.32 3.18 11.52
5/20/2022 5:00:00 PM 17.89 64.202 0.161 8.27 3.17 11.4
5/20/2022 5:15:00 PM 17.95 64.31 0.161 8.25 3.05 11.3
5/20/2022 5:30:00 PM 18 64.4 0.161 8.22 3.13 11.23
5/20/2022 5:45:00 PM 18.05 64.49 0.161 8.22 3.34 11.18
5/20/2022 6:00:00 PM 18.08 64.544 0.161 8.21 3.2 11.12
5/20/2022 6:15:00 PM 18.09 64.562 0.162 8.15 3.1 10.99
5/20/2022 6:30:00 PM 18.08 64.544 0.162 8.11 3.25 10.79
5/20/2022 6:45:00 PM 18.07 64.526 0.162 8.03 3.24 10.62
5/20/2022 7:00:00 PM 18.07 64.526 0.162 7.95 3.31 10.47
5/20/2022 7:15:00 PM 18.08 64.544 0.162 7.9 3.25 10.33
5/20/2022 7:30:00 PM 18.09 64.562 0.162 7.85 3.28 10.23
5/20/2022 7:45:00 PM 18.09 64.562 0.163 7.78 3.45 10.06
5/20/2022 8:00:00 PM 18.1 64.58 0.163 7.74 3.31 9.89
5/20/2022 8:15:00 PM 18.1 64.58 0.163 7.67 3.37 9.73
5/20/2022 8:30:00 PM 18.08 64.544 0.163 7.59 3.32 9.57
5/20/2022 8:45:00 PM 18.08 64.544 0.164 7.58 3.64 9.43
5/20/2022 9:00:00 PM 18.08 64.544 0.163 7.53 3.54 9.26
5/20/2022 9:15:00 PM 18.08 64.544 0.164 7.5 3.8 9.12
5/20/2022 9:30:00 PM 18.07 64.526 0.164 7.46 3.76 9
5/20/2022 9:45:00 PM 18.07 64.526 0.164 7.41 3.94 8.9
5/20/2022 10:00:00 PM 18.06 64.508 0.164 7.41 3.79 8.79
5/20/2022 10:15:00 PM 18.05 64.49 0.164 7.39 4.07 8.7
5/20/2022 10:30:00 PM 18.01 64.418 0.165 7.36 3.95 8.62
5/20/2022 10:45:00 PM 18 64.4 0.165 7.35 3.98 8.56
5/20/2022 11:00:00 PM 17.96 64.328 0.165 7.33 4.11 8.49
5/20/2022 11:15:00 PM 17.94 64.292 0.165 7.32 3.98 8.44
5/20/2022 11:30:00 PM 17.89 64.202 0.166 7.3 4.07 8.39
5/20/2022 11:45:00 PM 17.85 64.13 0.166 7.29 4.15 8.34
5/21/2022 12:00:00 AM 17.8 64.04 0.165 7.27 4.25 8.32
5/21/2022 12:15:00 AM 17.75 63.95 0.165 7.27 3.97 8.29
5/21/2022 12:30:00 AM 17.69 63.842 0.166 7.26 4.09 8.26
5/21/2022 12:45:00 AM 17.62 63.716 0.166 7.25 4.27 8.25
5/21/2022 1:00:00 AM 17.56 63.608 0.166 7.2 4.38 8.25
5/21/2022 1:15:00 AM 17.49 63.482 0.166 7.24 4.05 8.25
5/21/2022 1:30:00 AM 17.42 63.356 0.166 7.2 3.96 8.23
5/21/2022 1:45:00 AM 17.34 63.212 0.167 7.22 4.03 8.22
5/21/2022 2:00:00 AM 17.27 63.086 0.166 7.22 4.18 8.24
5/21/2022 2:15:00 AM 17.19 62.942 0.166 7.21 4.1 8.24
5/21/2022 2:30:00 AM 17.11 62.798 0.166 7.21 4.25 8.24
5/21/2022 2:45:00 AM 17.03 62.654 0.166 7.2 4.26 8.26
5/21/2022 3:00:00 AM 16.96 62.528 0.167 7.2 4.53 8.25
5/21/2022 3:15:00 AM 16.88 62.384 0.167 7.2 4.7 8.26
5/21/2022 3:30:00 AM 16.79 62.222 0.167 7.19 4.21 8.26
5/21/2022 3:45:00 AM 16.72 62.096 0.167 7.19 4.17 8.29
5/21/2022 4:00:00 AM 16.64 61.952 0.167 7.19 4.08 8.3
5/21/2022 4:15:00 AM 16.57 61.826 0.167 7.18 4.52 8.3
5/21/2022 4:30:00 AM 16.49 61.682 0.168 7.17 5.25 8.29
5/21/2022 4:45:00 AM 16.41 61.538 0.168 7.17 4.45 8.31
5/21/2022 5:00:00 AM 16.33 61.394 0.168 7.18 4.5 8.34
5/21/2022 5:15:00 AM 16.26 61.268 0.169 7.17 4.45 8.35
5/21/2022 5:30:00 AM 16.18 61.124 0.169 7.18 4.94 8.38
5/21/2022 5:45:00 AM 16.11 60.998 0.169 7.17 4.95 8.38
5/21/2022 6:00:00 AM 16.04 60.872 0.169 7.17 4.34 8.4
5/21/2022 6:15:00 AM 15.98 60.764 0.169 7.17 4.47 8.42
5/21/2022 6:30:00 AM 15.92 60.656 0.17 7.17 4.19 8.47
5/21/2022 6:45:00 AM 15.87 60.566 0.17 7.17 4.2 8.53
5/21/2022 7:00:00 AM 15.82 60.476 0.17 7.18 4.08 8.6
5/21/2022 7:15:00 AM 15.79 60.422 0.17 7.19 4.22 8.72
5/21/2022 7:30:00 AM 15.76 60.368 0.17 7.2 4.02 8.87
5/21/2022 7:45:00 AM 15.76 60.368 0.17 7.23 3.85 9.01
5/21/2022 8:00:00 AM 15.76 60.368 0.17 7.25 3.8 9.14
5/21/2022 8:15:00 AM 15.78 60.404 0.17 7.27 3.76 9.33
5/21/2022 8:30:00 AM 15.8 60.44 0.17 7.28 3.73 9.45
5/21/2022 8:45:00 AM 15.87 60.566 0.17 7.32 3.69 9.63
5/21/2022 9:00:00 AM 15.97 60.746 0.17 7.34 4.27 9.8
5/21/2022 9:15:00 AM 16.08 60.944 0.17 7.31 3.45 9.9
5/21/2022 9:30:00 AM 16.22 61.196 0.169 7.39 3.5 10.05
5/21/2022 9:45:00 AM 16.41 61.538 0.169 7.43 3.58 10.22
5/21/2022 10:00:00 AM 16.59 61.862 0.169 7.47 3.35 10.36
5/21/2022 10:15:00 AM 16.81 62.258 0.169 7.51 3.43 10.51
5/21/2022 10:30:00 AM 17.03 62.654 0.169 7.54 3.44 10.64
5/21/2022 10:45:00 AM 17.3 63.14 0.169 7.59 3.3 10.77
5/21/2022 11:00:00 AM 17.55 63.59 0.169 7.62 3.25 10.88
5/21/2022 11:15:00 AM 17.81 64.058 0.168 7.67 3.23 10.98
5/21/2022 11:30:00 AM 18.08 64.544 0.169 7.71 3.27 11.07
5/21/2022 11:45:00 AM 18.36 65.048 0.168 7.76 3.28 11.16
5/21/2022 12:00:00 PM 18.64 65.552 0.168 7.81 3.18 11.24
5/21/2022 12:15:00 PM 18.9 66.02 0.168 7.85 12.35 11.29
5/21/2022 12:30:00 PM 19.21 66.578 0.168 7.89 3.06 11.35
5/21/2022 12:45:00 PM 19.51 67.118 0.168 7.95 3.07 11.41
5/21/2022 1:00:00 PM 19.8 67.64 0.167 8.02 2.99 11.45
5/21/2022 1:15:00 PM 20.07 68.126 0.168 8.05 3.01 11.48
5/21/2022 1:30:00 PM 20.28 68.504 0.168 8.09 3.18 11.48
5/21/2022 1:45:00 PM 20.51 68.918 0.167 8.13 4.91 11.48
5/21/2022 2:00:00 PM 20.73 69.314 0.167 8.16 2.93 11.49
5/21/2022 2:15:00 PM 21 69.8 0.167 8.21 2.89 11.52
5/21/2022 2:30:00 PM 21.18 70.124 0.167 8.24 2.93 11.5
5/21/2022 2:45:00 PM 21.43 70.574 0.167 8.28 3 11.5
5/21/2022 3:00:00 PM 21.63 70.934 0.167 8.3 2.99 11.47
5/21/2022 3:15:00 PM 21.73 71.114 0.167 8.31 4.28 11.4
5/21/2022 3:30:00 PM 21.9 71.42 0.167 8.35 3.25 11.42
5/21/2022 3:45:00 PM 21.94 71.492 0.167 8.34 3.02 11.32
5/21/2022 4:00:00 PM 21.98 71.564 0.166 8.38 3.25 11.27
5/21/2022 4:15:00 PM 22.04 71.672 0.166 8.4 3.1 11.21
5/21/2022 4:30:00 PM 22.11 71.798 0.166 8.4 3.1 11.16
5/21/2022 4:45:00 PM 22.18 71.924 0.166 8.4 3.03 11.1
5/21/2022 5:00:00 PM 22.27 72.086 0.167 8.39 3.07 11.01
5/21/2022 5:15:00 PM 22.37 72.266 0.166 8.38 3.15 10.88
5/21/2022 5:30:00 PM 22.42 72.356 0.166 8.35 3.1 10.74
5/21/2022 5:45:00 PM 22.48 72.464 0.167 8.31 3.07 10.61
5/21/2022 6:00:00 PM 22.53 72.554 0.167 8.28 3.26 10.45
5/21/2022 6:15:00 PM 22.58 72.644 0.167 8.24 3.24 10.31
5/21/2022 6:30:00 PM 22.63 72.734 0.167 8.19 3.2 10.19
5/21/2022 6:45:00 PM 22.66 72.788 0.167 8.13 3.21 10.03
5/21/2022 7:00:00 PM 22.72 72.896 0.167 8.09 3.32 9.89
5/21/2022 7:15:00 PM 22.74 72.932 0.168 8.02 3.34 9.7
5/21/2022 7:30:00 PM 22.76 72.968 0.168 7.93 3.5 9.54
5/21/2022 7:45:00 PM 22.78 73.004 0.168 7.86 3.36 9.34
5/21/2022 8:00:00 PM 22.77 72.986 0.168 7.77 3.56 9.13
5/21/2022 8:15:00 PM 22.8 73.04 0.168 7.72 3.57 8.95
5/21/2022 8:30:00 PM 22.78 73.004 0.168 7.61 4.04 8.76
5/21/2022 8:45:00 PM 22.76 72.968 0.168 7.58 4.26 8.55
5/21/2022 9:00:00 PM 22.75 72.95 0.168 7.53 3.81 8.34
5/21/2022 9:15:00 PM 22.71 72.878 0.168 7.47 4.15 8.15
5/21/2022 9:30:00 PM 22.66 72.788 0.169 7.42 4.3 7.99
5/21/2022 9:45:00 PM 22.61 72.698 0.17 7.38 4.17 7.84
5/21/2022 10:00:00 PM 22.57 72.626 0.17 7.35 4.39 7.73
5/21/2022 10:15:00 PM 22.52 72.536 0.17 7.32 4.45 7.61
5/21/2022 10:30:00 PM 22.46 72.42799 0.17 7.29 4.35 7.5
5/21/2022 10:45:00 PM 22.4 72.32 0.17 7.28 4.37 7.42
5/21/2022 11:00:00 PM 22.35 72.23 0.17 7.25 4.28 7.35
5/21/2022 11:15:00 PM 22.27 72.086 0.17 7.24 4.32 7.28
5/21/2022 11:30:00 PM 22.21 71.978 0.171 7.23 4.51 7.23
5/21/2022 11:45:00 PM 22.14 71.852 0.171 7.14 4.38 7.17
5/22/2022 12:00:00 AM 22.07 71.726 0.171 7.19 4.51 7.12
5/22/2022 12:15:00 AM 22 71.6 0.171 7.2 4.95 7.09
5/22/2022 12:30:00 AM 21.93 71.474 0.172 7.19 4.63 7.07
5/22/2022 12:45:00 AM 21.85 71.33 0.171 7.18 4.64 7.06
5/22/2022 1:00:00 AM 21.76 71.168 0.172 7.17 4.93 7.02
5/22/2022 1:15:00 AM 21.66 70.988 0.172 7.17 4.93 7.04
5/22/2022 1:30:00 AM 21.58 70.844 0.172 7.16 4.96 7.01
5/22/2022 1:45:00 AM 21.47 70.646 0.172 7.16 5.14 7.01
5/22/2022 2:00:00 AM 21.38 70.484 0.173 7.16 5.95 7.01
5/22/2022 2:15:00 AM 21.28 70.304 0.173 7.16 4.89 7.01
5/22/2022 2:30:00 AM 21.17 70.106 0.173 7.14 5 7.01
5/22/2022 2:45:00 AM 21.09 69.962 0.173 7.15 5.09 7
5/22/2022 3:00:00 AM 20.99 69.782 0.174 7.15 6.26 7
5/22/2022 3:15:00 AM 20.89 69.602 0.173 7.15 6.13 7.03
5/22/2022 3:30:00 AM 20.78 69.404 0.174 7.15 5.71 7.05
5/22/2022 3:45:00 AM 20.68 69.224 0.174 7.14 5.12 7.05
5/22/2022 4:00:00 AM 20.57 69.026 0.174 7.14 5.29 7.05
5/22/2022 4:15:00 AM 20.47 68.846 0.174 7.14 5.12 7.09
5/22/2022 4:30:00 AM 20.36 68.648 0.176 7.13 5.56 7.06
5/22/2022 4:45:00 AM 20.26 68.468 0.175 7.14 4.88 7.11
5/22/2022 5:00:00 AM 20.15 68.27 0.175 7.13 5.15 7.12
5/22/2022 5:15:00 AM 20.04 68.07201 0.175 7.14 5.29 7.15
5/22/2022 5:30:00 AM 19.94 67.892 0.176 7.13 5.78 7.16
5/22/2022 5:45:00 AM 19.83 67.694 0.176 7.13 5.46 7.19
5/22/2022 6:00:00 AM 19.71 67.478 0.176 7.12 5.93 7.22
5/22/2022 6:15:00 AM 19.62 67.316 0.176 7.14 5.55 7.28
5/22/2022 6:30:00 AM 19.53 67.154 0.176 7.14 5.66 7.32
5/22/2022 6:45:00 AM 19.44 66.992 0.176 7.15 5.35 7.42
5/22/2022 7:00:00 AM 19.36 66.848 0.176 7.15 5.09 7.53
5/22/2022 7:15:00 AM 19.28 66.704 0.176 7.17 4.8 7.64
5/22/2022 7:30:00 AM 19.21 66.578 0.176 7.17 5.18 7.72
5/22/2022 7:45:00 AM 19.14 66.452 0.177 7.18 5.61 7.81
5/22/2022 8:00:00 AM 19.13 66.434 0.176 7.2 5.32 7.95
5/22/2022 8:15:00 AM 19.13 66.434 0.176 7.22 4.57 8.16
5/22/2022 8:30:00 AM 19.13 66.434 0.177 7.22 5.2 8.27
5/22/2022 8:45:00 AM 19.15 66.47 0.176 7.25 4.11 8.49
5/22/2022 9:00:00 AM 19.22 66.596 0.176 7.28 3.95 8.67
5/22/2022 9:15:00 AM 19.25 66.65 0.177 7.3 3.91 8.83
5/22/2022 9:30:00 AM 19.36 66.848 0.177 7.32 4.14 9
5/22/2022 9:45:00 AM 19.5 67.1 0.176 7.36 4.09 9.2
5/22/2022 10:00:00 AM 19.68 67.424 0.176 7.4 4.03 9.36
5/22/2022 10:15:00 AM 19.89 67.802 0.177 7.42 4.05 9.54
5/22/2022 10:30:00 AM 20.12 68.216 0.176 7.46 3.87 9.73
5/22/2022 10:45:00 AM 20.34 68.612 0.176 7.51 3.98 9.86
5/22/2022 11:00:00 AM 20.52 68.936 0.176 7.53 4.73 9.99
5/22/2022 11:15:00 AM 20.62 69.116 0.176 7.56 4.47 10.05
5/22/2022 11:30:00 AM 20.73 69.314 0.176 7.61 3.97 10.17
5/22/2022 11:45:00 AM 20.8 69.44 0.175 7.63 4.04 10.24
5/22/2022 12:00:00 PM 21 69.8 0.176 7.67 4.01 10.31
5/22/2022 12:15:00 PM 21.2 70.16 0.175 7.7 3.79 10.36
5/22/2022 12:30:00 PM 21.53 70.754 0.176 7.73 3.98 10.41
5/22/2022 12:45:00 PM 21.8 71.24 0.175 7.76 3.6 10.46
5/22/2022 1:00:00 PM 22.04 71.672 0.175 7.77 4.01 10.5
5/22/2022 1:15:00 PM 22.32 72.176 0.175 7.83 3.69 10.55
5/22/2022 1:30:00 PM 22.4 72.32 0.175 7.86 3.55 10.59
5/22/2022 1:45:00 PM 22.52 72.536 0.175 7.86 3.62 10.6
5/22/2022 2:00:00 PM 22.65 72.77 0.175 7.91 3.7 10.63
5/22/2022 2:15:00 PM 22.68 72.824 0.175 7.92 3.71 10.63
5/22/2022 2:30:00 PM 22.8 73.04 0.175 7.96 3.68 10.59
5/22/2022 2:45:00 PM 22.83 73.094 0.175 7.95 3.73 10.55
5/22/2022 3:00:00 PM 22.89 73.202 0.175 7.94 3.57 10.41
5/22/2022 3:15:00 PM 22.87 73.166 0.175 7.9 3.67 10.24
5/22/2022 3:30:00 PM 22.84 73.112 0.174 7.84 3.66 10.09
5/22/2022 3:45:00 PM 22.93 73.274 0.175 7.84 3.69 10.05
5/22/2022 4:00:00 PM 22.91 73.238 0.175 7.83 3.82 10
5/22/2022 4:15:00 PM 22.84 73.112 0.174 7.78 3.84 9.76
5/22/2022 4:30:00 PM 22.86 73.148 0.174 7.73 3.82 9.68
5/22/2022 4:45:00 PM 22.93 73.274 0.174 7.75 3.75 9.72
5/22/2022 5:00:00 PM 22.94 73.292 0.174 7.75 3.7 9.69
5/22/2022 5:15:00 PM 22.93 73.274 0.174 7.72 3.79 9.63
5/22/2022 5:30:00 PM 22.84 73.112 0.174 7.69 4.03 9.46
5/22/2022 5:45:00 PM 22.79 73.022 0.174 7.68 4.42 9.3
5/22/2022 6:00:00 PM 22.64 72.752 0.174 7.62 3.9 9.07
5/22/2022 6:15:00 PM 22.53 72.554 0.174 7.58 3.84 8.94
5/22/2022 6:30:00 PM 22.4 72.32 0.174 7.53 3.95 8.81
5/22/2022 6:45:00 PM 22.33 72.194 0.174 7.53 3.81 8.8
5/22/2022 7:00:00 PM 22.23 72.014 0.174 7.5 4.05 8.66
5/22/2022 7:15:00 PM 22.16 71.888 0.175 7.47 4.02 8.57
5/22/2022 7:30:00 PM 22.04 71.672 0.175 7.43 4.01 8.39
5/22/2022 7:45:00 PM 21.97 71.546 0.175 7.42 4.06 8.28
5/22/2022 8:00:00 PM 21.89 71.402 0.175 7.4 4.16 8.17
5/22/2022 8:15:00 PM 21.79 71.222 0.175 7.38 4.29 8.08
5/22/2022 8:30:00 PM 21.69 71.042 0.175 7.37 4.35 7.98
5/22/2022 8:45:00 PM 21.58 70.844 0.175 7.33 4.68 7.87
5/22/2022 9:00:00 PM 21.52 70.736 0.175 7.33 4.71 7.77
5/22/2022 9:15:00 PM 21.44 70.592 0.175 7.3 5.04 7.67
5/22/2022 9:30:00 PM 21.38 70.484 0.175 7.29 5.15 7.58
5/22/2022 9:45:00 PM 21.29 70.32201 0.175 7.27 5.36 7.49
5/22/2022 10:00:00 PM 21.21 70.17799 0.176 7.25 5.18 7.42
5/22/2022 10:15:00 PM 21.12 70.016 0.175 7.23 5.21 7.38
5/22/2022 10:30:00 PM 21.02 69.836 0.176 7.24 5.21 7.34
5/22/2022 10:45:00 PM 20.92 69.656 0.175 7.23 5.13 7.32
5/22/2022 11:00:00 PM 20.8 69.44 0.175 7.22 5.08 7.29
5/22/2022 11:15:00 PM 20.68 69.224 0.176 7.2 4.98 7.26
5/22/2022 11:30:00 PM 20.57 69.026 0.176 7.2 4.92 7.26
5/22/2022 11:45:00 PM 20.47 68.846 0.176 7.2 5.23 7.22
5/23/2022 12:00:00 AM 20.38 68.684 0.176 7.2 5.27 7.22
5/23/2022 12:15:00 AM 20.3 68.54 0.176 7.2 5.45 7.22
5/23/2022 12:30:00 AM 20.2 68.36 0.176 7.18 5.02 7.21
5/23/2022 12:45:00 AM 20.13 68.234 0.176 7.17 5.58 7.23
5/23/2022 1:00:00 AM 20.04 68.07201 0.176 7.13 5.33 7.25
5/23/2022 1:15:00 AM 19.94 67.892 0.176 7.18 5.48 7.23
5/23/2022 1:30:00 AM 19.82 67.676 0.176 7.17 5.39 7.23
5/23/2022 1:45:00 AM 19.71 67.478 0.176 7.17 7 7.27
5/23/2022 2:00:00 AM 19.61 67.298 0.177 7.17 6.34 7.26
5/23/2022 2:15:00 AM 19.48 67.064 0.177 7.18 5.4 7.29
5/23/2022 2:30:00 AM 19.35 66.83 0.177 7.17 5.7 7.31
5/23/2022 2:45:00 AM 19.22 66.596 0.177 7.17 5.39 7.33
5/23/2022 3:00:00 AM 19.1 66.38 0.177 7.18 5.76 7.38
5/23/2022 3:15:00 AM 18.96 66.128 0.177 7.17 5.65 7.38
5/23/2022 3:30:00 AM 18.83 65.894 0.177 7.15 5.14 7.46
5/23/2022 3:45:00 AM 18.71 65.67799 0.177 7.18 5.61 7.5
5/23/2022 4:00:00 AM 18.59 65.462 0.177 7.18 5.88 7.54
5/23/2022 4:15:00 AM 18.47 65.246 0.177 7.18 5.74 7.56
5/23/2022 4:30:00 AM 18.35 65.03 0.177 7.18 6.03 7.59
5/23/2022 4:45:00 AM 18.23 64.814 0.177 7.18 6.23 7.62
5/23/2022 5:00:00 AM 18.09 64.562 0.178 7.17 6.33 7.67
5/23/2022 5:15:00 AM 17.96 64.328 0.178 7.19 7.71 7.7
5/23/2022 5:30:00 AM 17.83 64.094 0.178 7.18 6.01 7.77
5/23/2022 5:45:00 AM 17.7 63.86 0.178 7.19 6.02 7.8
5/23/2022 6:00:00 AM 17.58 63.644 0.178 7.19 5.85 7.84
5/23/2022 6:15:00 AM 17.48 63.464 0.179 7.2 6.13 7.89
5/23/2022 6:30:00 AM 17.36 63.248 0.179 7.16 5.7 7.97
5/23/2022 6:45:00 AM 17.23 63.014 0.18 7.21 5.53 8.03
5/23/2022 7:00:00 AM 17.11 62.798 0.18 7.21 5.71 8.12
5/23/2022 7:15:00 AM 17 62.6 0.18 7.23 5.34 8.23
5/23/2022 7:30:00 AM 16.89 62.402 0.181 7.23 5.26 8.33
5/23/2022 7:45:00 AM 16.81 62.258 0.181 7.24 4.92 8.4
5/23/2022 8:00:00 AM 16.74 62.132 0.181 7.25 5.11 8.56
5/23/2022 8:15:00 AM 16.69 62.042 0.182 7.2 5.01 8.68
5/23/2022 8:30:00 AM 16.66 61.988 0.182 7.28 4.71 8.82
5/23/2022 8:45:00 AM 16.66 61.988 0.182 7.31 4.51 9.02
5/23/2022 9:00:00 AM 16.64 61.952 0.182 7.32 4.72 9.15
5/23/2022 9:15:00 AM 16.63 61.934 0.182 7.34 4.84 9.3
5/23/2022 9:30:00 AM 16.64 61.952 0.182 7.36 4.64 9.4
5/23/2022 9:45:00 AM 16.72 62.096 0.182 7.39 4.41 9.51
5/23/2022 10:00:00 AM 16.87 62.366 0.182 7.4 4.42 9.65
5/23/2022 10:15:00 AM 16.97 62.546 0.182 7.42 4.75 9.74
5/23/2022 10:30:00 AM 17.12 62.816 0.182 7.44 4.49 9.86
5/23/2022 10:45:00 AM 17.23 63.014 0.182 7.47 4.36 9.97
5/23/2022 11:00:00 AM 17.43 63.374 0.182 7.48 4.33 10.06
5/23/2022 11:15:00 AM 17.65 63.77 0.182 7.46 4.25 10.14
5/23/2022 11:30:00 AM 17.85 64.13 0.182 7.52 4.3 10.21
5/23/2022 11:45:00 AM 18.08 64.544 0.182 7.55 4.27 10.29
5/23/2022 12:00:00 PM 18.18 64.724 0.182 7.58 4.38 10.33
5/23/2022 12:15:00 PM 18.28 64.904 0.182 7.59 4.29 10.35
5/23/2022 12:30:00 PM 18.31 64.958 0.182 7.59 4.29 10.4
5/23/2022 12:45:00 PM 18.39 65.102 0.182 7.63 4.08 10.46
5/23/2022 1:00:00 PM 18.36 65.048 0.181 7.61 4.1 10.51
5/23/2022 1:15:00 PM 18.54 65.372 0.181 7.67 3.98 10.56
5/23/2022 1:30:00 PM 18.54 65.372 0.181 7.69 4.08 10.62
5/23/2022 1:45:00 PM 18.58 65.444 0.181 7.65 3.97 10.65
5/23/2022 2:00:00 PM 18.6 65.48 0.181 7.72 4.01 10.66
5/23/2022 2:15:00 PM 18.71 65.67799 0.182 7.73 3.87 10.72
5/23/2022 2:30:00 PM 18.72 65.696 0.181 7.74 3.92 10.72
5/23/2022 2:45:00 PM 18.91 66.038 0.182 7.77 4.14 10.77
5/23/2022 3:00:00 PM 18.91 66.038 0.182 7.78 3.87 10.78
5/23/2022 3:15:00 PM 19.03 66.254 0.181 7.81 3.91 10.81
5/23/2022 3:30:00 PM 19.01 66.218 0.181 7.83 3.93 10.81
5/23/2022 3:45:00 PM 18.98 66.164 0.181 7.84 4.03 10.8
5/23/2022 4:00:00 PM 18.99 66.182 0.181 7.86 3.7 10.8
5/23/2022 4:15:00 PM 18.96 66.128 0.181 7.84 4.22 10.77
5/23/2022 4:30:00 PM 18.99 66.182 0.181 7.87 4 10.79
5/23/2022 4:45:00 PM 18.98 66.164 0.181 7.83 3.95 10.75
5/23/2022 5:00:00 PM 18.97 66.146 0.181 7.88 4 10.75
5/23/2022 5:15:00 PM 18.93 66.074 0.181 7.87 5.08 10.7
5/23/2022 5:30:00 PM 18.88 65.984 0.181 7.87 4.07 10.66
5/23/2022 5:45:00 PM 18.82 65.876 0.181 7.83 4 10.59
5/23/2022 6:00:00 PM 18.77 65.786 0.181 7.86 4.08 10.55
5/23/2022 6:15:00 PM 18.71 65.67799 0.181 7.82 3.79 10.46
5/23/2022 6:30:00 PM 18.66 65.588 0.181 7.83 3.88 10.4
5/23/2022 6:45:00 PM 18.6 65.48 0.181 7.8 3.99 10.29
5/23/2022 7:00:00 PM 18.54 65.372 0.181 7.77 3.83 10.2
5/23/2022 7:15:00 PM 18.45 65.21 0.181 7.72 4.11 10.07
5/23/2022 7:30:00 PM 18.4 65.12 0.181 7.7 4.2 9.97
5/23/2022 7:45:00 PM 18.34 65.012 0.181 7.67 5.17 9.83
5/23/2022 8:00:00 PM 18.26 64.868 0.181 7.62 4.77 9.7
5/23/2022 8:15:00 PM 18.19 64.742 0.181 7.6 9.73 9.57
5/23/2022 8:30:00 PM 18.11 64.598 0.182 7.56 4.14 9.44
5/23/2022 8:45:00 PM 18.04 64.472 0.182 7.54 4.28 9.32
5/23/2022 9:00:00 PM 17.97 64.346 0.181 7.5 4.92 9.17
5/23/2022 9:15:00 PM 17.91 64.238 0.181 7.48 5.59 9.07
5/23/2022 9:30:00 PM 17.83 64.094 0.181 7.4 4.51 8.95
5/23/2022 9:45:00 PM 17.77 63.986 0.182 7.42 4.77 8.86
5/23/2022 10:00:00 PM 17.69 63.842 0.182 7.39 4.85 8.76
5/23/2022 10:15:00 PM 17.63 63.734 0.182 7.38 4.72 8.7
5/23/2022 10:30:00 PM 17.56 63.608 0.181 7.31 4.96 8.64
5/23/2022 10:45:00 PM 17.5 63.5 0.181 7.34 4.56 8.57
5/23/2022 11:00:00 PM 17.43 63.374 0.181 7.34 6.09 8.52
5/23/2022 11:15:00 PM 17.37 63.266 0.181 7.32 6.44 8.48
5/23/2022 11:30:00 PM 17.31 63.158 0.181 7.31 4.65 8.44
5/23/2022 11:45:00 PM 17.24 63.032 0.181 7.3 4.87 8.39
5/24/2022 12:00:00 AM 17.17 62.906 0.181 7.29 4.72 8.36
5/24/2022 12:15:00 AM 17.11 62.798 0.181 7.28 4.39 8.34
5/24/2022 12:30:00 AM 17.02 62.636 0.182 7.26 4.98 8.28
5/24/2022 12:45:00 AM 16.96 62.528 0.181 7.23 4.94 8.29
5/24/2022 1:00:00 AM 16.89 62.402 0.181 7.2 4.74 8.26
5/24/2022 1:15:00 AM 16.81 62.258 0.181 7.25 4.97 8.25
5/24/2022 1:30:00 AM 16.73 62.114 0.181 7.24 6.37 8.22
5/24/2022 1:45:00 AM 16.66 61.988 0.181 7.23 5.71 8.23
5/24/2022 2:00:00 AM 16.59 61.862 0.181 7.22 5.14 8.22
5/24/2022 2:15:00 AM 16.51 61.718 0.181 7.23 5.02 8.24
5/24/2022 2:30:00 AM 16.43 61.574 0.181 7.18 5.07 8.23
5/24/2022 2:45:00 AM 16.36 61.448 0.181 7.22 5.23 8.22
5/24/2022 3:00:00 AM 16.28 61.304 0.181 7.22 5.67 8.25
5/24/2022 3:15:00 AM 16.19 61.142 0.181 7.21 5.19 8.23
5/24/2022 3:30:00 AM 16.11 60.998 0.182 7.18 5.55 8.24
5/24/2022 3:45:00 AM 16.04 60.872 0.181 7.18 6.58 8.25
5/24/2022 4:00:00 AM 15.96 60.728 0.181 7.21 5.02 8.27
5/24/2022 4:15:00 AM 15.89 60.602 0.181 7.2 5.33 8.28
5/24/2022 4:30:00 AM 15.81 60.458 0.181 7.19 6.51 8.3
5/24/2022 4:45:00 AM 15.74 60.332 0.182 7.2 6.2 8.3
5/24/2022 5:00:00 AM 15.66 60.188 0.182 7.2 7.48 8.31
5/24/2022 5:15:00 AM 15.56 60.008 0.181 7.2 5.53 8.34
5/24/2022 5:30:00 AM 15.5 59.9 0.182 7.19 8.05 8.33
5/24/2022 5:45:00 AM 15.4 59.72 0.183 7.19 5.85 8.35
5/24/2022 6:00:00 AM 15.32 59.576 0.183 7.16 6.41 8.33
5/24/2022 6:15:00 AM 15.23 59.414 0.183 7.19 5.69 8.38
5/24/2022 6:30:00 AM 15.16 59.288 0.182 7.19 5.98 8.44
5/24/2022 6:45:00 AM 15.07 59.126 0.183 7.17 6.06 8.48
5/24/2022 7:00:00 AM 15.03 59.054 0.182 7.2 4.87 8.61
5/24/2022 7:15:00 AM 14.99 58.982 0.182 7.19 4.88 8.7
5/24/2022 7:30:00 AM 14.94 58.892 0.183 7.23 4.55 8.85
5/24/2022 7:45:00 AM 14.93 58.874 0.183 7.24 4.65 8.96
5/24/2022 8:00:00 AM 14.91 58.838 0.183 7.24 4.33 9.06
5/24/2022 8:15:00 AM 14.92 58.856 0.182 7.26 4.45 9.21
5/24/2022 8:30:00 AM 14.91 58.838 0.182 7.27 4.49 9.33
5/24/2022 8:45:00 AM 14.94 58.892 0.182 7.29 4.28 9.47
5/24/2022 9:00:00 AM 15 59 0.183 7.27 4.18 9.54
5/24/2022 9:15:00 AM 15.07 59.126 0.182 7.31 3.94 9.66
5/24/2022 9:30:00 AM 15.15 59.27 0.182 7.34 4.61 9.75
5/24/2022 9:45:00 AM 15.25 59.45 0.182 7.34 3.9 9.88
5/24/2022 10:00:00 AM 15.38 59.684 0.183 7.37 3.91 9.96
5/24/2022 10:15:00 AM 15.49 59.882 0.182 7.39 3.82 10.04
5/24/2022 10:30:00 AM 15.66 60.188 0.181 7.41 3.89 10.18
5/24/2022 10:45:00 AM 15.71 60.278 0.182 7.43 4.13 10.25
5/24/2022 11:00:00 AM 15.86 60.548 0.182 7.45 3.82 10.37
5/24/2022 11:15:00 AM 15.97 60.746 0.182 7.44 3.93 10.47
5/24/2022 11:30:00 AM 16.12 61.016 0.181 7.49 3.71 10.53
5/24/2022 11:45:00 AM 16.29 61.322 0.181 7.52 3.86 10.61
5/24/2022 12:00:00 PM 16.44 61.592 0.181 7.51 3.78 10.67
5/24/2022 12:15:00 PM 16.63 61.934 0.181 7.55 3.66 10.73
5/24/2022 12:30:00 PM 16.75 62.15 0.181 7.56 3.86 10.77
5/24/2022 12:45:00 PM 16.91 62.438 0.181 7.59 3.72 10.82
5/24/2022 1:00:00 PM 16.98 62.564 0.181 7.58 3.94 10.84
5/24/2022 1:15:00 PM 17.01 62.618 0.181 7.62 3.89 10.84
5/24/2022 1:30:00 PM 17.1 62.78 0.181 7.62 4.19 10.85
5/24/2022 1:45:00 PM 17.14 62.852 0.18 7.65 4.64 10.89
5/24/2022 2:00:00 PM 17.25 63.05 0.18 7.67 3.74 10.93
5/24/2022 2:15:00 PM 17.32 63.176 0.181 7.68 3.61 10.95
5/24/2022 2:30:00 PM 17.44 63.392 0.18 7.7 3.97 10.98
5/24/2022 2:45:00 PM 17.6 63.68 0.18 7.71 3.48 11
5/24/2022 3:00:00 PM 17.68 63.824 0.18 7.67 3.61 11.01
5/24/2022 3:15:00 PM 17.87 64.166 0.18 7.72 3.54 11.03
5/24/2022 3:30:00 PM 18.03 64.454 0.181 7.7 3.47 11.01
5/24/2022 3:45:00 PM 18.15 64.67 0.18 7.73 3.37 11.03
5/24/2022 4:00:00 PM 18.19 64.742 0.18 7.72 3.68 10.95
5/24/2022 4:15:00 PM 18.2 64.76 0.18 7.78 3.6 10.95
5/24/2022 4:30:00 PM 18.19 64.742 0.179 7.78 3.54 10.93
5/24/2022 4:45:00 PM 18.15 64.67 0.179 7.79 3.51 10.88
5/24/2022 5:00:00 PM 18.12 64.616 0.179 7.76 3.5 10.79
5/24/2022 5:15:00 PM 18.12 64.616 0.179 7.74 3.72 10.72
5/24/2022 5:30:00 PM 18.1 64.58 0.18 7.75 3.55 10.61
5/24/2022 5:45:00 PM 18.06 64.508 0.179 7.72 3.67 10.51
5/24/2022 6:00:00 PM 18.05 64.49 0.179 7.69 3.47 10.44
5/24/2022 6:15:00 PM 18 64.4 0.18 7.68 3.61 10.34
5/24/2022 6:30:00 PM 17.96 64.328 0.179 7.63 3.6 10.3
5/24/2022 6:45:00 PM 17.95 64.31 0.179 7.62 3.69 10.25
5/24/2022 7:00:00 PM 17.9 64.22 0.18 7.64 3.74 10.16
5/24/2022 7:15:00 PM 17.86 64.148 0.179 7.63 3.82 10.13
5/24/2022 7:30:00 PM 17.83 64.094 0.179 7.61 3.88 10.05
5/24/2022 7:45:00 PM 17.78 64.004 0.18 7.59 3.8 9.91
5/24/2022 8:00:00 PM 17.74 63.932 0.18 7.52 3.95 9.8
5/24/2022 8:15:00 PM 17.69 63.842 0.18 7.53 3.6 9.67
5/24/2022 8:30:00 PM 17.63 63.734 0.181 7.5 4.17 9.49
5/24/2022 8:45:00 PM 17.6 63.68 0.18 7.48 4.17 9.39
5/24/2022 9:00:00 PM 17.56 63.608 0.181 7.46 4.38 9.3
5/24/2022 9:15:00 PM 17.52 63.536 0.181 7.43 4.39 9.16
5/24/2022 9:30:00 PM 17.49 63.482 0.181 7.42 4.17 9.06
5/24/2022 9:45:00 PM 17.44 63.392 0.182 7.39 6.27 8.96
5/24/2022 10:00:00 PM 17.38 63.284 0.182 7.35 4.79 8.87
5/24/2022 10:15:00 PM 17.3 63.14 0.184 7.32 4.52 8.74
5/24/2022 10:30:00 PM 17.26 63.068 0.183 7.31 4.66 8.7
5/24/2022 10:45:00 PM 17.19 62.942 0.182 7.25 5.86 8.63
5/24/2022 11:00:00 PM 17.15 62.87 0.182 7.28 4.94 8.57
5/24/2022 11:15:00 PM 17.1 62.78 0.183 7.31 4.58 8.54
5/24/2022 11:30:00 PM 17.03 62.654 0.183 7.28 4.97 8.43
5/24/2022 11:45:00 PM 17 62.6 0.183 7.28 4.42 8.46
5/25/2022 12:00:00 AM 16.94 62.492 0.183 7.22 4.94 8.39
5/25/2022 12:15:00 AM 16.89 62.402 0.183 7.26 4.51 8.35
5/25/2022 12:30:00 AM 16.84 62.312 0.183 7.26 4.67 8.35
5/25/2022 12:45:00 AM 16.79 62.222 0.184 7.23 4.49 8.26
5/25/2022 1:00:00 AM 16.75 62.15 0.183 7.24 4.86 8.27
5/25/2022 1:15:00 AM 16.69 62.042 0.184 7.23 4.67 8.22
5/25/2022 1:30:00 AM 16.66 61.988 0.184 7.22 4.62 8.2
5/25/2022 1:45:00 AM 16.64 61.952 0.184 7.22 4.97 8.19
5/25/2022 2:00:00 AM 16.6 61.88 0.184 7.15 4.87 8.17
5/25/2022 2:15:00 AM 16.58 61.844 0.184 7.18 5.34 8.18
5/25/2022 2:30:00 AM 16.56 61.808 0.184 7.21 5.19 8.17
5/25/2022 2:45:00 AM 16.52 61.736 0.185 7.19 6.29 8.13
5/25/2022 3:00:00 AM 16.47 61.646 0.186 7.2 5.99 8.1
5/25/2022 3:15:00 AM 16.44 61.592 0.185 7.19 5.05 8.07
5/25/2022 3:30:00 AM 16.42 61.556 0.185 7.2 5.4 8.12
5/25/2022 3:45:00 AM 16.37 61.466 0.185 7.19 8.08 8.11
5/25/2022 4:00:00 AM 16.32 61.376 0.186 7.19 5.8 8.09
5/25/2022 4:15:00 AM 16.29 61.322 0.185 7.16 5.36 8.11
5/25/2022 4:30:00 AM 16.24 61.232 0.186 7.19 5.14 8.11
5/25/2022 4:45:00 AM 16.21 61.178 0.185 7.17 5.32 8.12
5/25/2022 5:00:00 AM 16.15 61.07 0.186 7.18 5.05 8.11
5/25/2022 5:15:00 AM 16.12 61.016 0.186 7.18 5.55 8.12
5/25/2022 5:30:00 AM 16.06 60.908 0.187 7.18 5.56 8.14
5/25/2022 5:45:00 AM 16.03 60.854 0.186 7.18 5.35 8.15
5/25/2022 6:00:00 AM 15.97 60.746 0.186 7.18 5.12 8.14
5/25/2022 6:15:00 AM 15.93 60.674 0.187 7.17 5.38 8.15
5/25/2022 6:30:00 AM 15.9 60.62 0.186 7.16 5.2 8.22
5/25/2022 6:45:00 AM 15.87 60.566 0.187 7.11 5.17 8.22
5/25/2022 7:00:00 AM 15.83 60.494 0.186 7.18 4.8 8.3
5/25/2022 7:15:00 AM 15.8 60.44 0.187 7.18 17.84 8.33
5/25/2022 7:30:00 AM 15.78 60.404 0.187 7.18 4.81 8.39
5/25/2022 7:45:00 AM 15.77 60.386 0.187 7.2 4.45 8.55
5/25/2022 8:00:00 AM 15.75 60.35 0.187 7.21 4.16 8.66
5/25/2022 8:15:00 AM 15.77 60.386 0.187 7.23 4.59 8.82
5/25/2022 8:30:00 AM 15.78 60.404 0.186 7.24 4.09 8.96
5/25/2022 8:45:00 AM 15.8 60.44 0.187 7.24 4.3 9.06
5/25/2022 9:00:00 AM 15.83 60.494 0.187 7.25 4.51 9.14
5/25/2022 9:15:00 AM 15.92 60.656 0.187 7.23 4.59 9.31
5/25/2022 9:30:00 AM 15.99 60.782 0.187 7.29 4.19 9.41
5/25/2022 9:45:00 AM 16.1 60.98 0.187 7.29 4.22 9.58
5/25/2022 10:00:00 AM 16.2 61.16 0.187 7.34 4.19 9.71
5/25/2022 10:15:00 AM 16.28 61.304 0.186 7.36 4.26 9.8
5/25/2022 10:30:00 AM 16.4 61.52 0.186 7.37 4.07 9.94
5/25/2022 10:45:00 AM 16.56 61.808 0.187 7.32 3.81 9.98
5/25/2022 11:00:00 AM 16.75 62.15 0.186 7.41 3.81 10.12
5/25/2022 11:15:00 AM 16.99 62.582 0.186 7.4 4.16 10.19
5/25/2022 11:30:00 AM 17.21 62.978 0.186 7.45 4.17 10.31
5/25/2022 11:45:00 AM 17.44 63.392 0.186 7.43 4.02 10.38
5/25/2022 12:00:00 PM 17.67 63.806 0.186 7.49 4.17 10.43
5/25/2022 12:15:00 PM 17.89 64.202 0.186 7.52 3.86 10.52
5/25/2022 12:30:00 PM 18.1 64.58 0.186 7.51 3.8 10.53
5/25/2022 12:45:00 PM 18.37 65.066 0.186 7.54 3.83 10.59
5/25/2022 1:00:00 PM 18.65 65.57 0.186 7.56 3.79 10.64
5/25/2022 1:15:00 PM 18.91 66.038 0.187 7.55 3.94 10.63
5/25/2022 1:30:00 PM 19.23 66.614 0.187 7.59 3.8 10.68
5/25/2022 1:45:00 PM 19.48 67.064 0.187 7.54 3.34 10.61
5/25/2022 2:00:00 PM 19.77 67.586 0.187 7.61 3.69 10.7
5/25/2022 2:15:00 PM 19.98 67.964 0.188 7.6 3.76 10.64
5/25/2022 2:30:00 PM 20.26 68.468 0.187 7.62 3.82 10.66
5/25/2022 2:45:00 PM 20.39 68.702 0.188 7.6 3.66 10.58
5/25/2022 3:00:00 PM 20.57 69.026 0.188 7.61 4.01 10.59
5/25/2022 3:15:00 PM 20.75 69.35 0.187 7.64 4.44 10.61
5/25/2022 3:30:00 PM 20.83 69.494 0.187 7.59 3.76 10.55
5/25/2022 3:45:00 PM 20.94 69.692 0.187 7.66 3.81 10.51
5/25/2022 4:00:00 PM 21.03 69.854 0.187 7.66 4.43 10.45
5/25/2022 4:15:00 PM 21.13 70.034 0.187 7.67 3.61 10.43
5/25/2022 4:30:00 PM 21.09 69.962 0.188 7.62 3.87 10.29
5/25/2022 4:45:00 PM 21.2 70.16 0.187 7.61 3.76 10.29
5/25/2022 5:00:00 PM 21.18 70.124 0.187 7.64 3.9 10.25
5/25/2022 5:15:00 PM 21.09 69.962 0.188 7.62 3.6 10.18
5/25/2022 5:30:00 PM 21.01 69.818 0.187 7.62 3.93 10.09
5/25/2022 5:45:00 PM 20.92 69.656 0.187 7.6 4.69 10
5/25/2022 6:00:00 PM 20.84 69.512 0.187 7.61 5.03 9.93
5/25/2022 6:15:00 PM 20.73 69.314 0.187 7.59 4.46 9.78
5/25/2022 6:30:00 PM 20.62 69.116 0.187 7.55 3.85 9.71
5/25/2022 6:45:00 PM 20.56 69.008 0.187 7.59 4.6 9.68
5/25/2022 7:00:00 PM 20.48 68.864 0.187 7.57 5.02 9.59
5/25/2022 7:15:00 PM 20.36 68.648 0.188 7.52 3.88 9.42
5/25/2022 7:30:00 PM 20.29 68.522 0.187 7.5 5.53 9.32
5/25/2022 7:45:00 PM 20.23 68.414 0.188 7.52 3.78 9.26
5/25/2022 8:00:00 PM 20.15 68.27 0.187 7.5 5.99 9.16
5/25/2022 8:15:00 PM 20.07 68.126 0.187 7.48 5.17 9.03
5/25/2022 8:30:00 PM 19.96 67.92799 0.189 7.44 4.71 8.89
5/25/2022 8:45:00 PM 19.91 67.838 0.189 7.41 5.13 8.76
5/25/2022 9:00:00 PM 19.8 67.64 0.19 7.38 5.12 8.59
5/25/2022 9:15:00 PM 19.77 67.586 0.189 7.39 4.14 8.52
5/25/2022 9:30:00 PM 19.67 67.406 0.19 7.34 4.39 8.37
5/25/2022 9:45:00 PM 19.61 67.298 0.19 7.35 5.32 8.3
5/25/2022 10:00:00 PM 19.54 67.172 0.19 7.33 4.92 8.21
5/25/2022 10:15:00 PM 19.44 66.992 0.191 7.31 5.3 8.1
5/25/2022 10:30:00 PM 19.37 66.866 0.191 7.29 5.88 8.04
5/25/2022 10:45:00 PM 19.28 66.704 0.192 7.28 5.63 7.96
5/25/2022 11:00:00 PM 19.2 66.56 0.191 7.26 5.47 7.89
5/25/2022 11:15:00 PM 19.15 66.47 0.191 7.25 4.58 7.89
5/25/2022 11:30:00 PM 19.06 66.308 0.192 7.21 4.96 7.8
5/25/2022 11:45:00 PM 18.99 66.182 0.192 7.24 4.78 7.73
5/26/2022 12:00:00 AM 18.97 66.146 0.192 7.25 4.92 7.71
5/26/2022 12:15:00 AM 18.9 66.02 0.192 7.24 5.33 7.66
5/26/2022 12:30:00 AM 18.83 65.894 0.192 7.23 5.33 7.63
5/26/2022 12:45:00 AM 18.77 65.786 0.192 7.22 5 7.59
5/26/2022 1:00:00 AM 18.7 65.66 0.192 7.2 5.49 7.52
5/26/2022 1:15:00 AM 18.66 65.588 0.193 7.21 5.37 7.54
5/26/2022 1:30:00 AM 18.6 65.48 0.193 7.19 5.84 7.44
5/26/2022 1:45:00 AM 18.54 65.372 0.193 7.19 5.51 7.46
5/26/2022 2:00:00 AM 18.51 65.318 0.193 7.2 5.61 7.48
5/26/2022 2:15:00 AM 18.45 65.21 0.193 7.18 7.54 7.47
5/26/2022 2:30:00 AM 18.42 65.156 0.193 7.19 5.16 7.47
5/26/2022 2:45:00 AM 18.35 65.03 0.193 7.15 5.91 7.41
5/26/2022 3:00:00 AM 18.31 64.958 0.193 7.18 6.03 7.4
5/26/2022 3:15:00 AM 18.26 64.868 0.193 7.17 6.77 7.39
5/26/2022 3:30:00 AM 18.15 64.67 0.194 7.16 5.47 7.34
5/26/2022 3:45:00 AM 18.15 64.67 0.193 7.18 4.78 7.43
5/26/2022 4:00:00 AM 18.07 64.526 0.193 7.18 6.47 7.41
5/26/2022 4:15:00 AM 18.01 64.418 0.193 7.16 5.53 7.43
5/26/2022 4:30:00 AM 17.92 64.256 0.195 7.16 5.62 7.37
5/26/2022 4:45:00 AM 17.84 64.112 0.195 7.15 5.51 7.4
5/26/2022 5:00:00 AM 17.8 64.04 0.194 7.16 23.26 7.34
5/26/2022 5:15:00 AM 17.73 63.914 0.194 7.16 8.93 7.42
5/26/2022 5:30:00 AM 17.66 63.788 0.194 7.14 7.46 7.43
5/26/2022 5:45:00 AM 17.58 63.644 0.194 7.16 26.96 7.44
5/26/2022 6:00:00 AM 17.53 63.554 0.194 7.17 6.83 7.45
5/26/2022 6:15:00 AM 17.45 63.41 0.195 7.15 6.95 7.48
5/26/2022 6:30:00 AM 17.36 63.248 0.195 7.15 10.33 7.54
5/26/2022 6:45:00 AM 17.34 63.212 0.194 7.17 9.18 7.61
5/26/2022 7:00:00 AM 17.26 63.068 0.195 7.15 6.36 7.59
5/26/2022 7:15:00 AM 17.22 62.996 0.194 7.18 8.43 7.76
5/26/2022 7:30:00 AM 17.16 62.888 0.194 7.18 17.89 7.89
5/26/2022 7:45:00 AM 17.12 62.816 0.195 7.2 13.76 7.94
5/26/2022 8:00:00 AM 17.08 62.744 0.195 7.2 14.3 8.1
5/26/2022 8:15:00 AM 17.05 62.69 0.195 7.21 5.61 8.23
5/26/2022 8:30:00 AM 16.99 62.582 0.197 7.21 4.7 8.32
5/26/2022 8:45:00 AM 17.07 62.726 0.194 7.26 19.1 8.49
5/26/2022 9:00:00 AM 17.07 62.726 0.195 7.26 7.27 8.51
5/26/2022 9:15:00 AM 17.15 62.87 0.194 7.27 7.17 8.76
5/26/2022 9:30:00 AM 17.24 63.032 0.194 7.3 10.34 8.83
5/26/2022 9:45:00 AM 17.29 63.122 0.195 7.27 5.05 8.89
5/26/2022 10:00:00 AM 17.41 63.338 0.195 7.31 11.97 8.99
5/26/2022 10:15:00 AM 17.61 63.698 0.194 7.33 5.73 9.18
5/26/2022 10:30:00 AM 17.75 63.95 0.195 7.33 5.32 9.27
5/26/2022 10:45:00 AM 17.96 64.328 0.195 7.37 4.71 9.37
5/26/2022 11:00:00 AM 18.17 64.706 0.195 7.39 9.53 9.5
5/26/2022 11:15:00 AM 18.34 65.012 0.195 7.38 6.91 9.51
5/26/2022 11:30:00 AM 18.55 65.39 0.196 7.38 9.94 9.59
5/26/2022 11:45:00 AM 18.81 65.858 0.196 7.39 5.88 9.68
5/26/2022 12:00:00 PM 19.09 66.362 0.195 7.43 5.7 9.77
5/26/2022 12:15:00 PM 19.3 66.74 0.195 7.48 6.33 9.88
5/26/2022 12:30:00 PM 19.49 67.082 0.197 7.45 6.95 9.91
5/26/2022 12:45:00 PM 19.76 67.568 0.195 7.47 6.95 9.98
5/26/2022 1:00:00 PM 19.96 67.92799 0.196 7.5 6.59 9.99
5/26/2022 1:15:00 PM 20.19 68.342 0.197 7.49 5.77 10.1
5/26/2022 1:30:00 PM 20.43 68.774 0.196 7.49 4.23 10.06
5/26/2022 1:45:00 PM 20.58 69.044 0.196 7.53 4.46 10.12
5/26/2022 2:00:00 PM 20.86 69.548 0.197 7.52 4.83 10.03
5/26/2022 2:15:00 PM 21.09 69.962 0.196 7.56 5.12 10.12
5/26/2022 2:30:00 PM 21.26 70.268 0.196 7.57 4.38 10.13
5/26/2022 2:45:00 PM 21.5 70.7 0.195 7.59 5.24 10.14
5/26/2022 3:00:00 PM 21.71 71.078 0.197 7.57 3.73 10.15
5/26/2022 3:15:00 PM 21.86 71.348 0.196 7.58 4.79 10.08
5/26/2022 3:30:00 PM 21.91 71.438 0.197 7.57 6.02 10
5/26/2022 3:45:00 PM 22.1 71.78 0.196 7.59 6.91 10.04
5/26/2022 4:00:00 PM 22.13 71.834 0.196 7.6 6.28 9.94
5/26/2022 4:15:00 PM 22.21 71.978 0.196 7.62 6.5 9.85
5/26/2022 4:30:00 PM 22.23 72.014 0.196 7.61 5.67 9.85
5/26/2022 4:45:00 PM 22.27 72.086 0.196 7.61 6.52 9.73
5/26/2022 5:00:00 PM 22.24 72.032 0.197 7.57 5.92 9.71
5/26/2022 5:15:00 PM 22.12 71.816 0.197 7.58 10.37 9.66
5/26/2022 5:30:00 PM 22.05 71.69 0.197 7.57 8.17 9.47
5/26/2022 5:45:00 PM 21.99 71.582 0.196 7.56 5.3 9.34
5/26/2022 6:00:00 PM 21.9 71.42 0.196 7.55 6.31 9.37
5/26/2022 6:15:00 PM 21.83 71.294 0.196 7.52 11.5 9.24
5/26/2022 6:30:00 PM 21.77 71.186 0.196 7.54 6.05 9.32
5/26/2022 6:45:00 PM 21.7 71.06 0.196 7.56 7.45 9.26
5/26/2022 7:00:00 PM 21.56 70.808 0.197 7.52 7.76 9.07
5/26/2022 7:15:00 PM 21.49 70.682 0.196 7.5 60.64 8.95
5/26/2022 7:30:00 PM 21.36 70.448 0.196 7.47 9.2 8.77
5/26/2022 7:45:00 PM 21.26 70.268 0.196 7.44 5.45 8.63
5/26/2022 8:00:00 PM 21.15 70.07 0.196 7.41 6.53 8.44
5/26/2022 8:15:00 PM 21.05 69.89 0.197 7.38 8.65 8.37
5/26/2022 8:30:00 PM 20.94 69.692 0.197 7.35 7.16 8.15
5/26/2022 8:45:00 PM 20.9 69.62 0.197 7.36 48.7 8.09
5/26/2022 9:00:00 PM 20.8 69.44 0.197 7.32 15.28 7.91
5/26/2022 9:15:00 PM 20.76 69.368 0.197 7.32 112.03 7.88
5/26/2022 9:30:00 PM 20.68 69.224 0.198 7.3 6.9 7.79
5/26/2022 9:45:00 PM 20.61 69.098 0.198 7.29 11.34 7.72
5/26/2022 10:00:00 PM 20.52 68.936 0.199 7.26 5.22 7.61
5/26/2022 10:15:00 PM 20.48 68.864 0.198 7.23 5.76 7.58
5/26/2022 10:30:00 PM 20.4 68.72 0.198 7.26 5.52 7.53
5/26/2022 10:45:00 PM 20.32 68.576 0.198 7.24 5.62 7.43
5/26/2022 11:00:00 PM 20.29 68.522 0.198 7.23 5.65 7.35
5/26/2022 11:15:00 PM 20.21 68.378 0.199 7.21 5.6 7.31
5/26/2022 11:30:00 PM 20.15 68.27 0.2 7.21 4.96 7.24
5/26/2022 11:45:00 PM 20.09 68.162 0.2 7.2 5.88 7.21
5/27/2022 12:00:00 AM 20.07 68.126 0.199 7.19 6.03 7.21
5/27/2022 12:15:00 AM 20 68 0.2 7.18 8.97 7.11
5/27/2022 12:30:00 AM 19.96 67.92799 0.201 7.17 13.04 7.06
5/27/2022 12:45:00 AM 19.95 67.91 0.2 7.19 9.31 7.13
5/27/2022 1:00:00 AM 19.94 67.892 0.199 7.19 20.33 7.11
5/27/2022 1:15:00 AM 19.88 67.784 0.2 7.15 9.92 6.98
5/27/2022 1:30:00 AM 19.83 67.694 0.2 7.13 6.01 7.04
5/27/2022 1:45:00 AM 19.8 67.64 0.201 7.17 5.33 7.01
5/27/2022 2:00:00 AM 19.75 67.55 0.201 7.16 5.78 6.98
5/27/2022 2:15:00 AM 19.71 67.478 0.201 7.16 6.12 6.95
5/27/2022 2:30:00 AM 19.71 67.478 0.201 7.15 6.35 6.93
5/27/2022 2:45:00 AM 19.69 67.442 0.2 7.16 6.43 6.94
5/27/2022 3:00:00 AM 19.65 67.37 0.201 7.13 5.61 6.91
5/27/2022 3:15:00 AM 19.63 67.334 0.201 7.14 5.28 6.94
5/27/2022 3:30:00 AM 19.6 67.28 0.201 7.15 5.68 6.92
5/27/2022 3:45:00 AM 19.57 67.226 0.201 7.14 5.93 6.92
5/27/2022 4:00:00 AM 19.56 67.208 0.201 7.14 6.41 6.89
5/27/2022 4:15:00 AM 19.5 67.1 0.201 7.12 14.2 6.84
5/27/2022 4:30:00 AM 19.5 67.1 0.201 7.12 18.52 6.84
5/27/2022 4:45:00 AM 19.49 67.082 0.201 7.12 6.73 6.86
5/27/2022 5:00:00 AM 19.44 66.992 0.202 7.14 74.17 6.85
5/27/2022 5:15:00 AM 19.4 66.92 0.202 7.12 10.23 6.82
5/27/2022 5:30:00 AM 19.41 66.938 0.201 7.12 30.77 6.8
5/27/2022 5:45:00 AM 19.4 66.92 0.201 7.14 22.67 6.88
5/27/2022 6:00:00 AM 19.39 66.902 0.201 7.14 9.2 6.9
5/27/2022 6:15:00 AM 19.35 66.83 0.201 7.12 22.31 6.84
5/27/2022 6:30:00 AM 19.33 66.794 0.202 7.13 11.26 6.89
5/27/2022 6:45:00 AM 19.31 66.758 0.201 7.13 37.03 6.89
5/27/2022 7:00:00 AM 19.3 66.74 0.202 7.14 15.92 6.99
5/27/2022 7:15:00 AM 19.25 66.65 0.202 7.12 15.17 6.98
5/27/2022 7:30:00 AM 19.24 66.632 0.202 7.14 11.01 7
5/27/2022 7:45:00 AM 19.22 66.596 0.202 7.12 11.6 7.02
5/27/2022 8:00:00 AM 19.24 66.632 0.204 7.15 10.94 7.2
5/27/2022 8:15:00 AM 19.17 66.506 0.204 7.11 11.29 7.25
5/27/2022 8:30:00 AM 19.17 66.506 0.203 7.16 7.67 7.35
5/27/2022 8:45:00 AM 19.22 66.596 0.201 7.13 7.91 7.42
5/27/2022 9:00:00 AM 19.21 66.578 0.202 7.18 6.32 7.48
5/27/2022 9:15:00 AM 19.17 66.506 0.203 7.17 73.88 7.54
5/27/2022 9:30:00 AM 19.18 66.524 0.202 7.17 10.3 7.64
5/27/2022 9:45:00 AM 19.18 66.524 0.202 7.19 59.07 7.68
5/27/2022 10:00:00 AM 19.17 66.506 0.202 7.18 10.25 7.75
5/27/2022 10:15:00 AM 19.14 66.452 0.203 7.21 9.89 7.74
5/27/2022 10:30:00 AM 19.15 66.47 0.203 7.19 12.25 7.78
5/27/2022 10:45:00 AM 19.18 66.524 0.203 7.22 9.56 7.88
5/27/2022 11:00:00 AM 19.18 66.524 0.203 7.22 10.38 7.93
5/27/2022 11:15:00 AM 19.18 66.524 0.204 7.21 6.96 8
5/27/2022 11:30:00 AM 19.24 66.632 0.203 7.25 5.75 8.18
5/27/2022 11:45:00 AM 19.25 66.65 0.204 7.25 6.5 8.22
5/27/2022 12:00:00 PM 19.28 66.704 0.204 7.26 6.48 8.33
5/27/2022 12:15:00 PM 19.34 66.812 0.204 7.26 5.37 8.41
5/27/2022 12:30:00 PM 19.38 66.884 0.203 7.3 16.23 8.54
5/27/2022 12:45:00 PM 19.4 66.92 0.202 7.32 6.55 8.64
5/27/2022 1:00:00 PM 19.37 66.866 0.204 7.32 6.04 8.62
5/27/2022 1:15:00 PM 19.44 66.992 0.203 7.32 10 8.7
5/27/2022 1:30:00 PM 19.47 67.046 0.203 7.35 5.23 8.8
5/27/2022 1:45:00 PM 19.46 67.028 0.203 7.36 5.4 8.76
5/27/2022 2:00:00 PM 19.44 66.992 0.204 7.34 9.25 8.73
5/27/2022 2:15:00 PM 19.52 67.136 0.204 7.36 10.16 8.85
5/27/2022 2:30:00 PM 19.49 67.082 0.204 7.36 145.89 8.91
5/27/2022 2:45:00 PM 19.47 67.046 0.205 7.33 44.62 8.79
5/27/2022 3:00:00 PM 19.52 67.136 0.203 7.37 24.66 8.88
5/27/2022 3:15:00 PM 19.5 67.1 0.203 7.38 6.3 8.88
5/27/2022 3:30:00 PM 19.5 67.1 0.202 7.38 23.14 8.94
5/27/2022 3:45:00 PM 19.47 67.046 0.203 7.36 5.97 8.85
5/27/2022 4:00:00 PM 19.46 67.028 0.203 7.4 7.87 8.9
5/27/2022 4:15:00 PM 19.42 66.956 0.203 7.35 5.27 8.76
5/27/2022 4:30:00 PM 19.39 66.902 0.203 7.33 11.41 8.72
5/27/2022 4:45:00 PM 19.41 66.938 0.202 7.38 5.7 8.78
5/27/2022 5:00:00 PM 19.4 66.92 0.202 7.38 22.27 8.77
5/27/2022 5:15:00 PM 19.43 66.974 0.203 7.4 9.23 8.87
5/27/2022 5:30:00 PM 19.47 67.046 0.202 7.39 6.94 8.97
5/27/2022 5:45:00 PM 19.47 67.046 0.203 7.33 6.38 8.98
5/27/2022 6:00:00 PM 19.5 67.1 0.203 7.4 6.74 9.03
5/27/2022 6:15:00 PM 19.52 67.136 0.203 7.38 5.6 8.98
5/27/2022 6:30:00 PM 19.52 67.136 0.204 7.38 5.07 9.02
5/27/2022 6:45:00 PM 19.53 67.154 0.204 7.4 4.79 9.01
5/27/2022 7:00:00 PM 19.55 67.19 0.203 7.44 5.52 9.08
5/27/2022 7:15:00 PM 19.51 67.118 0.203 7.42 5.54 9
5/27/2022 7:30:00 PM 19.5 67.1 0.203 7.41 5.19 8.93
5/27/2022 7:45:00 PM 19.47 67.046 0.203 7.4 6.13 8.87
5/27/2022 8:00:00 PM 19.37 66.866 0.203 7.38 15.51 8.74
5/27/2022 8:15:00 PM 19.35 66.83 0.202 7.38 9.22 8.73
5/27/2022 8:30:00 PM 19.28 66.704 0.203 7.36 5.18 8.54
5/27/2022 8:45:00 PM 19.25 66.65 0.202 7.36 8.79 8.48
5/27/2022 9:00:00 PM 19.15 66.47 0.203 7.35 4.76 8.35
5/27/2022 9:15:00 PM 19.07 66.326 0.203 7.33 4.87 8.25
5/27/2022 9:30:00 PM 19.04 66.272 0.203 7.31 5.37 8.2
5/27/2022 9:45:00 PM 18.94 66.092 0.204 7.29 4.98 8.06
5/27/2022 10:00:00 PM 18.88 65.984 0.204 7.29 5.44 7.97
5/27/2022 10:15:00 PM 18.84 65.912 0.203 7.29 5.78 7.95
5/27/2022 10:30:00 PM 18.76 65.768 0.203 7.25 5.87 7.86
5/27/2022 10:45:00 PM 18.7 65.66 0.204 7.26 6 7.8
5/27/2022 11:00:00 PM 18.63 65.534 0.204 7.25 5.91 7.81
5/27/2022 11:15:00 PM 18.57 65.426 0.204 7.25 5.3 7.78
5/27/2022 11:30:00 PM 18.5 65.3 0.203 7.24 5.35 7.77
5/27/2022 11:45:00 PM 18.43 65.174 0.204 7.22 5.49 7.7
5/28/2022 12:00:00 AM 18.39 65.102 0.203 7.24 5.61 7.71
5/28/2022 12:15:00 AM 18.32 64.976 0.204 7.22 5.66 7.68
5/28/2022 12:30:00 AM 18.27 64.886 0.204 7.21 5.57 7.6
5/28/2022 12:45:00 AM 18.19 64.742 0.204 7.2 6.02 7.58
5/28/2022 1:00:00 AM 18.15 64.67 0.204 7.2 4.97 7.59
5/28/2022 1:15:00 AM 18.1 64.58 0.204 7.2 5.59 7.56
5/28/2022 1:30:00 AM 18.05 64.49 0.205 7.18 5.92 7.52
5/28/2022 1:45:00 AM 17.99 64.382 0.205 7.17 5.69 7.49
5/28/2022 2:00:00 AM 17.89 64.202 0.205 7.16 6.57 7.45
5/28/2022 2:15:00 AM 17.87 64.166 0.206 7.15 5.51 7.47
5/28/2022 2:30:00 AM 17.83 64.094 0.205 7.16 6.11 7.42
5/28/2022 2:45:00 AM 17.78 64.004 0.207 7.17 6.57 7.43
5/28/2022 3:00:00 AM 17.75 63.95 0.205 7.17 5.6 7.5
5/28/2022 3:15:00 AM 17.72 63.896 0.206 7.17 5.68 7.51
5/28/2022 3:30:00 AM 17.67 63.806 0.205 7.17 6.03 7.5
5/28/2022 3:45:00 AM 17.64 63.752 0.206 7.15 6.93 7.44
5/28/2022 4:00:00 AM 17.61 63.698 0.206 7.15 6.09 7.44
5/28/2022 4:15:00 AM 17.57 63.626 0.206 7.14 5.43 7.47
5/28/2022 4:30:00 AM 17.54 63.572 0.205 7.13 9.79 7.43
5/28/2022 4:45:00 AM 17.53 63.554 0.205 7.15 12.3 7.45
5/28/2022 5:00:00 AM 17.51 63.518 0.205 7.15 24.2 7.49
5/28/2022 5:15:00 AM 17.45 63.41 0.205 7.14 15.46 7.48
5/28/2022 5:30:00 AM 17.41 63.338 0.206 7.14 8.72 7.47
5/28/2022 5:45:00 AM 17.41 63.338 0.205 7.15 18.9 7.52
5/28/2022 6:00:00 AM 17.37 63.266 0.206 7.15 12.98 7.52
5/28/2022 6:15:00 AM 17.32 63.176 0.206 7.14 10.33 7.49
5/28/2022 6:30:00 AM 17.32 63.176 0.206 7.16 7.96 7.54
5/28/2022 6:45:00 AM 17.28 63.104 0.206 7.15 9.36 7.55
5/28/2022 7:00:00 AM 17.27 63.086 0.206 7.14 7.38 7.64
5/28/2022 7:15:00 AM 17.28 63.104 0.206 7.16 11.48 7.73
5/28/2022 7:30:00 AM 17.23 63.014 0.209 7.19 8.13 7.76
5/28/2022 7:45:00 AM 17.27 63.086 0.207 7.17 5.93 7.92
5/28/2022 8:00:00 AM 17.29 63.122 0.207 7.19 12.03 8.01
5/28/2022 8:15:00 AM 17.32 63.176 0.206 7.19 13.61 8.11
5/28/2022 8:30:00 AM 17.35 63.23 0.207 7.2 6.86 8.22
5/28/2022 8:45:00 AM 17.42 63.356 0.207 7.23 6.31 8.37
5/28/2022 9:00:00 AM 17.5 63.5 0.205 7.24 6.36 8.5
5/28/2022 9:15:00 AM 17.58 63.644 0.205 7.26 9.6 8.61
5/28/2022 9:30:00 AM 17.63 63.734 0.205 7.25 7.54 8.7
5/28/2022 9:45:00 AM 17.63 63.734 0.206 7.27 6.34 8.71
5/28/2022 10:00:00 AM 17.69 63.842 0.205 7.28 8.06 8.78
5/28/2022 10:15:00 AM 17.76 63.968 0.205 7.31 7.56 8.85
5/28/2022 10:30:00 AM 17.75 63.95 0.205 7.31 6.24 8.87
5/28/2022 10:45:00 AM 17.81 64.058 0.206 7.29 6.35 8.94
5/28/2022 11:00:00 AM 17.95 64.31 0.205 7.31 12.26 9.09
5/28/2022 11:15:00 AM 17.92 64.256 0.205 7.34 7.12 9.07
5/28/2022 11:30:00 AM 17.98 64.364 0.205 7.38 4.53 9.16
5/28/2022 11:45:00 AM 18.09 64.562 0.205 7.38 10.29 9.26
5/28/2022 12:00:00 PM 18.11 64.598 0.205 7.38 7.35 9.28
5/28/2022 12:15:00 PM 18.12 64.616 0.204 7.41 6.32 9.29
5/28/2022 12:30:00 PM 18.2 64.76 0.205 7.37 6.23 9.37
5/28/2022 12:45:00 PM 18.35 65.03 0.204 7.44 5.25 9.46
5/28/2022 1:00:00 PM 18.33 64.994 0.204 7.44 18.07 9.5
5/28/2022 1:15:00 PM 18.38 65.084 0.204 7.44 8.7 9.54
5/28/2022 1:30:00 PM 18.48 65.264 0.204 7.41 8.12 9.59
5/28/2022 1:45:00 PM 18.59 65.462 0.205 7.44 7.73 9.59
5/28/2022 2:00:00 PM 18.67 65.606 0.205 7.41 7.69 9.52
5/28/2022 2:15:00 PM 18.6 65.48 0.204 7.42 6.2 9.52
5/28/2022 2:30:00 PM 18.86 65.948 0.204 7.46 6.83 9.62
5/28/2022 2:45:00 PM 18.96 66.128 0.206 7.44 8.73 9.66
5/28/2022 3:00:00 PM 18.92 66.056 0.205 7.46 12.71 9.55
5/28/2022 3:15:00 PM 19 66.2 0.204 7.51 18.68 9.63
5/28/2022 3:30:00 PM 19.11 66.398 0.204 7.51 6.82 9.67
5/28/2022 3:45:00 PM 19.14 66.452 0.205 7.5 6.65 9.65
5/28/2022 4:00:00 PM 19.25 66.65 0.205 7.51 5.22 9.7
5/28/2022 4:15:00 PM 19.23 66.614 0.204 7.5 6.63 9.69
5/28/2022 4:30:00 PM 19.19 66.542 0.205 7.52 6.01 9.6
5/28/2022 4:45:00 PM 19.4 66.92 0.204 7.53 6.18 9.69
5/28/2022 5:00:00 PM 19.41 66.938 0.205 7.53 6.1 9.65
5/28/2022 5:15:00 PM 19.39 66.902 0.205 7.5 5.25 9.56
5/28/2022 5:30:00 PM 19.38 66.884 0.204 7.53 6.97 9.56
5/28/2022 5:45:00 PM 19.41 66.938 0.204 7.55 8.26 9.55
5/28/2022 6:00:00 PM 19.37 66.866 0.204 7.55 4.68 9.52
5/28/2022 6:15:00 PM 19.27 66.686 0.204 7.48 6.16 9.41
5/28/2022 6:30:00 PM 19.2 66.56 0.204 7.5 7.01 9.32
5/28/2022 6:45:00 PM 19.12 66.416 0.205 7.49 6.56 9.3
5/28/2022 7:00:00 PM 19.06 66.308 0.204 7.47 5.05 9.23
5/28/2022 7:15:00 PM 18.98 66.164 0.204 7.49 6.32 9.19
5/28/2022 7:30:00 PM 18.91 66.038 0.204 7.46 5.92 9.05
5/28/2022 7:45:00 PM 18.87 65.966 0.204 7.46 6.27 9.01
5/28/2022 8:00:00 PM 18.84 65.912 0.204 7.46 5.48 9
5/28/2022 8:15:00 PM 18.75 65.75 0.205 7.41 17.15 8.86
5/28/2022 8:30:00 PM 18.68 65.624 0.205 7.43 5.73 8.79
5/28/2022 8:45:00 PM 18.58 65.444 0.205 7.4 4.65 8.67
5/28/2022 9:00:00 PM 18.5 65.3 0.205 7.4 4.25 8.61
5/28/2022 9:15:00 PM 18.41 65.138 0.205 7.38 5.25 8.5
5/28/2022 9:30:00 PM 18.31 64.958 0.204 7.31 5.66 8.43
5/28/2022 9:45:00 PM 18.19 64.742 0.205 7.35 6.05 8.32
5/28/2022 10:00:00 PM 18.09 64.562 0.205 7.34 5.3 8.29
5/28/2022 10:15:00 PM 17.99 64.382 0.205 7.33 6.5 8.22
5/28/2022 10:30:00 PM 17.89 64.202 0.205 7.28 5.65 8.19
5/28/2022 10:45:00 PM 17.78 64.004 0.206 7.3 5.76 8.13
5/28/2022 11:00:00 PM 17.69 63.842 0.206 7.29 5.46 8.09
5/28/2022 11:15:00 PM 17.58 63.644 0.206 7.25 6.05 8.06
5/28/2022 11:30:00 PM 17.49 63.482 0.206 7.26 5.85 8.01
5/28/2022 11:45:00 PM 17.4 63.32 0.206 7.25 5.42 7.98
5/29/2022 12:00:00 AM 17.27 63.086 0.207 7.24 5.76 7.94
5/29/2022 12:15:00 AM 17.19 62.942 0.208 7.25 5.79 7.96
5/29/2022 12:30:00 AM 17.1 62.78 0.207 7.24 6.12 7.94
5/29/2022 12:45:00 AM 17.02 62.636 0.207 7.23 5.63 7.94
5/29/2022 1:00:00 AM 16.92 62.456 0.206 7.24 5.58 7.91
5/29/2022 1:15:00 AM 16.83 62.294 0.206 7.22 5.64 7.95
5/29/2022 1:30:00 AM 16.75 62.15 0.206 7.23 6.06 7.92
5/29/2022 1:45:00 AM 16.66 61.988 0.207 7.21 5.63 7.88
5/29/2022 2:00:00 AM 16.61 61.898 0.206 7.23 5.56 7.9
5/29/2022 2:15:00 AM 16.53 61.754 0.206 7.22 5.74 7.87
5/29/2022 2:30:00 AM 16.46 61.628 0.205 7.18 5.81 7.93
5/29/2022 2:45:00 AM 16.4 61.52 0.206 7.22 6.43 7.91
5/29/2022 3:00:00 AM 16.35 61.43 0.205 7.2 5.74 7.92
5/29/2022 3:15:00 AM 16.27 61.286 0.206 7.2 5.98 7.87
5/29/2022 3:30:00 AM 16.24 61.232 0.206 7.19 5.58 7.93
5/29/2022 3:45:00 AM 16.18 61.124 0.206 7.17 5.77 7.89
5/29/2022 4:00:00 AM 16.12 61.016 0.206 7.19 6.03 7.87
5/29/2022 4:15:00 AM 16.08 60.944 0.206 7.2 6.69 7.9
5/29/2022 4:30:00 AM 16.06 60.908 0.205 7.22 6.98 7.96
5/29/2022 4:45:00 AM 16 60.8 0.206 7.19 6.1 7.94
5/29/2022 5:00:00 AM 15.95 60.71 0.205 7.21 19.78 7.97
5/29/2022 5:15:00 AM 15.9 60.62 0.206 7.18 9.48 7.91
5/29/2022 5:30:00 AM 15.83 60.494 0.206 7.19 27.31 7.9
5/29/2022 5:45:00 AM 15.8 60.44 0.206 7.19 12.04 7.95
5/29/2022 6:00:00 AM 15.74 60.332 0.206 7.19 26.52 7.95
5/29/2022 6:15:00 AM 15.68 60.224 0.211 7.15 7.21 7.89
5/29/2022 6:30:00 AM 15.63 60.134 0.206 7.14 5.87 7.98
5/29/2022 6:45:00 AM 15.59 60.062 0.206 7.18 5.65 8
5/29/2022 7:00:00 AM 15.56 60.008 0.206 7.18 5.48 8.15
5/29/2022 7:15:00 AM 15.49 59.882 0.208 7.18 5.08 8.12
5/29/2022 7:30:00 AM 15.5 59.9 0.207 7.19 5.27 8.2
5/29/2022 7:45:00 AM 15.45 59.81 0.208 7.18 4.68 8.28
5/29/2022 8:00:00 AM 15.48 59.864 0.207 7.22 4.72 8.45
5/29/2022 8:15:00 AM 15.52 59.936 0.206 7.25 4.65 8.68
5/29/2022 8:30:00 AM 15.53 59.954 0.207 7.26 4.71 8.76
5/29/2022 8:45:00 AM 15.54 59.972 0.207 7.25 4.89 8.81
5/29/2022 9:00:00 AM 15.58 60.044 0.207 7.28 4.06 8.99
5/29/2022 9:15:00 AM 15.64 60.152 0.206 7.29 4.6 9.12
5/29/2022 9:30:00 AM 15.71 60.278 0.206 7.32 4.35 9.23
5/29/2022 9:45:00 AM 15.8 60.44 0.207 7.32 4.61 9.31
5/29/2022 10:00:00 AM 15.99 60.782 0.206 7.35 4.71 9.46
5/29/2022 10:15:00 AM 16.15 61.07 0.206 7.35 4.13 9.48
5/29/2022 10:30:00 AM 16.51 61.718 0.205 7.4 4.46 9.66
5/29/2022 10:45:00 AM 16.82 62.276 0.205 7.41 4.54 9.72
5/29/2022 11:00:00 AM 17.15 62.87 0.206 7.41 4.3 9.77
5/29/2022 11:15:00 AM 17.49 63.482 0.206 7.43 4.13 9.81
5/29/2022 11:30:00 AM 17.71 63.878 0.207 7.44 4.42 9.84
5/29/2022 11:45:00 AM 18.1 64.58 0.207 7.44 4.12 9.92
5/29/2022 12:00:00 PM 18.4 65.12 0.207 7.43 4.7 9.93
5/29/2022 12:15:00 PM 18.78 65.804 0.207 7.44 4.15 10
5/29/2022 12:30:00 PM 18.97 66.146 0.208 7.46 4.08 9.99
5/29/2022 12:45:00 PM 19.26 66.668 0.208 7.46 4.44 10.03
5/29/2022 1:00:00 PM 19.61 67.298 0.207 7.47 4.14 10.03
5/29/2022 1:15:00 PM 19.97 67.946 0.207 7.49 6.5 10.06
5/29/2022 1:30:00 PM 20.14 68.252 0.209 7.48 6.63 10.02
5/29/2022 1:45:00 PM 20.41 68.738 0.208 7.49 4.88 10.06
5/29/2022 2:00:00 PM 20.69 69.242 0.208 7.52 4.17 10.09
5/29/2022 2:15:00 PM 20.99 69.782 0.207 7.52 4.14 10.13
5/29/2022 2:30:00 PM 21.1 69.98 0.208 7.48 4.2 10.02
5/29/2022 2:45:00 PM 21.4 70.52 0.207 7.54 3.96 10.03
5/29/2022 3:00:00 PM 21.58 70.844 0.207 7.55 4.25 10.01
5/29/2022 3:15:00 PM 21.68 71.024 0.208 7.52 4.37 9.96
5/29/2022 3:30:00 PM 21.87 71.366 0.208 7.56 4.2 9.99
5/29/2022 3:45:00 PM 22.03 71.654 0.207 7.56 4.45 9.96
5/29/2022 4:00:00 PM 22.15 71.87 0.207 7.57 4.72 9.92
5/29/2022 4:15:00 PM 22.24 72.032 0.207 7.57 4.34 9.85
5/29/2022 4:30:00 PM 22.31 72.158 0.207 7.57 4.58 9.77
5/29/2022 4:45:00 PM 22.26 72.068 0.208 7.53 4.24 9.69
5/29/2022 5:00:00 PM 22.28 72.104 0.207 7.55 4.51 9.59
5/29/2022 5:15:00 PM 22.22 71.996 0.208 7.54 4.7 9.52
5/29/2022 5:30:00 PM 22.14 71.852 0.208 7.51 4.22 9.4
5/29/2022 5:45:00 PM 22.08 71.744 0.208 7.51 4.45 9.33
5/29/2022 6:00:00 PM 21.97 71.546 0.207 7.5 4.55 9.26
5/29/2022 6:15:00 PM 21.89 71.402 0.207 7.48 4.3 9.12
5/29/2022 6:30:00 PM 21.79 71.222 0.207 7.47 4.45 8.99
5/29/2022 6:45:00 PM 21.64 70.952 0.208 7.46 4.59 8.92
5/29/2022 7:00:00 PM 21.47 70.646 0.208 7.41 4.42 8.77
5/29/2022 7:15:00 PM 21.35 70.43 0.208 7.39 4.53 8.68
5/29/2022 7:30:00 PM 21.24 70.232 0.207 7.4 4.48 8.62
5/29/2022 7:45:00 PM 21.1 69.98 0.208 7.38 4.6 8.57
5/29/2022 8:00:00 PM 21.03 69.854 0.207 7.4 4.85 8.47
5/29/2022 8:15:00 PM 20.83 69.494 0.208 7.36 5 8.37
5/29/2022 8:30:00 PM 20.74 69.332 0.207 7.36 4.83 8.32
5/29/2022 8:45:00 PM 20.67 69.206 0.207 7.36 5 8.26
5/29/2022 9:00:00 PM 20.56 69.008 0.207 7.36 5.5 8.18
5/29/2022 9:15:00 PM 20.45 68.81 0.207 7.34 5.57 8.06
5/29/2022 9:30:00 PM 20.33 68.594 0.208 7.3 5.75 7.96
5/29/2022 9:45:00 PM 20.2 68.36 0.208 7.28 5.86 7.84
5/29/2022 10:00:00 PM 20.12 68.216 0.208 7.28 5.76 7.82
5/29/2022 10:15:00 PM 20.01 68.018 0.208 7.28 6.52 7.75
5/29/2022 10:30:00 PM 19.89 67.802 0.208 7.26 6.32 7.65
5/29/2022 10:45:00 PM 19.77 67.586 0.208 7.26 6.07 7.65
5/29/2022 11:00:00 PM 19.7 67.46 0.207 7.28 5.97 7.63
5/29/2022 11:15:00 PM 19.58 67.244 0.208 7.25 6.42 7.56
5/29/2022 11:30:00 PM 19.41 66.938 0.209 7.22 6.16 7.46
5/29/2022 11:45:00 PM 19.38 66.884 0.209 7.24 5.76 7.51
5/30/2022 12:00:00 AM 19.28 66.704 0.208 7.23 6.31 7.47
5/30/2022 12:15:00 AM 19.15 66.47 0.21 7.22 6.26 7.45
5/30/2022 12:30:00 AM 19.01 66.218 0.21 7.19 6.54 7.34
5/30/2022 12:45:00 AM 18.98 66.164 0.209 7.21 6.13 7.39
5/30/2022 1:00:00 AM 18.85 65.93 0.21 7.18 6.15 7.36
5/30/2022 1:15:00 AM 18.76 65.768 0.21 7.2 6.37 7.37
5/30/2022 1:30:00 AM 18.68 65.624 0.209 7.21 6.77 7.38
5/30/2022 1:45:00 AM 18.52 65.336 0.211 7.16 6.36 7.31
5/30/2022 2:00:00 AM 18.47 65.246 0.21 7.19 6.34 7.36
5/30/2022 2:15:00 AM 18.41 65.138 0.21 7.18 6.58 7.35
5/30/2022 2:30:00 AM 18.29 64.922 0.21 7.19 5.96 7.31
5/30/2022 2:45:00 AM 18.19 64.742 0.21 7.18 6.66 7.28
5/30/2022 3:00:00 AM 18.09 64.562 0.211 7.17 6.46 7.26
5/30/2022 3:15:00 AM 18.04 64.472 0.21 7.17 6.49 7.3
5/30/2022 3:30:00 AM 17.97 64.346 0.21 7.16 6.01 7.31
5/30/2022 3:45:00 AM 17.9 64.22 0.21 7.18 7.6 7.3
5/30/2022 4:00:00 AM 17.81 64.058 0.21 7.17 6.91 7.32
5/30/2022 4:15:00 AM 17.72 63.896 0.211 7.16 5.85 7.25
5/30/2022 4:30:00 AM 17.66 63.788 0.21 7.17 7.5 7.29
5/30/2022 4:45:00 AM 17.57 63.626 0.21 7.15 6.44 7.32
5/30/2022 5:00:00 AM 17.53 63.554 0.21 7.17 6.48 7.36
5/30/2022 5:15:00 AM 17.42 63.356 0.21 7.16 6.93 7.32
5/30/2022 5:30:00 AM 17.38 63.284 0.21 7.17 6.17 7.36
5/30/2022 5:45:00 AM 17.31 63.158 0.211 7.15 6.38 7.37
5/30/2022 6:00:00 AM 17.26 63.068 0.21 7.17 6.51 7.4
5/30/2022 6:15:00 AM 17.19 62.942 0.211 7.16 6.18 7.41
5/30/2022 6:30:00 AM 17.14 62.852 0.21 7.17 6.12 7.45
5/30/2022 6:45:00 AM 17.06 62.708 0.211 7.15 10.24 7.45
5/30/2022 7:00:00 AM 17.04 62.672 0.21 7.16 5.94 7.53
5/30/2022 7:15:00 AM 17.03 62.654 0.21 7.18 6.2 7.68
5/30/2022 7:30:00 AM 16.95 62.51 0.211 7.16 5.78 7.62
5/30/2022 7:45:00 AM 16.96 62.528 0.211 7.16 4.95 7.81
5/30/2022 8:00:00 AM 17.03 62.654 0.209 7.2 5.51 8.05
5/30/2022 8:15:00 AM 17.07 62.726 0.21 7.21 4.94 8.15
5/30/2022 8:30:00 AM 17.14 62.852 0.209 7.22 5.2 8.32
5/30/2022 8:45:00 AM 17.15 62.87 0.211 7.25 6.07 8.38
5/30/2022 9:00:00 AM 17.18 62.924 0.211 7.25 5 8.47
5/30/2022 9:15:00 AM 17.26 63.068 0.21 7.27 4.63 8.57
5/30/2022 9:30:00 AM 17.25 63.05 0.212 7.25 4.66 8.58
5/30/2022 9:45:00 AM 17.34 63.212 0.211 7.29 4.95 8.66
5/30/2022 10:00:00 AM 17.36 63.248 0.212 7.26 5.35 8.7
5/30/2022 10:15:00 AM 17.5 63.5 0.211 7.31 5.02 8.75
5/30/2022 10:30:00 AM 17.48 63.464 0.212 7.3 4.84 8.82
5/30/2022 10:45:00 AM 17.62 63.716 0.21 7.33 4.3 8.93
5/30/2022 11:00:00 AM 17.85 64.13 0.21 7.34 4.22 9.06
5/30/2022 11:15:00 AM 18.11 64.598 0.21 7.34 4.67 9.12
5/30/2022 11:30:00 AM 18.34 65.012 0.211 7.35 4.37 9.19
5/30/2022 11:45:00 AM 18.62 65.516 0.21 7.38 4.17 9.3
5/30/2022 12:00:00 PM 19.13 66.434 0.21 7.42 4.34 9.42
5/30/2022 12:15:00 PM 19.61 67.298 0.21 7.46 4.22 9.6
5/30/2022 12:30:00 PM 19.92 67.856 0.21 7.46 5.06 9.57
5/30/2022 12:45:00 PM 20.28 68.504 0.211 7.42 4.21 9.64
5/30/2022 1:00:00 PM 20.47 68.846 0.212 7.44 7.66 9.63
5/30/2022 1:15:00 PM 20.8 69.44 0.212 7.44 4.47 9.68
5/30/2022 1:30:00 PM 21.17 70.106 0.211 7.47 4.71 9.69
5/30/2022 1:45:00 PM 21.4 70.52 0.211 7.47 5.42 9.72
5/30/2022 2:00:00 PM 21.78 71.204 0.211 7.47 5.58 9.74
5/30/2022 2:15:00 PM 22.11 71.798 0.211 7.51 5.09 9.8
5/30/2022 2:30:00 PM 22.11 71.798 0.211 7.48 5.07 9.67
5/30/2022 2:45:00 PM 22.49 72.482 0.211 7.52 4.29 9.77
5/30/2022 3:00:00 PM 22.65 72.77 0.21 7.52 6.75 9.67
5/30/2022 3:15:00 PM 22.72 72.896 0.21 7.53 4.33 9.74
5/30/2022 3:30:00 PM 23.01 73.418 0.21 7.55 4.38 9.71
5/30/2022 3:45:00 PM 23.35 74.03 0.21 7.55 4.22 9.64
5/30/2022 4:00:00 PM 23.42 74.156 0.21 7.55 4.74 9.65
5/30/2022 4:15:00 PM 23.45 74.21 0.21 7.56 4.79 9.57
5/30/2022 4:30:00 PM 23.7 74.66 0.21 7.56 4.19 9.58
5/30/2022 4:45:00 PM 23.8 74.84 0.21 7.57 4.95 9.52
5/30/2022 5:00:00 PM 23.68 74.624 0.21 7.55 4.91 9.44
5/30/2022 5:15:00 PM 23.83 74.894 0.21 7.55 4.86 9.32
5/30/2022 5:30:00 PM 23.79 74.82201 0.21 7.54 4.71 9.14
5/30/2022 5:45:00 PM 23.78 74.804 0.21 7.53 4.77 9.08
5/30/2022 6:00:00 PM 23.66 74.588 0.21 7.49 4.84 8.95
5/30/2022 6:15:00 PM 23.55 74.39 0.21 7.49 4.97 8.83
5/30/2022 6:30:00 PM 23.46 74.228 0.21 7.47 5.24 8.74
5/30/2022 6:45:00 PM 23.34 74.012 0.21 7.47 4.96 8.69
5/30/2022 7:00:00 PM 23.23 73.814 0.21 7.45 9.46 8.61
5/30/2022 7:15:00 PM 23.11 73.598 0.21 7.44 5.38 8.5
5/30/2022 7:30:00 PM 23.01 73.418 0.21 7.41 4.73 8.41
5/30/2022 7:45:00 PM 22.88 73.184 0.211 7.39 4.92 8.27
5/30/2022 8:00:00 PM 22.81 73.058 0.21 7.36 7.25 8.2
5/30/2022 8:15:00 PM 22.7 72.86 0.211 7.37 5.13 8.14
5/30/2022 8:30:00 PM 22.64 72.752 0.21 7.37 4.78 8.06
5/30/2022 8:45:00 PM 22.51 72.518 0.211 7.36 5.61 7.98
5/30/2022 9:00:00 PM 22.4 72.32 0.21 7.32 5.64 7.83
5/30/2022 9:15:00 PM 22.26 72.068 0.211 7.3 5.24 7.73
5/30/2022 9:30:00 PM 22.23 72.014 0.211 7.3 5.62 7.63
5/30/2022 9:45:00 PM 22.11 71.798 0.211 7.29 6.79 7.51
5/30/2022 10:00:00 PM 21.94 71.492 0.212 7.26 6.4 7.38
5/30/2022 10:15:00 PM 21.91 71.438 0.211 7.27 6.09 7.37
5/30/2022 10:30:00 PM 21.79 71.222 0.211 7.24 7.51 7.22
5/30/2022 10:45:00 PM 21.67 71.006 0.212 7.24 6.08 7.18
5/30/2022 11:00:00 PM 21.56 70.808 0.211 7.23 7.52 7.15
5/30/2022 11:15:00 PM 21.48 70.664 0.211 7.22 6.68 7.04
5/30/2022 11:30:00 PM 21.38 70.484 0.212 7.2 6.01 7.01
5/30/2022 11:45:00 PM 21.3 70.34 0.211 7.21 5.85 7.01
5/31/2022 12:00:00 AM 21.19 70.142 0.212 7.2 6.42 6.94
5/31/2022 12:15:00 AM 21.1 69.98 0.212 7.17 7.02 6.91
5/31/2022 12:30:00 AM 21.04 69.872 0.211 7.19 6.67 6.87
5/31/2022 12:45:00 AM 20.91 69.638 0.211 7.18 7.27 6.86
5/31/2022 1:00:00 AM 20.84 69.512 0.212 7.18 6.71 6.89
5/31/2022 1:15:00 AM 20.71 69.278 0.212 7.12 7.35 6.81
5/31/2022 1:30:00 AM 20.63 69.134 0.212 7.17 7.51 6.77
5/31/2022 1:45:00 AM 20.56 69.008 0.212 7.17 7.42 6.8
5/31/2022 2:00:00 AM 20.43 68.774 0.212 7.16 7.16 6.79
5/31/2022 2:15:00 AM 20.38 68.684 0.213 7.15 7.51 6.74
5/31/2022 2:30:00 AM 20.28 68.504 0.213 7.09 7.7 6.73
5/31/2022 2:45:00 AM 20.2 68.36 0.213 7.15 8.18 6.71
5/31/2022 3:00:00 AM 20.14 68.252 0.213 7.15 7.68 6.76
5/31/2022 3:15:00 AM 20.05 68.09 0.213 7.14 7.7 6.71
5/31/2022 3:30:00 AM 19.96 67.92799 0.213 7.08 6.9 6.73
5/31/2022 3:45:00 AM 19.89 67.802 0.214 7.14 6.71 6.73
5/31/2022 4:00:00 AM 19.84 67.712 0.213 7.15 7.91 6.72
5/31/2022 4:15:00 AM 19.77 67.586 0.213 7.14 7.53 6.68
5/31/2022 4:30:00 AM 19.68 67.424 0.213 7.13 7.22 6.74
5/31/2022 4:45:00 AM 19.56 67.208 0.214 7.1 7.33 6.67
5/31/2022 5:00:00 AM 19.56 67.208 0.213 7.14 6.72 6.71
5/31/2022 5:15:00 AM 19.48 67.064 0.213 7.14 7.83 6.75
5/31/2022 5:30:00 AM 19.44 66.992 0.213 7.15 7.56 6.82
5/31/2022 5:45:00 AM 19.34 66.812 0.214 7.13 7.87 6.76
5/31/2022 6:00:00 AM 19.3 66.74 0.213 7.12 14.35 6.75
5/31/2022 6:15:00 AM 19.23 66.614 0.213 7.07 7.78 6.82
5/31/2022 6:30:00 AM 19.16 66.488 0.213 7.13 10.24 6.82
5/31/2022 6:45:00 AM 19.12 66.416 0.212 7.13 6.98 6.88
5/31/2022 7:00:00 AM 19.09 66.362 0.213 7.13 7.04 6.88
5/31/2022 7:15:00 AM 19.05 66.29 0.212 7.14 7.66 6.94
5/31/2022 7:30:00 AM 18.99 66.182 0.213 7.14 8.33 7.01
5/31/2022 7:45:00 AM 19 66.2 0.212 7.15 6.92 7.17
5/31/2022 8:00:00 AM 18.95 66.11 0.213 7.1 10.4 7.17
5/31/2022 8:15:00 AM 19.02 66.236 0.212 7.15 5.72 7.41
5/31/2022 8:30:00 AM 19.08 66.344 0.212 7.16 11.09 7.51
5/31/2022 8:45:00 AM 19.2 66.56 0.212 7.19 9.27 7.69
5/31/2022 9:00:00 AM 19.32 66.776 0.212 7.22 5.68 7.85
5/31/2022 9:15:00 AM 19.55 67.19 0.211 7.24 5.48 8
5/31/2022 9:30:00 AM 19.75 67.55 0.212 7.26 5.76 8.12
5/31/2022 9:45:00 AM 20.06 68.108 0.211 7.22 5.39 8.27
5/31/2022 10:00:00 AM 20.25 68.45 0.212 7.3 5.41 8.33
5/31/2022 10:15:00 AM 20.58 69.044 0.212 7.32 5.4 8.48
5/31/2022 10:30:00 AM 20.72 69.296 0.213 7.33 5.44 8.51
5/31/2022 10:45:00 AM 20.95 69.71 0.213 7.34 5.55 8.57
5/31/2022 11:00:00 AM 21.08 69.944 0.214 7.32 5.27 8.65
5/31/2022 11:15:00 AM 21.38 70.484 0.214 7.36 5.38 8.73
5/31/2022 11:30:00 AM 21.54 70.772 0.214 7.37 5.93 8.77
5/31/2022 11:45:00 AM 21.86 71.348 0.214 7.38 5.68 8.9
5/31/2022 12:00:00 PM 22.2 71.96 0.215 7.4 5.56 8.98
5/31/2022 12:15:00 PM 22.44 72.392 0.215 7.39 7 8.99
5/31/2022 12:30:00 PM 22.67 72.806 0.215 7.39 4.95 9.06
5/31/2022 12:45:00 PM 23.09 73.562 0.215 7.43 5.16 9.18
5/31/2022 1:00:00 PM 22.99 73.382 0.218 7.37 8.14 8.95
5/31/2022 1:15:00 PM 23.55 74.39 0.217 7.36 4.44 9.22
5/31/2022 1:30:00 PM 23.59 74.462 0.217 7.36 8.3 9.14
5/31/2022 1:45:00 PM 23.68 74.624 0.217 7.4 5.15 9.21
5/31/2022 2:00:00 PM 24.04 75.272 0.217 7.4 4.56 9.1
5/31/2022 2:15:00 PM 24.35 75.83 0.218 7.44 5.17 9.24
5/31/2022 2:30:00 PM 24.5 76.1 0.217 7.41 5.29 9.16
5/31/2022 2:45:00 PM 24.38 75.884 0.216 7.43 6.86 9.14
5/31/2022 3:00:00 PM 24.48 76.064 0.216 7.45 5.57 9.15
5/31/2022 3:15:00 PM 24.76 76.568 0.215 7.49 5.38 9.16
5/31/2022 3:30:00 PM 25.34 77.612 0.215 7.52 5.38 9.34
5/31/2022 3:45:00 PM 25.3 77.54 0.215 7.5 5 9.25
5/31/2022 4:00:00 PM 25.6 78.08 0.215 7.47 5.49 9.15
5/31/2022 4:15:00 PM 25.52 77.936 0.215 7.52 5.4 9.12
5/31/2022 4:30:00 PM 25.52 77.936 0.215 7.5 5.11 9.08
5/31/2022 4:45:00 PM 25.76 78.368 0.214 7.52 5.1 9.01
5/31/2022 5:00:00 PM 26.01 78.818 0.214 7.51 5.33 8.94
5/31/2022 5:15:00 PM 25.6 78.08 0.214 7.5 5.65 8.87
5/31/2022 5:30:00 PM 25.75 78.35 0.214 7.51 6.1 8.82
5/31/2022 5:45:00 PM 25.75 78.35 0.214 7.49 5.65 8.72
5/31/2022 6:00:00 PM 25.77 78.386 0.214 7.5 5.44 8.62
5/31/2022 6:15:00 PM 25.58 78.044 0.214 7.43 5.48 8.51
5/31/2022 6:30:00 PM 25.5 77.9 0.214 7.41 5.27 8.36
5/31/2022 6:45:00 PM 25.37 77.666 0.215 7.44 5.91 8.26
5/31/2022 7:00:00 PM 25.33 77.594 0.214 7.44 6.23 8.14
5/31/2022 7:15:00 PM 25.24 77.432 0.214 7.37 5.54 8.05
5/31/2022 7:30:00 PM 25.12 77.216 0.214 7.38 5.54 7.99
5/31/2022 7:45:00 PM 25.01 77.018 0.214 7.39 4.92 7.81
5/31/2022 8:00:00 PM 24.86 76.748 0.214 7.37 5.54 7.74
5/31/2022 8:15:00 PM 24.73 76.514 0.215 7.36 6.11 7.63
5/31/2022 8:30:00 PM 24.63 76.334 0.215 7.34 5.6 7.47
5/31/2022 8:45:00 PM 24.54 76.172 0.215 7.34 5.61 7.4
5/31/2022 9:00:00 PM 24.36 75.848 0.215 7.31 6.38 7.26
5/31/2022 9:15:00 PM 24.24 75.632 0.216 7.3 6.41 7.14
5/31/2022 9:30:00 PM 24.14 75.452 0.216 7.27 6.56 7
5/31/2022 9:45:00 PM 24.06 75.308 0.216 7.26 6.13 6.8
5/31/2022 10:00:00 PM 23.88 74.984 0.216 7.24 7.02 6.74
5/31/2022 10:15:00 PM 23.79 74.82201 0.216 7.23 7.29 6.68
5/31/2022 10:30:00 PM 23.7 74.66 0.216 7.22 7.44 6.54
5/31/2022 10:45:00 PM 23.63 74.534 0.216 7.21 6.91 6.48
5/31/2022 11:00:00 PM 23.49 74.282 0.216 7.2 7.69 6.4
5/31/2022 11:15:00 PM 23.36 74.048 0.217 7.17 7.66 6.4
5/31/2022 11:30:00 PM 23.31 73.958 0.216 7.18 7.57 6.37
5/31/2022 11:45:00 PM 23.22 73.796 0.216 7.12 8.28 6.37
6/1/2022 12:00:00 AM 23.06 73.508 0.216 7.17 8.46 6.35
6/1/2022 12:15:00 AM 22.97 73.346 0.215 7.17 7.5 6.39
6/1/2022 12:30:00 AM 22.89 73.202 0.215 7.16 7.51 6.33
6/1/2022 12:45:00 AM 22.77 72.986 0.216 7.15 7.52 6.28
6/1/2022 1:00:00 AM 22.66 72.788 0.216 7.14 7.83 6.26
6/1/2022 1:15:00 AM 22.54 72.57201 0.215 7.15 8.05 6.3
6/1/2022 1:30:00 AM 22.41 72.338 0.216 7.14 8.21 6.23
6/1/2022 1:45:00 AM 22.34 72.212 0.215 7.08 8.89 6.26
6/1/2022 2:00:00 AM 22.23 72.014 0.215 7.14 8.99 6.24
6/1/2022 2:15:00 AM 22.09 71.762 0.216 7.06 7.09 6.17
6/1/2022 2:30:00 AM 22.02 71.636 0.215 7.14 12.08 6.25
6/1/2022 2:45:00 AM 21.9 71.42 0.216 7.13 8.02 6.19
6/1/2022 3:00:00 AM 21.76 71.168 0.216 7.1 8.15 6.14
6/1/2022 3:15:00 AM 21.72 71.096 0.216 7.11 8.99 6.18
6/1/2022 3:30:00 AM 21.62 70.916 0.216 7.13 8.92 6.19
6/1/2022 3:45:00 AM 21.51 70.718 0.217 7.13 7.81 6.2
6/1/2022 4:00:00 AM 21.45 70.61 0.216 7.13 7.7 6.22
6/1/2022 4:15:00 AM 21.36 70.448 0.216 7.13 7.86 6.18
6/1/2022 4:30:00 AM 21.28 70.304 0.217 7.13 7.5 6.17
6/1/2022 4:45:00 AM 21.19 70.142 0.217 7.12 7.58 6.2
6/1/2022 5:00:00 AM 21.1 69.98 0.217 7.11 9.3 6.15
6/1/2022 5:15:00 AM 21.04 69.872 0.217 7.12 13.07 6.18
6/1/2022 5:30:00 AM 20.94 69.692 0.217 7.11 8.71 6.2
6/1/2022 5:45:00 AM 20.82 69.476 0.218 7.1 13.24 6.14
6/1/2022 6:00:00 AM 20.78 69.404 0.218 7.1 9.59 6.21
6/1/2022 6:15:00 AM 20.75 69.35 0.217 7.12 7.89 6.26
6/1/2022 6:30:00 AM 20.7 69.26 0.217 7.07 7.35 6.29
6/1/2022 6:45:00 AM 20.67 69.206 0.217 7.12 6.67 6.32
6/1/2022 7:00:00 AM 20.62 69.116 0.217 7.13 8.89 6.36
6/1/2022 7:15:00 AM 20.57 69.026 0.218 7.12 6.69 6.38
6/1/2022 7:30:00 AM 20.55 68.99 0.217 7.13 6.93 6.5
6/1/2022 7:45:00 AM 20.52 68.936 0.217 7.14 6.79 6.65
6/1/2022 8:00:00 AM 20.56 69.008 0.217 7.16 8 6.86
6/1/2022 8:15:00 AM 20.58 69.044 0.217 7.17 6.43 7.01
6/1/2022 8:30:00 AM 20.61 69.098 0.217 7.14 73.21 7.11
6/1/2022 8:45:00 AM 20.69 69.242 0.217 7.2 11.51 7.26
6/1/2022 9:00:00 AM 20.75 69.35 0.217 7.21 9.77 7.41
6/1/2022 9:15:00 AM 20.79 69.422 0.216 7.24 9.42 7.62
6/1/2022 9:30:00 AM 20.94 69.692 0.216 7.25 9.93 7.77
6/1/2022 9:45:00 AM 21.09 69.962 0.217 7.27 967.17 7.86
6/1/2022 10:00:00 AM 21.11 69.998 0.217 7.27 6.54 7.86
6/1/2022 10:15:00 AM 21.13 70.034 0.216 7.26 6.58 7.8
6/1/2022 10:30:00 AM 21.4 70.52 0.215 7.29 6.47 7.95
6/1/2022 10:45:00 AM 21.67 71.006 0.215 7.32 6.72 8.13
6/1/2022 11:00:00 AM 21.66 70.988 0.216 7.32 6.78 8.21
6/1/2022 11:15:00 AM 22.09 71.762 0.216 7.34 6.57 8.37
6/1/2022 11:30:00 AM 22.38 72.284 0.217 7.36 6.14 8.5
6/1/2022 11:45:00 AM 22.68 72.824 0.217 7.39 6.46 8.65
6/1/2022 12:00:00 PM 22.61 72.698 0.218 7.39 6.22 8.62
6/1/2022 12:15:00 PM 22.8 73.04 0.218 7.41 6.49 8.73
6/1/2022 12:30:00 PM 23.07 73.526 0.218 7.39 6.28 8.83
6/1/2022 12:45:00 PM 23.19 73.742 0.218 7.42 5.99 8.83
6/1/2022 1:00:00 PM 22.94 73.292 0.221 7.32 6.77 8.56
6/1/2022 1:15:00 PM 23.07 73.526 0.219 7.35 6.15 8.56
6/1/2022 1:30:00 PM 23.32 73.976 0.219 7.38 5.93 8.73
6/1/2022 1:45:00 PM 23.77 74.786 0.218 7.44 6.3 8.89
6/1/2022 2:00:00 PM 23.95 75.11 0.218 7.46 5.84 8.99
6/1/2022 2:15:00 PM 24.29 75.722 0.217 7.53 5.67 9.12
6/1/2022 2:30:00 PM 24.43 75.974 0.218 7.51 7.28 9.13
6/1/2022 2:45:00 PM 24.41 75.938 0.219 7.48 5.89 9.09
6/1/2022 3:00:00 PM 24.29 75.722 0.218 7.48 6.35 8.95
6/1/2022 3:15:00 PM 24.5 76.1 0.218 7.45 6.24 9.09
6/1/2022 3:30:00 PM 24.46 76.028 0.208 7.59 13.08 8.93
6/1/2022 3:45:00 PM 24.45 76.01 0.21 7.6 14.77 8.91
6/1/2022 4:00:00 PM 24.28 75.704 0.212 7.51 10.43 8.75
6/1/2022 4:15:00 PM 24.09 75.362 0.211 7.48 9.65 8.44
6/1/2022 4:30:00 PM 24.06 75.308 0.208 7.42 8.27 8.35
6/1/2022 4:45:00 PM 24.03 75.254 0.206 7.45 9.07 8.38
6/1/2022 5:00:00 PM 23.97 75.146 0.207 7.44 10.65 8.24
6/1/2022 5:15:00 PM 23.91 75.038 0.206 7.41 11.11 8.07
6/1/2022 5:30:00 PM 23.93 75.074 0.205 7.42 11.7 8.14
6/1/2022 5:45:00 PM 23.93 75.074 0.206 7.35 11.58 8.17
6/1/2022 6:00:00 PM 23.83 74.894 0.207 7.37 11.25 8.1
6/1/2022 6:15:00 PM 23.8 74.84 0.208 7.38 10.41 8.13
6/1/2022 6:30:00 PM 23.77 74.786 0.209 7.39 9.99 8.16
6/1/2022 6:45:00 PM 23.65 74.57 0.206 7.38 11.07 8.2
6/1/2022 7:00:00 PM 23.55 74.39 0.206 7.43 14.13 8.12
6/1/2022 7:15:00 PM 23.26 73.868 0.196 7.45 41.57 8.13
6/1/2022 7:30:00 PM 23.14 73.652 0.203 7.41 16.75 7.89
6/1/2022 7:45:00 PM 22.87 73.166 0.198 7.36 20.33 7.73
6/1/2022 8:00:00 PM 22.61 72.698 0.19 7.33 18.58 7.73
6/1/2022 8:15:00 PM 22.49 72.482 0.185 7.32 25.87 7.63
6/1/2022 8:30:00 PM 22.33 72.194 0.179 7.3 27.39 7.57
6/1/2022 8:45:00 PM 22.39 72.302 0.189 7.32 31.52 7.62
6/1/2022 9:00:00 PM 22.18 71.924 0.183 7.28 53.22 7.73
6/1/2022 9:15:00 PM 21.97 71.546 0.172 7.29 185.42 7.77
6/1/2022 9:30:00 PM 20.79 69.422 0.127 7.13 722.41 8.09
6/1/2022 9:45:00 PM 20.31 68.558 0.127 7.09 634.73 8.18
6/1/2022 10:00:00 PM 20.51 68.918 0.143 7.08 702.09 8.03
6/1/2022 10:15:00 PM 20.49 68.882 0.132 7 959.1 8.01
6/1/2022 10:30:00 PM 20.25 68.45 0.128 7.02 720.81 8.05
6/1/2022 10:45:00 PM 20.01 68.018 0.124 7.02 490.13 8.09
6/1/2022 11:00:00 PM 19.75 67.55 0.117 6.98 378.42 8.17
6/1/2022 11:15:00 PM 19.58 67.244 0.116 7.02 313.1 8.21
6/1/2022 11:30:00 PM 19.52 67.136 0.122 7.01 255.8 8.22
6/1/2022 11:45:00 PM 19.51 67.118 0.127 7.04 206.49 8.19
6/2/2022 12:00:00 AM 19.49 67.082 0.13 7.05 176.85 8.15
6/2/2022 12:15:00 AM 19.48 67.064 0.128 7.05 157.85 8.12
6/2/2022 12:30:00 AM 19.44 66.992 0.124 7.04 156.85 8.11
6/2/2022 12:45:00 AM 19.37 66.866 0.12 7.01 159.99 8.11
6/2/2022 1:00:00 AM 19.28 66.704 0.115 7.01 159.06 8.12
6/2/2022 1:15:00 AM 19.2 66.56 0.112 6.99 151.45 8.12
6/2/2022 1:30:00 AM 19.12 66.416 0.11 6.98 144.2 8.13
6/2/2022 1:45:00 AM 19.06 66.308 0.109 6.97 131.18 8.14
6/2/2022 2:00:00 AM 19.01 66.218 0.109 6.91 121.82 8.14
6/2/2022 2:15:00 AM 18.97 66.146 0.109 6.9 112.89 8.14
6/2/2022 2:30:00 AM 18.92 66.056 0.11 6.97 105.82 8.14
6/2/2022 2:45:00 AM 18.88 65.984 0.111 6.94 98.75 8.14
6/2/2022 3:00:00 AM 18.83 65.894 0.112 6.96 95.19 8.14
6/2/2022 3:15:00 AM 18.78 65.804 0.113 6.96 94.47 8.15
6/2/2022 3:30:00 AM 18.74 65.732 0.113 6.96 94.07 8.15
6/2/2022 3:45:00 AM 18.7 65.66 0.113 6.97 94.66 8.15
6/2/2022 4:00:00 AM 18.65 65.57 0.113 6.97 95.02 8.16
6/2/2022 4:15:00 AM 18.61 65.498 0.113 6.96 98.72 8.16
6/2/2022 4:30:00 AM 18.57 65.426 0.114 6.97 101.07 8.17
6/2/2022 4:45:00 AM 18.53 65.354 0.114 6.97 98.76 8.17
6/2/2022 5:00:00 AM 18.49 65.282 0.114 6.94 97.9 8.17
6/2/2022 5:15:00 AM 18.46 65.228 0.115 6.97 97.16 8.18
6/2/2022 5:30:00 AM 18.42 65.156 0.115 6.98 93.98 8.18
6/2/2022 5:45:00 AM 18.39 65.102 0.116 6.98 89.16 8.18
6/2/2022 6:00:00 AM 18.36 65.048 0.116 6.98 84.84 8.19
6/2/2022 6:15:00 AM 18.32 64.976 0.117 6.98 83.11 8.2
6/2/2022 6:30:00 AM 18.29 64.922 0.118 6.99 78.12 8.21
6/2/2022 6:45:00 AM 18.27 64.886 0.118 6.98 71.69 8.21
6/2/2022 7:00:00 AM 18.24 64.832 0.119 6.99 68.49 8.23
6/2/2022 7:15:00 AM 18.22 64.796 0.12 7 63.6 8.24
6/2/2022 7:30:00 AM 18.2 64.76 0.121 7.01 58.27 8.26
6/2/2022 7:45:00 AM 18.19 64.742 0.122 7.01 55.9 8.28
6/2/2022 8:00:00 AM 18.18 64.724 0.123 7.02 53.07 8.3
6/2/2022 8:15:00 AM 18.17 64.706 0.124 7.03 50.7 8.32
6/2/2022 8:30:00 AM 18.18 64.724 0.125 7.04 48.26 8.35
6/2/2022 8:45:00 AM 18.2 64.76 0.126 7.03 49.93 8.37
6/2/2022 9:00:00 AM 18.23 64.814 0.127 7.05 48.3 8.39
6/2/2022 9:15:00 AM 18.28 64.904 0.128 7.06 51.03 8.42
6/2/2022 9:30:00 AM 18.33 64.994 0.128 7.02 52.94 8.44
6/2/2022 9:45:00 AM 18.39 65.102 0.129 7.09 54.89 8.45
6/2/2022 10:00:00 AM 18.45 65.21 0.13 7.08 58.13 8.47
6/2/2022 10:15:00 AM 18.51 65.318 0.13 7.1 59.79 8.48
6/2/2022 10:30:00 AM 18.58 65.444 0.131 7.11 64.63 8.5
6/2/2022 10:45:00 AM 18.63 65.534 0.131 7.07 66.42 8.5
6/2/2022 11:00:00 AM 18.69 65.642 0.132 7.13 67.58 8.49
6/2/2022 11:15:00 AM 18.78 65.804 0.132 7.12 70.5 8.52
6/2/2022 11:30:00 AM 18.85 65.93 0.133 7.1 70.77 8.51
6/2/2022 11:45:00 AM 19.01 66.218 0.133 7.14 71.22 8.54
6/2/2022 12:00:00 PM 19.13 66.434 0.134 7.13 70.15 8.57
6/2/2022 12:15:00 PM 19.17 66.506 0.134 7.15 68.33 8.56
6/2/2022 12:30:00 PM 19.25 66.65 0.135 7.12 64.62 8.55
6/2/2022 12:45:00 PM 19.37 66.866 0.135 7.17 60.92 8.58
6/2/2022 1:00:00 PM 19.49 67.082 0.136 7.18 58.87 8.61
6/2/2022 1:15:00 PM 19.65 67.37 0.136 7.19 58.58 8.63
6/2/2022 1:30:00 PM 19.85 67.73 0.136 7.19 54.32 8.67
6/2/2022 1:45:00 PM 19.93 67.874 0.137 7.21 49.65 8.66
6/2/2022 2:00:00 PM 20.08 68.144 0.137 7.21 45.69 8.68
6/2/2022 2:15:00 PM 20.25 68.45 0.137 7.23 46.28 8.72
6/2/2022 2:30:00 PM 20.38 68.684 0.138 7.21 42.36 8.73
6/2/2022 2:45:00 PM 20.5 68.9 0.138 7.24 41.31 8.74
6/2/2022 3:00:00 PM 20.56 69.008 0.138 7.22 40.44 8.71
6/2/2022 3:15:00 PM 20.6 69.08 0.139 7.25 35.86 8.68
6/2/2022 3:30:00 PM 20.65 69.17 0.139 7.25 33.22 8.68
6/2/2022 3:45:00 PM 20.75 69.35 0.139 7.25 32.59 8.7
6/2/2022 4:00:00 PM 20.89 69.602 0.14 7.28 30.1 8.72
6/2/2022 4:15:00 PM 21.01 69.818 0.14 7.27 28.81 8.71
6/2/2022 4:30:00 PM 21.11 69.998 0.14 7.27 27.14 8.69
6/2/2022 4:45:00 PM 21.22 70.196 0.14 7.28 26.23 8.68
6/2/2022 5:00:00 PM 21.3 70.34 0.141 7.29 25.56 8.67
6/2/2022 5:15:00 PM 21.33 70.394 0.141 7.29 29.94 8.63
6/2/2022 5:30:00 PM 21.33 70.394 0.141 7.29 24.28 8.59
6/2/2022 5:45:00 PM 21.33 70.394 0.142 7.24 22.95 8.55
6/2/2022 6:00:00 PM 21.35 70.43 0.142 7.27 21.98 8.53
6/2/2022 6:15:00 PM 21.33 70.394 0.142 7.29 21.76 8.48
6/2/2022 6:30:00 PM 21.31 70.358 0.142 7.28 21.59 8.42
6/2/2022 6:45:00 PM 21.3 70.34 0.142 7.28 20.88 8.4
6/2/2022 7:00:00 PM 21.27 70.286 0.143 7.27 20.7 8.37
6/2/2022 7:15:00 PM 21.24 70.232 0.143 7.27 19.68 8.33
6/2/2022 7:30:00 PM 21.21 70.17799 0.143 7.26 19.15 8.3
6/2/2022 7:45:00 PM 21.17 70.106 0.143 7.25 19.08 8.26
6/2/2022 8:00:00 PM 21.13 70.034 0.144 7.24 18.87 8.2
6/2/2022 8:15:00 PM 21.08 69.944 0.144 7.25 18.78 8.15
6/2/2022 8:30:00 PM 21.02 69.836 0.144 7.24 18.71 8.1
6/2/2022 8:45:00 PM 20.95 69.71 0.145 7.23 18.48 8.04
6/2/2022 9:00:00 PM 20.88 69.584 0.145 7.21 18.31 8
6/2/2022 9:15:00 PM 20.81 69.458 0.145 7.21 17.98 7.96
6/2/2022 9:30:00 PM 20.74 69.332 0.145 7.2 19.22 7.92
6/2/2022 9:45:00 PM 20.67 69.206 0.145 7.19 19.11 7.89
6/2/2022 10:00:00 PM 20.61 69.098 0.146 7.18 19.5 7.86
6/2/2022 10:15:00 PM 20.54 68.972 0.146 7.18 18.84 7.84
6/2/2022 10:30:00 PM 20.48 68.864 0.146 7.18 18.58 7.83
6/2/2022 10:45:00 PM 20.41 68.738 0.146 7.17 18.84 7.8
6/2/2022 11:00:00 PM 20.35 68.63 0.146 7.14 17.81 7.81
6/2/2022 11:15:00 PM 20.28 68.504 0.146 7.17 17.33 7.79
6/2/2022 11:30:00 PM 20.21 68.378 0.146 7.16 18.07 7.8
6/2/2022 11:45:00 PM 20.14 68.252 0.147 7.16 17.17 7.79
6/3/2022 12:00:00 AM 20.06 68.108 0.147 7.16 17.95 7.78
6/3/2022 12:15:00 AM 19.99 67.982 0.147 7.15 17.19 7.79
6/3/2022 12:30:00 AM 19.91 67.838 0.147 7.13 17.12 7.79
6/3/2022 12:45:00 AM 19.84 67.712 0.147 7.15 17.43 7.8
6/3/2022 1:00:00 AM 19.76 67.568 0.147 7.15 17.27 7.8
6/3/2022 1:15:00 AM 19.69 67.442 0.148 7.14 17.26 7.8
6/3/2022 1:30:00 AM 19.61 67.298 0.147 7.13 18.14 7.82
6/3/2022 1:45:00 AM 19.53 67.154 0.148 7.14 18.14 7.81
6/3/2022 2:00:00 AM 19.44 66.992 0.148 7.15 17.17 7.82
6/3/2022 2:15:00 AM 19.35 66.83 0.148 7.14 17.31 7.84
6/3/2022 2:30:00 AM 19.28 66.704 0.148 7.14 16.73 7.84
6/3/2022 2:45:00 AM 19.19 66.542 0.148 7.14 17 7.86
6/3/2022 3:00:00 AM 19.11 66.398 0.148 7.14 16.95 7.87
6/3/2022 3:15:00 AM 19.03 66.254 0.149 7.13 16.82 7.88
6/3/2022 3:30:00 AM 18.96 66.128 0.149 7.13 16.14 7.89
6/3/2022 3:45:00 AM 18.89 66.002 0.149 7.13 17.73 7.9
6/3/2022 4:00:00 AM 18.81 65.858 0.149 7.13 16.63 7.92
6/3/2022 4:15:00 AM 18.74 65.732 0.149 7.12 16.76 7.93
6/3/2022 4:30:00 AM 18.68 65.624 0.149 7.13 16.28 7.93
6/3/2022 4:45:00 AM 18.61 65.498 0.149 7.12 16.4 7.95
6/3/2022 5:00:00 AM 18.54 65.372 0.149 7.11 15.54 7.95
6/3/2022 5:15:00 AM 18.47 65.246 0.149 7.13 16.21 7.97
6/3/2022 5:30:00 AM 18.4 65.12 0.149 7.12 15.83 7.99
6/3/2022 5:45:00 AM 18.32 64.976 0.15 7.1 15.9 7.99
6/3/2022 6:00:00 AM 18.25 64.85 0.15 7.13 15.77 8.01
6/3/2022 6:15:00 AM 18.17 64.706 0.15 7.1 15.6 8.05
6/3/2022 6:30:00 AM 18.09 64.562 0.15 7.13 15.21 8.08
6/3/2022 6:45:00 AM 18.03 64.454 0.15 7.13 14.69 8.11
6/3/2022 7:00:00 AM 17.96 64.328 0.15 7.09 14.47 8.14
6/3/2022 7:15:00 AM 17.9 64.22 0.15 7.12 17.21 8.18
6/3/2022 7:30:00 AM 17.85 64.13 0.15 7.14 15.3 8.22
6/3/2022 7:45:00 AM 17.81 64.058 0.151 7.15 14.81 8.27
6/3/2022 8:00:00 AM 17.78 64.004 0.151 7.16 14.26 8.33
6/3/2022 8:15:00 AM 17.74 63.932 0.151 7.16 13.13 8.37
6/3/2022 8:30:00 AM 17.72 63.896 0.151 7.15 14.29 8.43
6/3/2022 8:45:00 AM 17.72 63.896 0.151 7.18 13.53 8.49
6/3/2022 9:00:00 AM 17.76 63.968 0.151 7.2 13.56 8.59
6/3/2022 9:15:00 AM 17.78 64.004 0.151 7.2 14.39 8.63
6/3/2022 9:30:00 AM 17.83 64.094 0.152 7.21 239.9 8.69
6/3/2022 9:45:00 AM 17.91 64.238 0.152 7.21 14.16 8.77
6/3/2022 10:00:00 AM 18.03 64.454 0.152 7.23 12.25 8.83
6/3/2022 10:15:00 AM 18.16 64.688 0.152 7.24 12.93 8.9
6/3/2022 10:30:00 AM 18.3 64.94 0.152 7.18 13.05 8.95
6/3/2022 10:45:00 AM 18.46 65.228 0.152 7.26 12.04 9.02
6/3/2022 11:00:00 AM 18.63 65.534 0.152 7.28 11.33 9.09
6/3/2022 11:15:00 AM 18.82 65.876 0.153 7.26 10.83 9.13
6/3/2022 11:30:00 AM 19.04 66.272 0.152 7.31 10.38 9.2
6/3/2022 11:45:00 AM 19.24 66.632 0.153 7.28 12.93 9.24
6/3/2022 12:00:00 PM 19.41 66.938 0.153 7.33 12.05 9.28
6/3/2022 12:15:00 PM 19.59 67.262 0.153 7.33 11.59 9.32
6/3/2022 12:30:00 PM 19.82 67.676 0.153 7.3 12.09 9.36
6/3/2022 12:45:00 PM 20.06 68.108 0.153 7.37 9.47 9.4
6/3/2022 1:00:00 PM 20.24 68.432 0.154 7.38 9.93 9.41
6/3/2022 1:15:00 PM 20.44 68.792 0.154 7.39 16.86 9.43
6/3/2022 1:30:00 PM 20.55 68.99 0.154 7.41 11.97 9.44
6/3/2022 1:45:00 PM 20.73 69.314 0.154 7.33 11.68 9.43
6/3/2022 2:00:00 PM 20.98 69.764 0.154 7.43 9.5 9.48
6/3/2022 2:15:00 PM 21.2 70.16 0.154 7.41 9.47 9.49
6/3/2022 2:30:00 PM 21.4 70.52 0.155 7.43 10.59 9.49
6/3/2022 2:45:00 PM 21.56 70.808 0.154 7.45 10.94 9.49
6/3/2022 3:00:00 PM 21.66 70.988 0.155 7.42 9.98 9.46
6/3/2022 3:15:00 PM 21.79 71.222 0.155 7.46 16.77 9.44
6/3/2022 3:30:00 PM 21.89 71.402 0.154 7.46 8.71 9.42
6/3/2022 3:45:00 PM 21.99 71.582 0.155 7.45 11.33 9.4
6/3/2022 4:00:00 PM 22.06 71.708 0.155 7.42 8.39 9.33
6/3/2022 4:15:00 PM 22.16 71.888 0.155 7.44 8.66 9.31
6/3/2022 4:30:00 PM 22.22 71.996 0.155 7.48 9.26 9.26
6/3/2022 4:45:00 PM 22.18 71.924 0.155 7.47 9.25 9.17
6/3/2022 5:00:00 PM 22.17 71.906 0.155 7.46 12.32 9.09
6/3/2022 5:15:00 PM 22.11 71.798 0.155 7.44 8.63 8.98
6/3/2022 5:30:00 PM 22.08 71.744 0.155 7.41 9.94 8.9
6/3/2022 5:45:00 PM 22.06 71.708 0.155 7.39 9.23 8.82
6/3/2022 6:00:00 PM 22.03 71.654 0.156 7.4 11 8.74
6/3/2022 6:15:00 PM 22.01 71.618 0.156 7.41 9.45 8.69
6/3/2022 6:30:00 PM 22 71.6 0.156 7.36 9.57 8.63
6/3/2022 6:45:00 PM 21.97 71.546 0.157 7.38 10.62 8.54
6/3/2022 7:00:00 PM 21.96 71.528 0.157 7.35 8.98 8.48
6/3/2022 7:15:00 PM 21.94 71.492 0.157 7.36 23.72 8.39
6/3/2022 7:30:00 PM 21.92 71.456 0.158 7.35 11.45 8.34
6/3/2022 7:45:00 PM 21.9 71.42 0.157 7.34 10.61 8.26
6/3/2022 8:00:00 PM 21.84 71.312 0.158 7.3 10.06 8.18
6/3/2022 8:15:00 PM 21.79 71.222 0.158 7.26 9.54 8.12
6/3/2022 8:30:00 PM 21.73 71.114 0.158 7.3 11.32 8.05
6/3/2022 8:45:00 PM 21.64 70.952 0.158 7.29 11.54 7.96
6/3/2022 9:00:00 PM 21.56 70.808 0.158 7.28 10.13 7.9
6/3/2022 9:15:00 PM 21.46 70.628 0.158 7.27 10.46 7.84
6/3/2022 9:30:00 PM 21.36 70.448 0.158 7.26 11.39 7.77
6/3/2022 9:45:00 PM 21.25 70.25 0.159 7.24 11 7.71
6/3/2022 10:00:00 PM 21.14 70.052 0.159 7.23 11.74 7.67
6/3/2022 10:15:00 PM 21.04 69.872 0.159 7.23 11.9 7.64
6/3/2022 10:30:00 PM 20.94 69.692 0.16 7.22 11.61 7.6
6/3/2022 10:45:00 PM 20.84 69.512 0.16 7.18 11.69 7.57
6/3/2022 11:00:00 PM 20.73 69.314 0.16 7.21 11.17 7.57
6/3/2022 11:15:00 PM 20.61 69.098 0.16 7.2 11.35 7.54
6/3/2022 11:30:00 PM 20.5 68.9 0.16 7.15 12.02 7.53
6/3/2022 11:45:00 PM 20.38 68.684 0.161 7.19 11.44 7.54
6/4/2022 12:00:00 AM 20.27 68.486 0.161 7.18 11.78 7.53
6/4/2022 12:15:00 AM 20.14 68.252 0.161 7.18 12.07 7.54
6/4/2022 12:30:00 AM 20.03 68.054 0.161 7.17 12.21 7.53
6/4/2022 12:45:00 AM 19.89 67.802 0.161 7.17 11.82 7.56
6/4/2022 1:00:00 AM 19.77 67.586 0.161 7.17 12.5 7.55
6/4/2022 1:15:00 AM 19.64 67.352 0.161 7.17 12.69 7.58
6/4/2022 1:30:00 AM 19.51 67.118 0.161 7.16 12.76 7.59
6/4/2022 1:45:00 AM 19.38 66.884 0.161 7.16 13.83 7.59
6/4/2022 2:00:00 AM 19.24 66.632 0.162 7.14 12.62 7.6
6/4/2022 2:15:00 AM 19.1 66.38 0.162 7.16 12.24 7.64
6/4/2022 2:30:00 AM 18.98 66.164 0.162 7.15 12.56 7.65
6/4/2022 2:45:00 AM 18.84 65.912 0.163 7.08 12.25 7.66
6/4/2022 3:00:00 AM 18.72 65.696 0.162 7.15 13.07 7.69
6/4/2022 3:15:00 AM 18.59 65.462 0.163 7.15 12.42 7.71
6/4/2022 3:30:00 AM 18.47 65.246 0.163 7.15 12.08 7.74
6/4/2022 3:45:00 AM 18.33 64.994 0.163 7.14 12.18 7.75
6/4/2022 4:00:00 AM 18.22 64.796 0.163 7.14 11.9 7.78
6/4/2022 4:15:00 AM 18.09 64.562 0.163 7.14 12.61 7.8
6/4/2022 4:30:00 AM 17.98 64.364 0.163 7.14 12.3 7.83
6/4/2022 4:45:00 AM 17.85 64.13 0.163 7.1 12.29 7.87
6/4/2022 5:00:00 AM 17.72 63.896 0.164 7.14 12.16 7.86
6/4/2022 5:15:00 AM 17.6 63.68 0.163 7.15 12.84 7.93
6/4/2022 5:30:00 AM 17.47 63.446 0.164 7.15 12.56 7.94
6/4/2022 5:45:00 AM 17.35 63.23 0.164 7.14 11.6 7.97
6/4/2022 6:00:00 AM 17.21 62.978 0.165 7.14 12.24 7.99
6/4/2022 6:15:00 AM 17.1 62.78 0.164 7.11 12.37 8.05
6/4/2022 6:30:00 AM 16.99 62.582 0.164 7.13 11.63 8.1
6/4/2022 6:45:00 AM 16.88 62.384 0.164 7.15 12.42 8.18
6/4/2022 7:00:00 AM 16.81 62.258 0.164 7.16 11.49 8.28
6/4/2022 7:15:00 AM 16.73 62.114 0.164 7.17 11.01 8.38
6/4/2022 7:30:00 AM 16.68 62.024 0.165 7.18 11.3 8.48
6/4/2022 7:45:00 AM 16.61 61.898 0.165 7.19 10.67 8.55
6/4/2022 8:00:00 AM 16.55 61.79 0.165 7.19 10.69 8.61
6/4/2022 8:15:00 AM 16.52 61.736 0.165 7.2 10.55 8.66
6/4/2022 8:30:00 AM 16.5 61.7 0.165 7.12 11.24 8.75
6/4/2022 8:45:00 AM 16.51 61.718 0.165 7.22 10.02 8.82
6/4/2022 9:00:00 AM 16.56 61.808 0.165 7.2 9.33 8.95
6/4/2022 9:15:00 AM 16.61 61.898 0.165 7.22 9.28 9.02
6/4/2022 9:30:00 AM 16.7 62.06 0.165 7.25 9.59 9.1
6/4/2022 9:45:00 AM 16.8 62.24 0.165 7.26 9.02 9.17
6/4/2022 10:00:00 AM 16.95 62.51 0.165 7.28 9.13 9.28
6/4/2022 10:15:00 AM 17.11 62.798 0.165 7.29 8.94 9.36
6/4/2022 10:30:00 AM 17.25 63.05 0.165 7.3 8.99 9.42
6/4/2022 10:45:00 AM 17.44 63.392 0.165 7.31 8 9.5
6/4/2022 11:00:00 AM 17.65 63.77 0.166 7.32 8.45 9.54
6/4/2022 11:15:00 AM 17.89 64.202 0.166 7.35 8.44 9.64
6/4/2022 11:30:00 AM 18.11 64.598 0.167 7.32 8.35 9.66
6/4/2022 11:45:00 AM 18.34 65.012 0.166 7.34 7.88 9.74
6/4/2022 12:00:00 PM 18.6 65.48 0.166 7.39 7.99 9.81
6/4/2022 12:15:00 PM 18.81 65.858 0.167 7.4 8.01 9.83
6/4/2022 12:30:00 PM 19.04 66.272 0.167 7.41 7.86 9.86
6/4/2022 12:45:00 PM 19.27 66.686 0.167 7.44 7.92 9.92
6/4/2022 1:00:00 PM 19.48 67.064 0.166 7.45 7.34 9.94
6/4/2022 1:15:00 PM 19.71 67.478 0.167 7.46 7.6 9.96
6/4/2022 1:30:00 PM 19.95 67.91 0.167 7.41 7.53 10
6/4/2022 1:45:00 PM 20.14 68.252 0.168 7.48 7.51 10
6/4/2022 2:00:00 PM 20.37 68.666 0.167 7.43 7.4 10.01
6/4/2022 2:15:00 PM 20.57 69.026 0.167 7.52 7.31 10.03
6/4/2022 2:30:00 PM 20.74 69.332 0.168 7.47 7.35 10.02
6/4/2022 2:45:00 PM 20.88 69.584 0.168 7.49 7.14 10.01
6/4/2022 3:00:00 PM 21.01 69.818 0.168 7.5 6.89 10
6/4/2022 3:15:00 PM 21.14 70.052 0.168 7.55 7.15 9.98
6/4/2022 3:30:00 PM 21.24 70.232 0.168 7.53 7.3 9.96
6/4/2022 3:45:00 PM 21.33 70.394 0.168 7.52 7.59 9.88
6/4/2022 4:00:00 PM 21.37 70.466 0.168 7.52 8.53 9.84
6/4/2022 4:15:00 PM 21.41 70.538 0.168 7.55 7.45 9.78
6/4/2022 4:30:00 PM 21.44 70.592 0.168 7.54 7.56 9.76
6/4/2022 4:45:00 PM 21.43 70.574 0.169 7.54 6.94 9.68
6/4/2022 5:00:00 PM 21.41 70.538 0.169 7.51 7.4 9.61
6/4/2022 5:15:00 PM 21.36 70.448 0.169 7.51 7.59 9.54
6/4/2022 5:30:00 PM 21.31 70.358 0.169 7.52 7.67 9.45
6/4/2022 5:45:00 PM 21.22 70.196 0.169 7.51 6.98 9.36
6/4/2022 6:00:00 PM 21.14 70.052 0.169 7.5 8.02 9.25
6/4/2022 6:15:00 PM 21.03 69.854 0.169 7.47 7.93 9.14
6/4/2022 6:30:00 PM 20.93 69.674 0.17 7.44 8.01 8.99
6/4/2022 6:45:00 PM 20.88 69.584 0.169 7.44 7.66 8.95
6/4/2022 7:00:00 PM 20.8 69.44 0.17 7.42 7.68 8.84
6/4/2022 7:15:00 PM 20.75 69.35 0.17 7.4 7.98 8.74
6/4/2022 7:30:00 PM 20.68 69.224 0.171 7.39 8.59 8.71
6/4/2022 7:45:00 PM 20.62 69.116 0.171 7.39 7.94 8.64
6/4/2022 8:00:00 PM 20.54 68.972 0.171 7.37 8.71 8.57
6/4/2022 8:15:00 PM 20.46 68.828 0.172 7.35 8.43 8.45
6/4/2022 8:30:00 PM 20.39 68.702 0.171 7.27 8.25 8.41
6/4/2022 8:45:00 PM 20.31 68.558 0.171 7.34 8.86 8.33
6/4/2022 9:00:00 PM 20.21 68.378 0.172 7.31 9.19 8.21
6/4/2022 9:15:00 PM 20.12 68.216 0.171 7.31 9.34 8.16
6/4/2022 9:30:00 PM 20.02 68.036 0.172 7.26 9.44 8.08
6/4/2022 9:45:00 PM 19.91 67.838 0.172 7.26 9.91 8
6/4/2022 10:00:00 PM 19.81 67.658 0.172 7.27 9.62 7.95
6/4/2022 10:15:00 PM 19.7 67.46 0.172 7.25 9.91 7.86
6/4/2022 10:30:00 PM 19.6 67.28 0.172 7.15 10.13 7.84
6/4/2022 10:45:00 PM 19.5 67.1 0.172 7.24 9.66 7.81
6/4/2022 11:00:00 PM 19.41 66.938 0.173 7.21 9.52 7.77
6/4/2022 11:15:00 PM 19.31 66.758 0.173 7.22 10.16 7.75
6/4/2022 11:30:00 PM 19.21 66.578 0.173 7.21 11.34 7.73
6/4/2022 11:45:00 PM 19.1 66.38 0.173 7.2 10.9 7.68
6/5/2022 12:00:00 AM 19.01 66.218 0.173 7.2 10.69 7.68
6/5/2022 12:15:00 AM 18.91 66.038 0.173 7.19 11.1 7.68
6/5/2022 12:30:00 AM 18.8 65.84 0.173 7.2 10.92 7.69
6/5/2022 12:45:00 AM 18.7 65.66 0.173 7.13 11.4 7.68
6/5/2022 1:00:00 AM 18.59 65.462 0.173 7.19 11.1 7.66
6/5/2022 1:15:00 AM 18.49 65.282 0.174 7.16 11.81 7.69
6/5/2022 1:30:00 AM 18.35 65.03 0.175 7.15 10.34 7.64
6/5/2022 1:45:00 AM 18.26 64.868 0.174 7.16 12.47 7.7
6/5/2022 2:00:00 AM 18.13 64.634 0.174 7.15 11.33 7.73
6/5/2022 2:15:00 AM 18.02 64.436 0.174 7.18 10.69 7.74
6/5/2022 2:30:00 AM 17.89 64.202 0.174 7.17 10.6 7.73
6/5/2022 2:45:00 AM 17.77 63.986 0.174 7.18 11 7.77
6/5/2022 3:00:00 AM 17.64 63.752 0.175 7.17 10.77 7.77
6/5/2022 3:15:00 AM 17.5 63.5 0.175 7.16 10.64 7.8
6/5/2022 3:30:00 AM 17.36 63.248 0.175 7.16 11.63 7.8
6/5/2022 3:45:00 AM 17.22 62.996 0.175 7.13 10.58 7.84
6/5/2022 4:00:00 AM 17.09 62.762 0.175 7.09 11.69 7.88
6/5/2022 4:15:00 AM 16.94 62.492 0.176 7.16 11.21 7.91
6/5/2022 4:30:00 AM 16.79 62.222 0.177 7.11 12.31 7.82
6/5/2022 4:45:00 AM 16.68 62.024 0.176 7.16 10.47 7.95
6/5/2022 5:00:00 AM 16.53 61.754 0.176 7.16 11.82 7.97
6/5/2022 5:15:00 AM 16.37 61.466 0.177 7.15 12.93 7.96
6/5/2022 5:30:00 AM 16.24 61.232 0.177 7.11 11.44 8.02
6/5/2022 5:45:00 AM 16.08 60.944 0.177 7.11 11.68 8.03
6/5/2022 6:00:00 AM 15.98 60.764 0.177 7.16 10.83 8.11
6/5/2022 6:15:00 AM 15.82 60.476 0.177 7.16 10.62 8.19
6/5/2022 6:30:00 AM 15.72 60.296 0.177 7.16 9.79 8.22
6/5/2022 6:45:00 AM 15.59 60.062 0.177 7.13 10.52 8.34
6/5/2022 7:00:00 AM 15.49 59.882 0.177 7.18 10.1 8.41
6/5/2022 7:15:00 AM 15.39 59.702 0.177 7.19 10.49 8.52
6/5/2022 7:30:00 AM 15.33 59.594 0.178 7.16 10.25 8.57
6/5/2022 7:45:00 AM 15.25 59.45 0.178 7.2 9.58 8.71
6/5/2022 8:00:00 AM 15.21 59.378 0.179 7.17 10.58 8.76
6/5/2022 8:15:00 AM 15.18 59.324 0.178 7.2 9.75 8.92
6/5/2022 8:30:00 AM 15.16 59.288 0.179 7.22 8.28 9.01
6/5/2022 8:45:00 AM 15.19 59.342 0.179 7.24 12.6 9.17
6/5/2022 9:00:00 AM 15.22 59.396 0.179 7.25 9.14 9.34
6/5/2022 9:15:00 AM 15.25 59.45 0.179 7.27 8.88 9.43
6/5/2022 9:30:00 AM 15.31 59.558 0.179 7.28 8.92 9.56
6/5/2022 9:45:00 AM 15.38 59.684 0.179 7.29 8.79 9.68
6/5/2022 10:00:00 AM 15.52 59.936 0.179 7.33 8.44 9.81
6/5/2022 10:15:00 AM 15.69 60.242 0.178 7.36 8.52 9.91
6/5/2022 10:30:00 AM 15.87 60.566 0.179 7.34 8.21 9.98
6/5/2022 10:45:00 AM 16.07 60.926 0.179 7.38 9.55 10.08
6/5/2022 11:00:00 AM 16.28 61.304 0.179 7.38 8.66 10.11
6/5/2022 11:15:00 AM 16.54 61.772 0.179 7.41 8.14 10.2
6/5/2022 11:30:00 AM 16.76 62.168 0.178 7.39 7.34 10.25
6/5/2022 11:45:00 AM 16.98 62.564 0.179 7.45 7.65 10.3
6/5/2022 12:00:00 PM 17.2 62.96 0.179 7.46 7.4 10.34
6/5/2022 12:15:00 PM 17.43 63.374 0.179 7.49 7.26 10.38
6/5/2022 12:30:00 PM 17.68 63.824 0.179 7.53 6.91 10.42
6/5/2022 12:45:00 PM 17.97 64.346 0.179 7.53 7.19 10.45
6/5/2022 1:00:00 PM 18.2 64.76 0.18 7.53 6.8 10.44
6/5/2022 1:15:00 PM 18.49 65.282 0.18 7.55 6.41 10.5
6/5/2022 1:30:00 PM 18.73 65.714 0.18 7.58 6.32 10.53
6/5/2022 1:45:00 PM 18.99 66.182 0.181 7.58 6.92 10.51
6/5/2022 2:00:00 PM 19.23 66.614 0.181 7.52 6.76 10.55
6/5/2022 2:15:00 PM 19.34 66.812 0.181 7.6 7.1 10.52
6/5/2022 2:30:00 PM 19.43 66.974 0.182 7.62 6.79 10.49
6/5/2022 2:45:00 PM 19.55 67.19 0.184 7.6 6.59 10.43
6/5/2022 3:00:00 PM 19.56 67.208 0.184 7.59 6.33 10.33
6/5/2022 3:15:00 PM 19.55 67.19 0.183 7.6 6.98 10.33
6/5/2022 3:30:00 PM 19.8 67.64 0.184 7.62 6.42 10.37
6/5/2022 3:45:00 PM 19.86 67.748 0.184 7.65 6.66 10.34
6/5/2022 4:00:00 PM 20.02 68.036 0.185 7.61 6.24 10.32
6/5/2022 4:15:00 PM 20.14 68.252 0.185 7.64 6.92 10.31
6/5/2022 4:30:00 PM 20.2 68.36 0.186 7.64 6.27 10.27
6/5/2022 4:45:00 PM 20.19 68.342 0.186 7.63 6.05 10.2
6/5/2022 5:00:00 PM 20.14 68.252 0.187 7.62 6.31 10.08
6/5/2022 5:15:00 PM 20.15 68.27 0.187 7.63 7.08 10.05
6/5/2022 5:30:00 PM 20.1 68.18 0.187 7.59 6.65 9.98
6/5/2022 5:45:00 PM 20.09 68.162 0.188 7.56 6.45 9.84
6/5/2022 6:00:00 PM 20.08 68.144 0.188 7.57 6.49 9.87
6/5/2022 6:15:00 PM 20.06 68.108 0.188 7.6 6 9.87
6/5/2022 6:30:00 PM 20.01 68.018 0.188 7.58 6.72 9.78
6/5/2022 6:45:00 PM 19.97 67.946 0.188 7.55 6.99 9.65
6/5/2022 7:00:00 PM 19.94 67.892 0.188 7.48 6.64 9.56
6/5/2022 7:15:00 PM 19.91 67.838 0.188 7.52 7.74 9.47
6/5/2022 7:30:00 PM 19.88 67.784 0.188 7.53 7.1 9.39
6/5/2022 7:45:00 PM 19.81 67.658 0.189 7.48 6.85 9.25
6/5/2022 8:00:00 PM 19.77 67.586 0.189 7.47 6.66 9.13
6/5/2022 8:15:00 PM 19.69 67.442 0.19 7.43 6.85 8.98
6/5/2022 8:30:00 PM 19.66 67.388 0.19 7.39 6.63 8.91
6/5/2022 8:45:00 PM 19.56 67.208 0.19 7.39 7.86 8.75
6/5/2022 9:00:00 PM 19.5 67.1 0.191 7.39 7.23 8.68
6/5/2022 9:15:00 PM 19.42 66.956 0.191 7.38 7.4 8.56
6/5/2022 9:30:00 PM 19.34 66.812 0.19 7.35 8.01 8.46
6/5/2022 9:45:00 PM 19.27 66.686 0.19 7.34 8.41 8.39
6/5/2022 10:00:00 PM 19.17 66.506 0.19 7.32 8.47 8.29
6/5/2022 10:15:00 PM 19.11 66.398 0.19 7.24 7.56 8.25
6/5/2022 10:30:00 PM 19.04 66.272 0.19 7.31 9.05 8.18
6/5/2022 10:45:00 PM 18.98 66.164 0.19 7.3 8.35 8.13
6/5/2022 11:00:00 PM 18.92 66.056 0.19 7.28 7.95 8.07
6/5/2022 11:15:00 PM 18.85 65.93 0.191 7.24 9.32 7.97
6/5/2022 11:30:00 PM 18.79 65.82201 0.191 7.23 8.89 7.93
6/5/2022 11:45:00 PM 18.75 65.75 0.192 7.22 8.77 7.87
6/6/2022 12:00:00 AM 18.71 65.67799 0.191 7.24 9.19 7.85
6/6/2022 12:15:00 AM 18.66 65.588 0.191 7.23 9.53 7.81
6/6/2022 12:30:00 AM 18.64 65.552 0.191 7.22 9.8 7.77
6/6/2022 12:45:00 AM 18.6 65.48 0.191 7.22 9.12 7.73
6/6/2022 1:00:00 AM 18.56 65.408 0.192 7.19 9.19 7.7
6/6/2022 1:15:00 AM 18.55 65.39 0.191 7.22 9.11 7.7
6/6/2022 1:30:00 AM 18.52 65.336 0.191 7.21 9.48 7.7
6/6/2022 1:45:00 AM 18.48 65.264 0.191 7.12 9.22 7.65
6/6/2022 2:00:00 AM 18.45 65.21 0.192 7.16 10.02 7.62
6/6/2022 2:15:00 AM 18.39 65.102 0.192 7.18 9.85 7.55
6/6/2022 2:30:00 AM 18.37 65.066 0.192 7.18 9.49 7.57
6/6/2022 2:45:00 AM 18.36 65.048 0.191 7.18 9.38 7.61
6/6/2022 3:00:00 AM 18.32 64.976 0.191 7.18 10.05 7.61
6/6/2022 3:15:00 AM 18.29 64.922 0.191 7.12 9.89 7.6
6/6/2022 3:30:00 AM 18.23 64.814 0.191 7.1 9.11 7.54
6/6/2022 3:45:00 AM 18.16 64.688 0.192 7.16 10 7.56
6/6/2022 4:00:00 AM 18.09 64.562 0.193 7.14 10.37 7.51
6/6/2022 4:15:00 AM 18.07 64.526 0.192 7.16 11.43 7.54
6/6/2022 4:30:00 AM 18.01 64.418 0.192 7.15 9.58 7.55
6/6/2022 4:45:00 AM 17.95 64.31 0.193 7.15 10.43 7.55
6/6/2022 5:00:00 AM 17.91 64.238 0.192 7.15 12.34 7.57
6/6/2022 5:15:00 AM 17.87 64.166 0.193 7.09 10.91 7.58
6/6/2022 5:30:00 AM 17.81 64.058 0.192 7.16 11.22 7.61
6/6/2022 5:45:00 AM 17.74 63.932 0.193 7.16 10.31 7.6
6/6/2022 6:00:00 AM 17.63 63.734 0.194 7.14 18.08 7.55
6/6/2022 6:15:00 AM 17.62 63.716 0.192 7.16 11.96 7.69
6/6/2022 6:30:00 AM 17.54 63.572 0.193 7.16 11.22 7.69
6/6/2022 6:45:00 AM 17.49 63.482 0.193 7.17 10.38 7.76
6/6/2022 7:00:00 AM 17.43 63.374 0.193 7.16 10.17 7.81
6/6/2022 7:15:00 AM 17.37 63.266 0.193 7.09 10.16 7.88
6/6/2022 7:30:00 AM 17.32 63.176 0.194 7.18 9.69 7.98
6/6/2022 7:45:00 AM 17.29 63.122 0.193 7.19 10.33 8.14
6/6/2022 8:00:00 AM 17.27 63.086 0.194 7.2 10.22 8.23
6/6/2022 8:15:00 AM 17.25 63.05 0.194 7.19 10.51 8.33
6/6/2022 8:30:00 AM 17.26 63.068 0.193 7.2 10.44 8.52
6/6/2022 8:45:00 AM 17.25 63.05 0.193 7.23 8.85 8.69
6/6/2022 9:00:00 AM 17.26 63.068 0.193 7.25 9.23 8.79
6/6/2022 9:15:00 AM 17.29 63.122 0.194 7.26 8.5 8.97
6/6/2022 9:30:00 AM 17.33 63.194 0.194 7.23 9.45 9.08
6/6/2022 9:45:00 AM 17.45 63.41 0.193 7.3 9.29 9.23
6/6/2022 10:00:00 AM 17.6 63.68 0.193 7.33 9.09 9.39
6/6/2022 10:15:00 AM 17.78 64.004 0.193 7.36 8.95 9.48
6/6/2022 10:30:00 AM 17.99 64.382 0.193 7.39 8.48 9.56
6/6/2022 10:45:00 AM 18.22 64.796 0.193 7.4 8.15 9.68
6/6/2022 11:00:00 AM 18.42 65.156 0.194 7.4 8.06 9.73
6/6/2022 11:15:00 AM 18.64 65.552 0.194 7.41 6.8 9.74
6/6/2022 11:30:00 AM 18.9 66.02 0.194 7.43 8.08 9.92
6/6/2022 11:45:00 AM 19.17 66.506 0.194 7.48 7.35 9.99
6/6/2022 12:00:00 PM 19.4 66.92 0.194 7.48 8.03 10.08
6/6/2022 12:15:00 PM 19.63 67.334 0.194 7.51 6.72 10.15
6/6/2022 12:30:00 PM 19.85 67.73 0.195 7.48 7.47 10.23
6/6/2022 12:45:00 PM 20.18 68.324 0.195 7.52 7.05 10.28
6/6/2022 1:00:00 PM 20.41 68.738 0.195 7.55 6.99 10.34
6/6/2022 1:15:00 PM 20.68 69.224 0.195 7.52 7.47 10.36
6/6/2022 1:30:00 PM 20.87 69.566 0.197 7.58 7.77 10.36
6/6/2022 1:45:00 PM 21.12 70.016 0.197 7.59 6.13 10.38
6/6/2022 2:00:00 PM 21.43 70.574 0.196 7.63 8.48 10.44
6/6/2022 2:15:00 PM 21.59 70.862 0.196 7.66 6.48 10.47
6/6/2022 2:30:00 PM 21.76 71.168 0.196 7.64 7.15 10.48
6/6/2022 2:45:00 PM 22 71.6 0.196 7.68 6.37 10.52
6/6/2022 3:00:00 PM 22.11 71.798 0.196 7.74 6.69 10.51
6/6/2022 3:15:00 PM 22.12 71.816 0.196 7.71 6.77 10.48
6/6/2022 3:30:00 PM 22.23 72.014 0.196 7.75 6.83 10.47
6/6/2022 3:45:00 PM 22.27 72.086 0.196 7.71 5.97 10.44
6/6/2022 4:00:00 PM 22.24 72.032 0.197 7.66 6.22 10.35
6/6/2022 4:15:00 PM 22.27 72.086 0.196 7.75 5.6 10.41
6/6/2022 4:30:00 PM 22.26 72.068 0.196 7.78 6.7 10.39
6/6/2022 4:45:00 PM 22.16 71.888 0.197 7.73 6.42 10.3
6/6/2022 5:00:00 PM 22.16 71.888 0.196 7.76 6.55 10.28
6/6/2022 5:15:00 PM 22.14 71.852 0.197 7.76 6.87 10.23
6/6/2022 5:30:00 PM 22.1 71.78 0.196 7.74 6.6 10.17
6/6/2022 5:45:00 PM 22.03 71.654 0.197 7.74 7.06 10.11
6/6/2022 6:00:00 PM 21.97 71.546 0.196 7.71 6.58 10.06
6/6/2022 6:15:00 PM 21.91 71.438 0.196 7.72 7.06 10.02
6/6/2022 6:30:00 PM 21.81 71.258 0.197 7.71 6.28 9.93
6/6/2022 6:45:00 PM 21.69 71.042 0.197 7.69 6.25 9.79
6/6/2022 7:00:00 PM 21.62 70.916 0.197 7.66 6.61 9.68
6/6/2022 7:15:00 PM 21.53 70.754 0.196 7.66 7.49 9.61
6/6/2022 7:30:00 PM 21.44 70.592 0.196 7.62 6.81 9.49
6/6/2022 7:45:00 PM 21.3 70.34 0.197 7.56 6.62 9.32
6/6/2022 8:00:00 PM 21.24 70.232 0.196 7.58 7.12 9.24
6/6/2022 8:15:00 PM 21.13 70.034 0.196 7.51 7.46 9.08
6/6/2022 8:30:00 PM 21.08 69.944 0.196 7.51 12.52 8.95
6/6/2022 8:45:00 PM 21 69.8 0.196 7.47 6.76 8.77
6/6/2022 9:00:00 PM 20.91 69.638 0.196 7.45 7.55 8.64
6/6/2022 9:15:00 PM 20.77 69.386 0.198 7.4 7.03 8.43
6/6/2022 9:30:00 PM 20.74 69.332 0.196 7.4 7.31 8.33
6/6/2022 9:45:00 PM 20.65 69.17 0.197 7.38 8.03 8.2
6/6/2022 10:00:00 PM 20.57 69.026 0.196 7.35 8.59 8.08
6/6/2022 10:15:00 PM 20.49 68.882 0.197 7.35 7.56 7.99
6/6/2022 10:30:00 PM 20.39 68.702 0.197 7.32 10.24 7.87
6/6/2022 10:45:00 PM 20.31 68.558 0.197 7.3 8.74 7.84
6/6/2022 11:00:00 PM 20.24 68.432 0.197 7.29 9.48 7.77
6/6/2022 11:15:00 PM 20.1 68.18 0.198 7.24 8.96 7.63
6/6/2022 11:30:00 PM 20.05 68.09 0.198 7.24 10.05 7.61
6/6/2022 11:45:00 PM 20 68 0.198 7.24 9.93 7.57
6/7/2022 12:00:00 AM 19.92 67.856 0.199 7.23 8.09 7.51
6/7/2022 12:15:00 AM 19.88 67.784 0.198 7.21 8.74 7.46
6/7/2022 12:30:00 AM 19.76 67.568 0.2 7.21 10.63 7.4
6/7/2022 12:45:00 AM 19.75 67.55 0.199 7.23 9.43 7.43
6/7/2022 1:00:00 AM 19.68 67.424 0.2 7.21 10.17 7.37
6/7/2022 1:15:00 AM 19.62 67.316 0.199 7.21 10.97 7.37
6/7/2022 1:30:00 AM 19.58 67.244 0.2 7.2 9.53 7.31
6/7/2022 1:45:00 AM 19.49 67.082 0.199 7.17 9.24 7.25
6/7/2022 2:00:00 AM 19.45 67.01 0.199 7.19 11.15 7.24
6/7/2022 2:15:00 AM 19.38 66.884 0.2 7.18 10.14 7.24
6/7/2022 2:30:00 AM 19.32 66.776 0.2 7.16 10.44 7.21
6/7/2022 2:45:00 AM 19.3 66.74 0.199 7.19 10.02 7.24
6/7/2022 3:00:00 AM 19.24 66.632 0.2 7.16 9.53 7.21
6/7/2022 3:15:00 AM 19.22 66.596 0.199 7.17 10.13 7.21
6/7/2022 3:30:00 AM 19.18 66.524 0.199 7.17 9.14 7.22
6/7/2022 3:45:00 AM 19.16 66.488 0.199 7.18 10.05 7.17
6/7/2022 4:00:00 AM 19.1 66.38 0.199 7.15 9.87 7.19
6/7/2022 4:15:00 AM 19.07 66.326 0.199 7.14 10.34 7.2
6/7/2022 4:30:00 AM 19.03 66.254 0.199 7.13 9.57 7.18
6/7/2022 4:45:00 AM 18.99 66.182 0.199 7.16 10.54 7.14
6/7/2022 5:00:00 AM 18.92 66.056 0.2 7.14 9.74 7.17
6/7/2022 5:15:00 AM 18.87 65.966 0.2 7.11 10.81 7.19
6/7/2022 5:30:00 AM 18.84 65.912 0.199 7.16 11.73 7.22
6/7/2022 5:45:00 AM 18.78 65.804 0.2 7.14 9.33 7.14
6/7/2022 6:00:00 AM 18.74 65.732 0.2 7.14 10.22 7.15
6/7/2022 6:15:00 AM 18.69 65.642 0.201 7.14 9.21 7.14
6/7/2022 6:30:00 AM 18.69 65.642 0.2 7.16 10.26 7.26
6/7/2022 6:45:00 AM 18.63 65.534 0.2 7.14 12.4 7.24
6/7/2022 7:00:00 AM 18.6 65.48 0.2 7.12 9.21 7.34
6/7/2022 7:15:00 AM 18.58 65.444 0.2 7.16 9.29 7.41
6/7/2022 7:30:00 AM 18.55 65.39 0.2 7.11 8.66 7.54
6/7/2022 7:45:00 AM 18.55 65.39 0.2 7.18 8.79 7.71
6/7/2022 8:00:00 AM 18.52 65.336 0.2 7.18 9.43 7.85
6/7/2022 8:15:00 AM 18.58 65.444 0.2 7.22 9.01 8.08
6/7/2022 8:30:00 AM 18.58 65.444 0.2 7.23 8.7 8.27
6/7/2022 8:45:00 AM 18.61 65.498 0.2 7.26 8.57 8.47
6/7/2022 9:00:00 AM 18.58 65.444 0.201 7.26 8.26 8.58
6/7/2022 9:15:00 AM 18.63 65.534 0.199 7.28 8.96 8.69
6/7/2022 9:30:00 AM 18.64 65.552 0.2 7.25 8.67 8.82
6/7/2022 9:45:00 AM 18.68 65.624 0.2 7.32 8.89 9.02
6/7/2022 10:00:00 AM 18.69 65.642 0.2 7.33 7.79 9.05
6/7/2022 10:15:00 AM 18.77 65.786 0.2 7.36 8.01 9.23
6/7/2022 10:30:00 AM 18.75 65.75 0.201 7.36 8.34 9.25
6/7/2022 10:45:00 AM 18.81 65.858 0.201 7.38 8.47 9.37
6/7/2022 11:00:00 AM 18.88 65.984 0.2 7.43 8.55 9.49
6/7/2022 11:15:00 AM 18.9 66.02 0.201 7.38 7.46 9.51
6/7/2022 11:30:00 AM 18.99 66.182 0.201 7.46 7.93 9.63
6/7/2022 11:45:00 AM 19.03 66.254 0.201 7.45 7.07 9.61
6/7/2022 12:00:00 PM 19.12 66.416 0.201 7.48 8.01 9.81
6/7/2022 12:15:00 PM 19.22 66.596 0.202 7.51 7.46 9.88
6/7/2022 12:30:00 PM 19.3 66.74 0.201 7.52 7.4 9.96
6/7/2022 12:45:00 PM 19.32 66.776 0.202 7.54 6.88 9.97
6/7/2022 1:00:00 PM 19.37 66.866 0.204 7.55 18.59 10.03
6/7/2022 1:15:00 PM 19.47 67.046 0.201 7.61 8.05 10.16
6/7/2022 1:30:00 PM 19.45 67.01 0.201 7.59 14.82 10.05
6/7/2022 1:45:00 PM 19.47 67.046 0.201 7.6 13.46 10.1
6/7/2022 2:00:00 PM 19.43 66.974 0.202 7.59 10.41 10.04
6/7/2022 2:15:00 PM 19.39 66.902 0.202 7.5 13.09 9.98
6/7/2022 2:30:00 PM 19.43 66.974 0.201 7.61 7.67 9.98
6/7/2022 2:45:00 PM 19.37 66.866 0.202 7.58 8.13 9.89
6/7/2022 3:00:00 PM 19.38 66.884 0.202 7.59 7.03 9.89
6/7/2022 3:15:00 PM 19.38 66.884 0.201 7.6 7.46 9.84
6/7/2022 3:30:00 PM 19.33 66.794 0.202 7.58 6.77 9.74
6/7/2022 3:45:00 PM 19.31 66.758 0.202 7.56 6.39 9.7
6/7/2022 4:00:00 PM 19.3 66.74 0.202 7.56 6.37 9.67
6/7/2022 4:15:00 PM 19.28 66.704 0.203 7.53 6.96 9.65
6/7/2022 4:30:00 PM 19.3 66.74 0.202 7.54 7.24 9.67
6/7/2022 4:45:00 PM 19.3 66.74 0.202 7.59 6.54 9.7
6/7/2022 5:00:00 PM 19.24 66.632 0.203 7.53 6.83 9.59
6/7/2022 5:15:00 PM 19.22 66.596 0.203 7.55 6.83 9.52
6/7/2022 5:30:00 PM 19.19 66.542 0.202 7.52 6.71 9.47
6/7/2022 5:45:00 PM 19.16 66.488 0.202 7.54 7.12 9.41
6/7/2022 6:00:00 PM 19.11 66.398 0.203 7.51 6.67 9.29
6/7/2022 6:15:00 PM 19.07 66.326 0.203 7.46 6.44 9.28
6/7/2022 6:30:00 PM 19.02 66.236 0.202 7.49 5.74 9.14
6/7/2022 6:45:00 PM 18.96 66.128 0.202 7.45 7.05 9.06
6/7/2022 7:00:00 PM 18.93 66.074 0.203 7.43 6.08 8.9
6/7/2022 7:15:00 PM 18.89 66.002 0.202 7.42 6.36 8.85
6/7/2022 7:30:00 PM 18.86 65.948 0.202 7.4 6.13 8.73
6/7/2022 7:45:00 PM 18.81 65.858 0.203 7.4 5.9 8.69
6/7/2022 8:00:00 PM 18.77 65.786 0.203 7.37 6.52 8.62
6/7/2022 8:15:00 PM 18.72 65.696 0.204 7.36 7.31 8.45
6/7/2022 8:30:00 PM 18.67 65.606 0.204 7.35 6.98 8.43
6/7/2022 8:45:00 PM 18.64 65.552 0.204 7.34 7.4 8.35
6/7/2022 9:00:00 PM 18.58 65.444 0.204 7.32 7.97 8.3
6/7/2022 9:15:00 PM 18.55 65.39 0.204 7.31 7.88 8.21
6/7/2022 9:30:00 PM 18.55 65.39 0.203 7.32 5.92 8.16
6/7/2022 9:45:00 PM 18.51 65.318 0.203 7.3 7.21 8.1
6/7/2022 10:00:00 PM 18.47 65.246 0.204 7.3 7.32 8.05
6/7/2022 10:15:00 PM 18.43 65.174 0.204 7.28 6.55 8.02
6/7/2022 10:30:00 PM 18.39 65.102 0.204 7.27 7.36 7.93
6/7/2022 10:45:00 PM 18.38 65.084 0.203 7.26 7.58 7.93
6/7/2022 11:00:00 PM 18.34 65.012 0.203 7.27 6.69 7.91
6/7/2022 11:15:00 PM 18.31 64.958 0.203 7.26 7.13 7.87
6/7/2022 11:30:00 PM 18.29 64.922 0.203 7.26 8.53 7.85
6/7/2022 11:45:00 PM 18.23 64.814 0.204 7.24 8.64 7.81
6/8/2022 12:00:00 AM 18.21 64.778 0.203 7.19 8.6 7.77
6/8/2022 12:15:00 AM 18.17 64.706 0.203 7.21 7.02 7.67
6/8/2022 12:30:00 AM 18.18 64.724 0.203 7.23 8.72 7.77
6/8/2022 12:45:00 AM 18.16 64.688 0.203 7.22 8.67 7.72
6/8/2022 1:00:00 AM 18.11 64.598 0.204 7.2 13.77 7.69
6/8/2022 1:15:00 AM 18.1 64.58 0.203 7.2 9.08 7.7
6/8/2022 1:30:00 AM 18.09 64.562 0.203 7.16 8.24 7.72
6/8/2022 1:45:00 AM 18.07 64.526 0.203 7.22 8.19 7.7
6/8/2022 2:00:00 AM 18.03 64.454 0.203 7.22 8.72 7.69
6/8/2022 2:15:00 AM 18.01 64.418 0.203 7.14 8.64 7.67
6/8/2022 2:30:00 AM 17.98 64.364 0.203 7.21 8.76 7.66
6/8/2022 2:45:00 AM 17.94 64.292 0.204 7.19 10.01 7.63
6/8/2022 3:00:00 AM 17.92 64.256 0.204 7.18 9.13 7.6
6/8/2022 3:15:00 AM 17.91 64.238 0.204 7.19 8.99 7.61
6/8/2022 3:30:00 AM 17.87 64.166 0.204 7.2 9.35 7.63
6/8/2022 3:45:00 AM 17.85 64.13 0.203 7.2 9.46 7.62
6/8/2022 4:00:00 AM 17.81 64.058 0.203 7.2 9.65 7.65
6/8/2022 4:15:00 AM 17.78 64.004 0.203 7.2 9.33 7.68
6/8/2022 4:30:00 AM 17.72 63.896 0.203 7.2 9.27 7.69
6/8/2022 4:45:00 AM 17.66 63.788 0.203 7.19 8.71 7.61
6/8/2022 5:00:00 AM 17.61 63.698 0.203 7.19 10.11 7.63
6/8/2022 5:15:00 AM 17.54 63.572 0.204 7.18 10.68 7.67
6/8/2022 5:30:00 AM 17.48 63.464 0.204 7.17 10.3 7.64
6/8/2022 5:45:00 AM 17.4 63.32 0.203 7.19 11.21 7.69
6/8/2022 6:00:00 AM 17.33 63.194 0.203 7.2 9.24 7.73
6/8/2022 6:15:00 AM 17.26 63.068 0.203 7.2 8.73 7.77
6/8/2022 6:30:00 AM 17.19 62.942 0.203 7.21 9.54 7.81
6/8/2022 6:45:00 AM 17.12 62.816 0.203 7.2 9.72 7.86
6/8/2022 7:00:00 AM 17.04 62.672 0.204 7.21 9.34 7.93
6/8/2022 7:15:00 AM 17 62.6 0.204 7.21 8.16 8.01
6/8/2022 7:30:00 AM 16.96 62.528 0.204 7.21 8.92 8.04
6/8/2022 7:45:00 AM 16.94 62.492 0.203 7.23 9.75 8.23
6/8/2022 8:00:00 AM 16.96 62.528 0.203 7.25 8.78 8.36
6/8/2022 8:15:00 AM 16.96 62.528 0.203 7.26 8.46 8.46
6/8/2022 8:30:00 AM 17.04 62.672 0.202 7.26 7.7 8.7
6/8/2022 8:45:00 AM 17.09 62.762 0.202 7.3 7.83 8.89
6/8/2022 9:00:00 AM 17.14 62.852 0.202 7.3 7.31 8.95
6/8/2022 9:15:00 AM 17.18 62.924 0.202 7.35 7.79 9.13
6/8/2022 9:30:00 AM 17.24 63.032 0.202 7.3 6.97 9.25
6/8/2022 9:45:00 AM 17.26 63.068 0.202 7.38 7.83 9.3
6/8/2022 10:00:00 AM 17.36 63.248 0.203 7.33 6.75 9.42
6/8/2022 10:15:00 AM 17.4 63.32 0.202 7.43 8.32 9.57
6/8/2022 10:30:00 AM 17.54 63.572 0.202 7.45 7.24 9.71
6/8/2022 10:45:00 AM 17.68 63.824 0.202 7.47 6.83 9.79
6/8/2022 11:00:00 AM 17.79 64.022 0.202 7.49 8.01 9.86
6/8/2022 11:15:00 AM 18.08 64.544 0.202 7.54 7.43 10.05
6/8/2022 11:30:00 AM 18.08 64.544 0.202 7.56 6.99 10.11
6/8/2022 11:45:00 AM 18.42 65.156 0.202 7.59 7.03 10.26
6/8/2022 12:00:00 PM 18.56 65.408 0.202 7.6 6.44 10.34
6/8/2022 12:15:00 PM 18.55 65.39 0.202 7.59 6.34 10.35
6/8/2022 12:30:00 PM 18.94 66.092 0.203 7.61 6.71 10.45
6/8/2022 12:45:00 PM 19 66.2 0.203 7.67 6.32 10.47
6/8/2022 1:00:00 PM 19.26 66.668 0.203 7.69 5.59 10.5
6/8/2022 1:15:00 PM 19.49 67.082 0.203 7.64 5.83 10.6
6/8/2022 1:30:00 PM 19.48 67.064 0.204 7.69 6.36 10.55
6/8/2022 1:45:00 PM 19.79 67.622 0.203 7.77 5.98 10.68
6/8/2022 2:00:00 PM 19.93 67.874 0.205 7.76 5.7 10.62
6/8/2022 2:15:00 PM 20 68 0.204 7.74 5.91 10.67
6/8/2022 2:30:00 PM 20.04 68.07201 0.204 7.8 5.45 10.66
6/8/2022 2:45:00 PM 20.32 68.576 0.204 7.83 6.53 10.7
6/8/2022 3:00:00 PM 20.35 68.63 0.204 7.81 5.28 10.58
6/8/2022 3:15:00 PM 20.37 68.666 0.204 7.81 5.98 10.63
6/8/2022 3:30:00 PM 20.59 69.062 0.204 7.84 6.02 10.7
6/8/2022 3:45:00 PM 20.61 69.098 0.204 7.84 5.21 10.64
6/8/2022 4:00:00 PM 20.63 69.134 0.205 7.84 5.37 10.6
6/8/2022 4:15:00 PM 20.74 69.332 0.205 7.84 6.19 10.55
6/8/2022 4:30:00 PM 20.82 69.476 0.206 7.83 6.29 10.52
6/8/2022 4:45:00 PM 20.91 69.638 0.206 7.79 6.41 10.42
6/8/2022 5:00:00 PM 21.01 69.818 0.206 7.82 5.65 10.44
6/8/2022 5:15:00 PM 21.12 70.016 0.206 7.84 5.67 10.41
6/8/2022 5:30:00 PM 21.12 70.016 0.206 7.8 5.32 10.33
6/8/2022 5:45:00 PM 21.1 69.98 0.207 7.77 5.85 10.19
6/8/2022 6:00:00 PM 21.05 69.89 0.206 7.79 13.76 10.15
6/8/2022 6:15:00 PM 20.97 69.746 0.207 7.75 6 10.07
6/8/2022 6:30:00 PM 20.89 69.602 0.207 7.75 6.1 9.98
6/8/2022 6:45:00 PM 20.78 69.404 0.207 7.7 6.32 9.85
6/8/2022 7:00:00 PM 20.71 69.278 0.207 7.68 5.48 9.75
6/8/2022 7:15:00 PM 20.61 69.098 0.207 7.69 6.54 9.65
6/8/2022 7:30:00 PM 20.56 69.008 0.207 7.62 6.17 9.56
6/8/2022 7:45:00 PM 20.46 68.828 0.208 7.61 5.6 9.43
6/8/2022 8:00:00 PM 20.45 68.81 0.207 7.64 7.31 9.38
6/8/2022 8:15:00 PM 20.38 68.684 0.207 7.6 5.87 9.27
6/8/2022 8:30:00 PM 20.3 68.54 0.207 7.58 5.91 9.14
6/8/2022 8:45:00 PM 20.21 68.378 0.208 7.54 6.91 9.02
6/8/2022 9:00:00 PM 20.14 68.252 0.208 7.53 6.15 8.88
6/8/2022 9:15:00 PM 20.07 68.126 0.208 7.52 8.64 8.69
6/8/2022 9:30:00 PM 19.92 67.856 0.209 7.44 7.64 8.54
6/8/2022 9:45:00 PM 19.89 67.802 0.208 7.46 7.54 8.47
6/8/2022 10:00:00 PM 19.75 67.55 0.209 7.41 7.8 8.29
6/8/2022 10:15:00 PM 19.64 67.352 0.21 7.4 7.28 8.17
6/8/2022 10:30:00 PM 19.59 67.262 0.21 7.39 7.84 8.1
6/8/2022 10:45:00 PM 19.47 67.046 0.212 7.3 8.27 8
6/8/2022 11:00:00 PM 19.42 66.956 0.21 7.35 9.91 7.95
6/8/2022 11:15:00 PM 19.36 66.848 0.21 7.32 12.15 7.91
6/8/2022 11:30:00 PM 19.3 66.74 0.21 7.31 8.36 7.89
6/8/2022 11:45:00 PM 19.2 66.56 0.212 7.31 8.3 7.76
6/9/2022 12:00:00 AM 19.15 66.47 0.211 7.26 8.38 7.79
6/9/2022 12:15:00 AM 19.11 66.398 0.21 7.29 8.2 7.75
6/9/2022 12:30:00 AM 19.04 66.272 0.211 7.29 7 7.69
6/9/2022 12:45:00 AM 18.97 66.146 0.211 7.27 10.52 7.65
6/9/2022 1:00:00 AM 18.93 66.074 0.211 7.27 8.76 7.59
6/9/2022 1:15:00 AM 18.87 65.966 0.211 7.27 7.93 7.56
6/9/2022 1:30:00 AM 18.78 65.804 0.212 7.21 11.17 7.5
6/9/2022 1:45:00 AM 18.75 65.75 0.211 7.24 10.46 7.53
6/9/2022 2:00:00 AM 18.71 65.67799 0.21 7.26 7.75 7.61
6/9/2022 2:15:00 AM 18.63 65.534 0.21 7.24 9.3 7.55
6/9/2022 2:30:00 AM 18.56 65.408 0.208 7.26 14.56 7.61
6/9/2022 2:45:00 AM 18.48 65.264 0.207 7.27 12.06 7.73
6/9/2022 3:00:00 AM 18.41 65.138 0.205 7.28 11.96 7.79
6/9/2022 3:15:00 AM 18.34 65.012 0.203 7.28 11.93 7.84
6/9/2022 3:30:00 AM 18.23 64.814 0.199 7.28 12.43 7.95
6/9/2022 3:45:00 AM 18.17 64.706 0.198 7.28 14.54 7.97
6/9/2022 4:00:00 AM 18.12 64.616 0.196 7.27 15.09 7.93
6/9/2022 4:15:00 AM 18.1 64.58 0.195 7.28 15.12 7.93
6/9/2022 4:30:00 AM 18.1 64.58 0.195 7.27 16.83 7.9
6/9/2022 4:45:00 AM 18.11 64.598 0.195 7.27 15.25 7.88
6/9/2022 5:00:00 AM 18.12 64.616 0.196 7.22 15.2 7.85
6/9/2022 5:15:00 AM 18.11 64.598 0.195 7.24 14.64 7.9
6/9/2022 5:30:00 AM 18.1 64.58 0.195 7.27 14.12 7.9
6/9/2022 5:45:00 AM 18.08 64.544 0.193 7.28 15.5 7.96
6/9/2022 6:00:00 AM 18.07 64.526 0.194 7.28 15.75 7.98
6/9/2022 6:15:00 AM 18.09 64.562 0.194 7.26 16.28 8.02
6/9/2022 6:30:00 AM 18.12 64.616 0.193 7.27 15.81 8.06
6/9/2022 6:45:00 AM 18.13 64.634 0.192 7.31 16.77 8.13
6/9/2022 7:00:00 AM 18.12 64.616 0.192 7.29 18.69 8.22
6/9/2022 7:15:00 AM 18.06 64.508 0.192 7.35 22.75 8.3
6/9/2022 7:30:00 AM 17.75 63.95 0.191 7.35 34.28 8.39
6/9/2022 7:45:00 AM 17.21 62.978 0.186 7.31 59.53 8.53
6/9/2022 8:00:00 AM 16.71 62.078 0.18 7.28 98.15 8.65
6/9/2022 8:15:00 AM 16.53 61.754 0.177 7.28 164.11 8.68
6/9/2022 8:30:00 AM 16.53 61.754 0.175 7.27 190.47 8.7
6/9/2022 8:45:00 AM 16.53 61.754 0.174 7.27 167.17 8.76
6/9/2022 9:00:00 AM 16.51 61.718 0.17 7.27 138.64 8.84
6/9/2022 9:15:00 AM 16.45 61.61 0.166 7.27 108.78 8.94
6/9/2022 9:30:00 AM 16.37 61.466 0.163 7.28 90.99 9.02
6/9/2022 9:45:00 AM 16.31 61.358 0.16 7.27 78.24 9.09
6/9/2022 10:00:00 AM 16.27 61.286 0.159 7.28 69.08 9.14
6/9/2022 10:15:00 AM 16.22 61.196 0.16 7.29 62.97 9.15
6/9/2022 10:30:00 AM 16.29 61.322 0.161 7.29 55.5 9.14
6/9/2022 10:45:00 AM 16.37 61.466 0.16 7.29 47.98 9.14
6/9/2022 11:00:00 AM 16.49 61.682 0.158 7.29 44.54 9.14
6/9/2022 11:15:00 AM 16.58 61.844 0.153 7.29 40.5 9.16
6/9/2022 11:30:00 AM 16.65 61.97 0.149 7.24 38.65 9.18
6/9/2022 11:45:00 AM 16.69 62.042 0.144 7.29 37.11 9.21
6/9/2022 12:00:00 PM 16.7 62.06 0.141 7.27 36.67 9.23
6/9/2022 12:15:00 PM 16.74 62.132 0.138 7.28 36.96 9.25
6/9/2022 12:30:00 PM 16.81 62.258 0.136 7.25 35.43 9.28
6/9/2022 12:45:00 PM 16.91 62.438 0.135 7.25 34.97 9.3
6/9/2022 1:00:00 PM 16.96 62.528 0.134 7.29 35.83 9.32
6/9/2022 1:15:00 PM 16.98 62.564 0.133 7.28 35.28 9.3
6/9/2022 1:30:00 PM 17.07 62.726 0.133 7.29 35.25 9.31
6/9/2022 1:45:00 PM 17.21 62.978 0.133 7.3 35.66 9.35
6/9/2022 2:00:00 PM 17.31 63.158 0.133 7.31 35.04 9.37
6/9/2022 2:15:00 PM 17.32 63.176 0.134 7.31 34.83 9.34
6/9/2022 2:30:00 PM 17.36 63.248 0.134 7.3 34.53 9.35
6/9/2022 2:45:00 PM 17.41 63.338 0.135 7.32 33.85 9.35
6/9/2022 3:00:00 PM 17.48 63.464 0.136 7.32 32.49 9.34
6/9/2022 3:15:00 PM 17.55 63.59 0.136 7.34 33.39 9.34
6/9/2022 3:30:00 PM 17.59 63.662 0.136 7.34 33.24 9.31
6/9/2022 3:45:00 PM 17.64 63.752 0.137 7.29 34.09 9.3
6/9/2022 4:00:00 PM 17.69 63.842 0.137 7.32 36.2 9.29
6/9/2022 4:15:00 PM 17.73 63.914 0.136 7.34 35.19 9.29
6/9/2022 4:30:00 PM 17.72 63.896 0.136 7.34 35.36 9.25
6/9/2022 4:45:00 PM 17.68 63.824 0.136 7.3 35.42 9.2
6/9/2022 5:00:00 PM 17.66 63.788 0.136 7.32 34.07 9.18
6/9/2022 5:15:00 PM 17.65 63.77 0.136 7.32 34.16 9.14
6/9/2022 5:30:00 PM 17.64 63.752 0.135 7.32 33.02 9.13
6/9/2022 5:45:00 PM 17.65 63.77 0.135 7.32 32.51 9.11
6/9/2022 6:00:00 PM 17.68 63.824 0.135 7.32 30.43 9.13
6/9/2022 6:15:00 PM 17.71 63.878 0.134 7.3 29.93 9.14
6/9/2022 6:30:00 PM 17.74 63.932 0.134 7.31 28.15 9.13
6/9/2022 6:45:00 PM 17.78 64.004 0.134 7.34 25.82 9.15
6/9/2022 7:00:00 PM 17.79 64.022 0.134 7.34 25.1 9.14
6/9/2022 7:15:00 PM 17.81 64.058 0.134 7.34 24.58 9.11
6/9/2022 7:30:00 PM 17.81 64.058 0.134 7.3 24.02 9.09
6/9/2022 7:45:00 PM 17.78 64.004 0.135 7.34 23.28 9.05
6/9/2022 8:00:00 PM 17.74 63.932 0.135 7.3 22.03 9.02
6/9/2022 8:15:00 PM 17.7 63.86 0.135 7.32 21.05 8.99
6/9/2022 8:30:00 PM 17.66 63.788 0.135 7.31 20.86 8.96
6/9/2022 8:45:00 PM 17.61 63.698 0.135 7.31 19.83 8.94
6/9/2022 9:00:00 PM 17.56 63.608 0.135 7.29 19.51 8.92
6/9/2022 9:15:00 PM 17.52 63.536 0.135 7.27 19.11 8.9
6/9/2022 9:30:00 PM 17.47 63.446 0.136 7.28 19.45 8.88
6/9/2022 9:45:00 PM 17.43 63.374 0.136 7.27 18.85 8.87
6/9/2022 10:00:00 PM 17.39 63.302 0.136 7.24 18.79 8.85
6/9/2022 10:15:00 PM 17.35 63.23 0.136 7.28 18.43 8.85
6/9/2022 10:30:00 PM 17.3 63.14 0.137 7.28 18.36 8.84
6/9/2022 10:45:00 PM 17.24 63.032 0.137 7.22 18.7 8.83
6/9/2022 11:00:00 PM 17.19 62.942 0.137 7.27 17.81 8.82
6/9/2022 11:15:00 PM 17.13 62.834 0.137 7.27 17.76 8.81
6/9/2022 11:30:00 PM 17.07 62.726 0.137 7.27 17.02 8.81
6/9/2022 11:45:00 PM 17.02 62.636 0.137 7.26 16.52 8.81
6/10/2022 12:00:00 AM 16.95 62.51 0.137 7.24 16.61 8.81
6/10/2022 12:15:00 AM 16.88 62.384 0.137 7.26 16.39 8.82
6/10/2022 12:30:00 AM 16.82 62.276 0.137 7.26 15.83 8.82
6/10/2022 12:45:00 AM 16.76 62.168 0.137 7.25 16 8.83
6/10/2022 1:00:00 AM 16.7 62.06 0.137 7.26 15.51 8.83
6/10/2022 1:15:00 AM 16.64 61.952 0.137 7.25 15.32 8.84
6/10/2022 1:30:00 AM 16.57 61.826 0.137 7.22 15.19 8.85
6/10/2022 1:45:00 AM 16.5 61.7 0.136 7.21 14.79 8.86
6/10/2022 2:00:00 AM 16.43 61.574 0.136 7.22 15.11 8.87
6/10/2022 2:15:00 AM 16.36 61.448 0.136 7.19 14.74 8.87
6/10/2022 2:30:00 AM 16.29 61.322 0.136 7.18 14.67 8.87
6/10/2022 2:45:00 AM 16.22 61.196 0.136 7.23 14.49 8.89
6/10/2022 3:00:00 AM 16.16 61.088 0.136 7.23 14.52 8.9
6/10/2022 3:15:00 AM 16.09 60.962 0.136 7.23 13.99 8.91
6/10/2022 3:30:00 AM 16.02 60.836 0.136 7.18 14.04 8.92
6/10/2022 3:45:00 AM 15.96 60.728 0.136 7.23 14.11 8.93
6/10/2022 4:00:00 AM 15.89 60.602 0.136 7.21 13.54 8.94
6/10/2022 4:15:00 AM 15.83 60.494 0.135 7.23 14.04 8.96
6/10/2022 4:30:00 AM 15.77 60.386 0.135 7.21 14.08 8.96
6/10/2022 4:45:00 AM 15.7 60.26 0.135 7.23 13.69 8.98
6/10/2022 5:00:00 AM 15.63 60.134 0.135 7.19 13.43 8.99
6/10/2022 5:15:00 AM 15.55 59.99 0.135 7.21 14.82 9.01
6/10/2022 5:30:00 AM 15.46 59.828 0.135 7.21 13.41 9.04
6/10/2022 5:45:00 AM 15.38 59.684 0.135 7.22 13.81 9.04
6/10/2022 6:00:00 AM 15.31 59.558 0.136 7.22 13.03 9.07
6/10/2022 6:15:00 AM 15.24 59.432 0.135 7.23 13.06 9.1
6/10/2022 6:30:00 AM 15.18 59.324 0.135 7.22 15.4 9.14
6/10/2022 6:45:00 AM 15.11 59.198 0.135 7.23 15.88 9.19
6/10/2022 7:00:00 AM 15.07 59.126 0.136 7.22 12.49 9.23
6/10/2022 7:15:00 AM 15.02 59.036 0.135 7.23 12.16 9.29
6/10/2022 7:30:00 AM 14.98 58.964 0.135 7.22 11.83 9.34
6/10/2022 7:45:00 AM 14.94 58.892 0.135 7.25 11.55 9.36
6/10/2022 8:00:00 AM 14.92 58.856 0.136 7.27 11.14 9.4
6/10/2022 8:15:00 AM 14.92 58.856 0.135 7.27 11.22 9.45
6/10/2022 8:30:00 AM 14.92 58.856 0.135 7.27 10.28 9.49
6/10/2022 8:45:00 AM 14.95 58.91 0.135 7.28 10.39 9.53
6/10/2022 9:00:00 AM 14.99 58.982 0.136 7.29 9.81 9.58
6/10/2022 9:15:00 AM 15.06 59.108 0.136 7.23 9.65 9.63
6/10/2022 9:30:00 AM 15.12 59.216 0.136 7.29 9.34 9.68
6/10/2022 9:45:00 AM 15.22 59.396 0.136 7.31 9.1 9.75
6/10/2022 10:00:00 AM 15.34 59.612 0.136 7.34 8.67 9.82
6/10/2022 10:15:00 AM 15.44 59.792 0.136 7.35 8.63 9.85